PWSweather.com
Personal Weather Stations
Station Observations
HVALPSUND
Hvalpsund, FarsoeDK 9640

HvalpsundFarsoeDK 9640

Lat: 56.705311, Lon: 9.203638

Elevation: 5

Station Type: Vantage Pro2

http://hvalpsundvejr.dk

High Low Average
Temperature 30.4°F-0.9°C 25.8°F-3.4°C 27.9°F-2.3°C
Dew Point 26.7°F-2.9°C 20.8°F-6.2°C 23.4°F-4.8°C
Winds 24.1 mph 38.8 kmh 3.4 mph 5.5 kmh 13.0 mph NE20.9 kmh NE
Wind Gusts 29.0 mph46.7 kmh 6.0 mph9.7 kmh 18.0 mph29.0 kmh
Humidity 86% 80% 83%
Pressure 29.95 in1014.2 mb 29.71 in1006.1 mb -
Precipitation 0.02 in0.5 mm - -
Hour Temp Dew Point Humidity Winds Wind Gusts Pressure Precip Precip Rate Daily Precip Total
12:00 AM 27.1°F-2.7°C 22.1°F-5.5°C 81% 11.1 mph NNE17.9 kmh NNE 16.0 mph25.7 kmh 29.72 in1006.4 mb 0.00 in0.0 mm 0.00 in0.0 mm 0.02 in0.5 mm
12:01 AM 27.1°F-2.7°C 22.1°F-5.5°C 81% 14.9 mph NNE24.0 kmh NNE 18.0 mph29.0 kmh 29.72 in1006.4 mb 0.00 in0.0 mm 0.00 in0.0 mm 0.00 in0.0 mm
12:02 AM 27.1°F-2.7°C 22.1°F-5.5°C 81% 14.4 mph NNE23.2 kmh NNE 18.0 mph29.0 kmh 29.72 in1006.4 mb 0.00 in0.0 mm 0.00 in0.0 mm 0.00 in0.0 mm
12:03 AM 27.0°F-2.8°C 22.0°F-5.6°C 81% 13.1 mph NNE21.1 kmh NNE 18.0 mph29.0 kmh 29.72 in1006.4 mb 0.00 in0.0 mm 0.00 in0.0 mm 0.00 in0.0 mm
12:04 AM 27.0°F-2.8°C 22.0°F-5.6°C 81% 14.9 mph NNE24.0 kmh NNE 17.0 mph27.4 kmh 29.72 in1006.4 mb 0.00 in0.0 mm 0.00 in0.0 mm 0.00 in0.0 mm
12:05 AM 26.9°F-2.8°C 21.6°F-5.8°C 80% 12.6 mph NNE20.3 kmh NNE 17.0 mph27.4 kmh 29.72 in1006.4 mb 0.00 in0.0 mm 0.00 in0.0 mm 0.00 in0.0 mm
12:06 AM 26.9°F-2.8°C 21.6°F-5.8°C 80% 9.0 mph NE14.5 kmh NE 15.0 mph24.1 kmh 29.72 in1006.4 mb 0.00 in0.0 mm 0.00 in0.0 mm 0.00 in0.0 mm
12:07 AM 26.8°F-2.9°C 21.5°F-5.8°C 80% 8.1 mph NE13.0 kmh NE 12.0 mph19.3 kmh 29.72 in1006.4 mb 0.00 in0.0 mm 0.00 in0.0 mm 0.00 in0.0 mm
12:08 AM 26.8°F-2.9°C 21.5°F-5.8°C 80% 6.3 mph NE10.1 kmh NE 10.0 mph16.1 kmh 29.72 in1006.4 mb 0.00 in0.0 mm 0.00 in0.0 mm 0.00 in0.0 mm
12:09 AM 26.8°F-2.9°C 21.5°F-5.8°C 80% 8.0 mph NE12.9 kmh NE 10.0 mph16.1 kmh 29.72 in1006.4 mb 0.00 in0.0 mm 0.00 in0.0 mm 0.00 in0.0 mm
12:10 AM 26.8°F-2.9°C 21.5°F-5.8°C 80% 10.0 mph NE16.1 kmh NE 13.0 mph20.9 kmh 29.72 in1006.4 mb 0.00 in0.0 mm 0.00 in0.0 mm 0.00 in0.0 mm
12:11 AM 26.8°F-2.9°C 21.8°F-5.7°C 81% 9.5 mph NE15.3 kmh NE 13.0 mph20.9 kmh 29.72 in1006.4 mb 0.00 in0.0 mm 0.00 in0.0 mm 0.00 in0.0 mm
12:12 AM 26.8°F-2.9°C 21.5°F-5.8°C 80% 7.9 mph NE12.7 kmh NE 12.0 mph19.3 kmh 29.72 in1006.4 mb 0.00 in0.0 mm 0.00 in0.0 mm 0.00 in0.0 mm
12:13 AM 26.8°F-2.9°C 21.8°F-5.7°C 81% 8.3 mph NE13.4 kmh NE 12.0 mph19.3 kmh 29.72 in1006.4 mb 0.00 in0.0 mm 0.00 in0.0 mm 0.00 in0.0 mm
12:14 AM 26.8°F-2.9°C 21.8°F-5.7°C 81% 8.1 mph NE13.0 kmh NE 12.0 mph19.3 kmh 29.71 in1006.1 mb 0.00 in0.0 mm 0.00 in0.0 mm 0.00 in0.0 mm
12:15 AM 26.8°F-2.9°C 21.8°F-5.7°C 81% 5.7 mph NE9.2 kmh NE 10.0 mph16.1 kmh 29.72 in1006.4 mb 0.00 in0.0 mm 0.00 in0.0 mm 0.00 in0.0 mm
12:16 AM 26.8°F-2.9°C 21.8°F-5.7°C 81% 7.6 mph NE12.2 kmh NE 10.0 mph16.1 kmh 29.72 in1006.4 mb 0.00 in0.0 mm 0.00 in0.0 mm 0.00 in0.0 mm
12:17 AM 26.8°F-2.9°C 21.8°F-5.7°C 81% 7.3 mph NE11.7 kmh NE 10.0 mph16.1 kmh 29.72 in1006.4 mb 0.00 in0.0 mm 0.00 in0.0 mm 0.00 in0.0 mm
12:18 AM 26.8°F-2.9°C 21.8°F-5.7°C 81% 9.5 mph ENE15.3 kmh ENE 12.0 mph19.3 kmh 29.72 in1006.4 mb 0.00 in0.0 mm 0.00 in0.0 mm 0.00 in0.0 mm
12:19 AM 26.7°F-2.9°C 21.4°F-5.9°C 80% 6.3 mph NE10.1 kmh NE 12.0 mph19.3 kmh 29.72 in1006.4 mb 0.00 in0.0 mm 0.00 in0.0 mm 0.00 in0.0 mm
12:20 AM 26.7°F-2.9°C 21.4°F-5.9°C 80% 6.1 mph ENE9.8 kmh ENE 9.0 mph14.5 kmh 29.72 in1006.4 mb 0.00 in0.0 mm 0.00 in0.0 mm 0.00 in0.0 mm
12:21 AM 26.7°F-2.9°C 21.4°F-5.9°C 80% 6.4 mph NE10.3 kmh NE 11.0 mph17.7 kmh 29.72 in1006.4 mb 0.00 in0.0 mm 0.00 in0.0 mm 0.00 in0.0 mm
12:22 AM 26.7°F-2.9°C 21.4°F-5.9°C 80% 6.9 mph NE11.1 kmh NE 11.0 mph17.7 kmh 29.72 in1006.4 mb 0.00 in0.0 mm 0.00 in0.0 mm 0.00 in0.0 mm
12:23 AM 26.6°F-3.0°C 21.3°F-5.9°C 80% 8.1 mph ENE13.0 kmh ENE 11.0 mph17.7 kmh 29.72 in1006.4 mb 0.00 in0.0 mm 0.00 in0.0 mm 0.00 in0.0 mm
12:24 AM 26.6°F-3.0°C 21.3°F-5.9°C 80% 10.0 mph NE16.1 kmh NE 12.0 mph19.3 kmh 29.72 in1006.4 mb 0.00 in0.0 mm 0.00 in0.0 mm 0.00 in0.0 mm
12:25 AM 26.6°F-3.0°C 21.3°F-5.9°C 80% 7.4 mph NE11.9 kmh NE 12.0 mph19.3 kmh 29.72 in1006.4 mb 0.00 in0.0 mm 0.00 in0.0 mm 0.00 in0.0 mm
12:26 AM 26.6°F-3.0°C 21.3°F-5.9°C 80% 5.8 mph NE9.3 kmh NE 12.0 mph19.3 kmh 29.72 in1006.4 mb 0.00 in0.0 mm 0.00 in0.0 mm 0.00 in0.0 mm
12:27 AM 26.6°F-3.0°C 21.3°F-5.9°C 80% 6.1 mph NE9.8 kmh NE 9.0 mph14.5 kmh 29.72 in1006.4 mb 0.00 in0.0 mm 0.00 in0.0 mm 0.00 in0.0 mm
12:28 AM 26.5°F-3.1°C 21.2°F-6.0°C 80% 6.2 mph NE10.0 kmh NE 9.0 mph14.5 kmh 29.72 in1006.4 mb 0.00 in0.0 mm 0.00 in0.0 mm 0.00 in0.0 mm
12:29 AM 26.6°F-3.0°C 21.3°F-5.9°C 80% 5.6 mph NE9.0 kmh NE 9.0 mph14.5 kmh 29.72 in1006.4 mb 0.00 in0.0 mm 0.00 in0.0 mm 0.00 in0.0 mm
12:30 AM 26.6°F-3.0°C 21.3°F-5.9°C 80% 5.3 mph NE8.5 kmh NE 9.0 mph14.5 kmh 29.72 in1006.4 mb 0.00 in0.0 mm 0.00 in0.0 mm 0.00 in0.0 mm
12:31 AM 26.6°F-3.0°C 21.3°F-5.9°C 80% 6.1 mph NE9.8 kmh NE 9.0 mph14.5 kmh 29.72 in1006.4 mb 0.00 in0.0 mm 0.00 in0.0 mm 0.00 in0.0 mm
12:32 AM 26.6°F-3.0°C 21.6°F-5.8°C 81% 5.0 mph NE8.0 kmh NE 9.0 mph14.5 kmh 29.72 in1006.4 mb 0.00 in0.0 mm 0.00 in0.0 mm 0.00 in0.0 mm
12:33 AM 26.6°F-3.0°C 21.6°F-5.8°C 81% 4.4 mph NE7.1 kmh NE 6.0 mph9.7 kmh 29.72 in1006.4 mb 0.00 in0.0 mm 0.00 in0.0 mm 0.00 in0.0 mm
12:34 AM 26.6°F-3.0°C 21.6°F-5.8°C 81% 5.8 mph ENE9.3 kmh ENE 9.0 mph14.5 kmh 29.72 in1006.4 mb 0.00 in0.0 mm 0.00 in0.0 mm 0.00 in0.0 mm
12:35 AM 26.6°F-3.0°C 21.6°F-5.8°C 81% 4.9 mph NE7.9 kmh NE 9.0 mph14.5 kmh 29.72 in1006.4 mb 0.00 in0.0 mm 0.00 in0.0 mm 0.00 in0.0 mm
12:36 AM 26.6°F-3.0°C 21.6°F-5.8°C 81% 8.1 mph NE13.0 kmh NE 11.0 mph17.7 kmh 29.72 in1006.4 mb 0.00 in0.0 mm 0.00 in0.0 mm 0.00 in0.0 mm
12:37 AM 26.6°F-3.0°C 21.6°F-5.8°C 81% 7.8 mph NE12.6 kmh NE 11.0 mph17.7 kmh 29.72 in1006.4 mb 0.00 in0.0 mm 0.00 in0.0 mm 0.00 in0.0 mm
12:38 AM 26.6°F-3.0°C 21.6°F-5.8°C 81% 5.8 mph NE9.3 kmh NE 10.0 mph16.1 kmh 29.72 in1006.4 mb 0.00 in0.0 mm 0.00 in0.0 mm 0.00 in0.0 mm
12:39 AM 26.6°F-3.0°C 21.6°F-5.8°C 81% 7.2 mph NE11.6 kmh NE 10.0 mph16.1 kmh 29.72 in1006.4 mb 0.00 in0.0 mm 0.00 in0.0 mm 0.00 in0.0 mm
12:40 AM 26.6°F-3.0°C 21.6°F-5.8°C 81% 5.3 mph NE8.5 kmh NE 9.0 mph14.5 kmh 29.72 in1006.4 mb 0.00 in0.0 mm 0.00 in0.0 mm 0.00 in0.0 mm
12:41 AM 26.6°F-3.0°C 21.6°F-5.8°C 81% 5.9 mph NE9.5 kmh NE 8.0 mph12.9 kmh 29.72 in1006.4 mb 0.00 in0.0 mm 0.00 in0.0 mm 0.00 in0.0 mm
12:42 AM 26.6°F-3.0°C 21.6°F-5.8°C 81% 5.2 mph NE8.4 kmh NE 8.0 mph12.9 kmh 29.72 in1006.4 mb 0.00 in0.0 mm 0.00 in0.0 mm 0.00 in0.0 mm
12:43 AM 26.6°F-3.0°C 21.6°F-5.8°C 81% 4.9 mph NE7.9 kmh NE 8.0 mph12.9 kmh 29.72 in1006.4 mb 0.00 in0.0 mm 0.00 in0.0 mm 0.00 in0.0 mm
12:44 AM 26.6°F-3.0°C 21.6°F-5.8°C 81% 3.5 mph NE5.6 kmh NE 6.0 mph9.7 kmh 29.72 in1006.4 mb 0.00 in0.0 mm 0.00 in0.0 mm 0.00 in0.0 mm
12:45 AM 26.6°F-3.0°C 21.6°F-5.8°C 81% 4.5 mph NE7.2 kmh NE 9.0 mph14.5 kmh 29.72 in1006.4 mb 0.00 in0.0 mm 0.00 in0.0 mm 0.00 in0.0 mm
12:46 AM 26.6°F-3.0°C 21.6°F-5.8°C 81% 4.5 mph NE7.2 kmh NE 9.0 mph14.5 kmh 29.72 in1006.4 mb 0.00 in0.0 mm 0.00 in0.0 mm 0.00 in0.0 mm
12:47 AM 26.6°F-3.0°C 21.6°F-5.8°C 81% 7.2 mph NE11.6 kmh NE 11.0 mph17.7 kmh 29.72 in1006.4 mb 0.00 in0.0 mm 0.00 in0.0 mm 0.00 in0.0 mm
12:48 AM 26.6°F-3.0°C 21.6°F-5.8°C 81% 7.2 mph NE11.6 kmh NE 11.0 mph17.7 kmh 29.72 in1006.4 mb 0.00 in0.0 mm 0.00 in0.0 mm 0.00 in0.0 mm
12:49 AM 26.6°F-3.0°C 21.6°F-5.8°C 81% 7.0 mph ENE11.3 kmh ENE 10.0 mph16.1 kmh 29.72 in1006.4 mb 0.00 in0.0 mm 0.00 in0.0 mm 0.00 in0.0 mm
12:50 AM 26.6°F-3.0°C 21.6°F-5.8°C 81% 8.9 mph ENE14.3 kmh ENE 12.0 mph19.3 kmh 29.72 in1006.4 mb 0.00 in0.0 mm 0.00 in0.0 mm 0.00 in0.0 mm
12:51 AM 26.6°F-3.0°C 21.6°F-5.8°C 81% 8.5 mph NE13.7 kmh NE 12.0 mph19.3 kmh 29.72 in1006.4 mb 0.00 in0.0 mm 0.00 in0.0 mm 0.00 in0.0 mm
12:52 AM 26.5°F-3.1°C 21.5°F-5.8°C 81% 8.2 mph NE13.2 kmh NE 10.0 mph16.1 kmh 29.72 in1006.4 mb 0.00 in0.0 mm 0.00 in0.0 mm 0.00 in0.0 mm
12:53 AM 26.5°F-3.1°C 21.5°F-5.8°C 81% 5.8 mph NE9.3 kmh NE 10.0 mph16.1 kmh 29.72 in1006.4 mb 0.00 in0.0 mm 0.00 in0.0 mm 0.00 in0.0 mm
12:54 AM 26.5°F-3.1°C 21.5°F-5.8°C 81% 6.6 mph NE10.6 kmh NE 10.0 mph16.1 kmh 29.72 in1006.4 mb 0.00 in0.0 mm 0.00 in0.0 mm 0.00 in0.0 mm
12:55 AM 26.6°F-3.0°C 21.6°F-5.8°C 81% 9.2 mph NE14.8 kmh NE 11.0 mph17.7 kmh 29.72 in1006.4 mb 0.00 in0.0 mm 0.00 in0.0 mm 0.00 in0.0 mm
12:56 AM 26.5°F-3.1°C 21.5°F-5.8°C 81% 9.1 mph NE14.6 kmh NE 12.0 mph19.3 kmh 29.72 in1006.4 mb 0.00 in0.0 mm 0.00 in0.0 mm 0.00 in0.0 mm
12:57 AM 26.5°F-3.1°C 21.5°F-5.8°C 81% 6.0 mph NE9.7 kmh NE 12.0 mph19.3 kmh 29.72 in1006.4 mb 0.00 in0.0 mm 0.00 in0.0 mm 0.00 in0.0 mm
12:58 AM 26.5°F-3.1°C 21.5°F-5.8°C 81% 6.8 mph ENE10.9 kmh ENE 10.0 mph16.1 kmh 29.72 in1006.4 mb 0.00 in0.0 mm 0.00 in0.0 mm 0.00 in0.0 mm
12:59 AM 26.5°F-3.1°C 21.5°F-5.8°C 81% 5.7 mph ENE9.2 kmh ENE 10.0 mph16.1 kmh 29.72 in1006.4 mb 0.00 in0.0 mm 0.00 in0.0 mm 0.00 in0.0 mm
01:00 AM 26.4°F-3.1°C 21.4°F-5.9°C 81% 10.5 mph ENE16.9 kmh ENE 13.0 mph20.9 kmh 29.72 in1006.4 mb 0.00 in0.0 mm 0.00 in0.0 mm 0.00 in0.0 mm
01:01 AM 26.5°F-3.1°C 21.5°F-5.8°C 81% 10.2 mph ENE16.4 kmh ENE 13.0 mph20.9 kmh 29.72 in1006.4 mb 0.00 in0.0 mm 0.00 in0.0 mm 0.00 in0.0 mm
01:02 AM 26.4°F-3.1°C 21.4°F-5.9°C 81% 8.9 mph ENE14.3 kmh ENE 12.0 mph19.3 kmh 29.72 in1006.4 mb 0.00 in0.0 mm 0.00 in0.0 mm 0.00 in0.0 mm
01:03 AM 26.4°F-3.1°C 21.4°F-5.9°C 81% 7.9 mph ENE12.7 kmh ENE 11.0 mph17.7 kmh 29.72 in1006.4 mb 0.00 in0.0 mm 0.00 in0.0 mm 0.00 in0.0 mm
01:04 AM 26.4°F-3.1°C 21.4°F-5.9°C 81% 4.7 mph NE7.6 kmh NE 11.0 mph17.7 kmh 29.72 in1006.4 mb 0.00 in0.0 mm 0.00 in0.0 mm 0.00 in0.0 mm
01:05 AM 26.4°F-3.1°C 21.4°F-5.9°C 81% 6.6 mph NE10.6 kmh NE 10.0 mph16.1 kmh 29.72 in1006.4 mb 0.00 in0.0 mm 0.00 in0.0 mm 0.00 in0.0 mm
01:06 AM 26.4°F-3.1°C 21.4°F-5.9°C 81% 9.3 mph NE15.0 kmh NE 11.0 mph17.7 kmh 29.72 in1006.4 mb 0.00 in0.0 mm 0.00 in0.0 mm 0.00 in0.0 mm
01:07 AM 26.4°F-3.1°C 21.4°F-5.9°C 81% 7.2 mph NE11.6 kmh NE 11.0 mph17.7 kmh 29.72 in1006.4 mb 0.00 in0.0 mm 0.00 in0.0 mm 0.00 in0.0 mm
01:08 AM 26.4°F-3.1°C 21.4°F-5.9°C 81% 7.8 mph NE12.6 kmh NE 11.0 mph17.7 kmh 29.72 in1006.4 mb 0.00 in0.0 mm 0.00 in0.0 mm 0.00 in0.0 mm
01:09 AM 26.4°F-3.1°C 21.4°F-5.9°C 81% 5.4 mph NE8.7 kmh NE 11.0 mph17.7 kmh 29.72 in1006.4 mb 0.00 in0.0 mm 0.00 in0.0 mm 0.00 in0.0 mm
01:10 AM 26.4°F-3.1°C 21.4°F-5.9°C 81% 8.1 mph NE13.0 kmh NE 11.0 mph17.7 kmh 29.72 in1006.4 mb 0.00 in0.0 mm 0.00 in0.0 mm 0.00 in0.0 mm
01:11 AM 26.4°F-3.1°C 21.4°F-5.9°C 81% 7.8 mph NE12.6 kmh NE 11.0 mph17.7 kmh 29.72 in1006.4 mb 0.00 in0.0 mm 0.00 in0.0 mm 0.00 in0.0 mm
01:12 AM 26.4°F-3.1°C 21.4°F-5.9°C 81% 9.8 mph ENE15.8 kmh ENE 13.0 mph20.9 kmh 29.72 in1006.4 mb 0.00 in0.0 mm 0.00 in0.0 mm 0.00 in0.0 mm
01:13 AM 26.4°F-3.1°C 21.4°F-5.9°C 81% 7.7 mph ENE12.4 kmh ENE 13.0 mph20.9 kmh 29.72 in1006.4 mb 0.00 in0.0 mm 0.00 in0.0 mm 0.00 in0.0 mm
01:14 AM 26.4°F-3.1°C 21.4°F-5.9°C 81% 5.8 mph NE9.3 kmh NE 10.0 mph16.1 kmh 29.72 in1006.4 mb 0.00 in0.0 mm 0.00 in0.0 mm 0.00 in0.0 mm
01:15 AM 26.4°F-3.1°C 21.4°F-5.9°C 81% 8.5 mph NE13.7 kmh NE 10.0 mph16.1 kmh 29.72 in1006.4 mb 0.00 in0.0 mm 0.00 in0.0 mm 0.00 in0.0 mm
01:16 AM 26.4°F-3.1°C 21.4°F-5.9°C 81% 7.7 mph ENE12.4 kmh ENE 11.0 mph17.7 kmh 29.72 in1006.4 mb 0.00 in0.0 mm 0.00 in0.0 mm 0.00 in0.0 mm
01:17 AM 26.4°F-3.1°C 21.4°F-5.9°C 81% 7.7 mph NE12.4 kmh NE 11.0 mph17.7 kmh 29.72 in1006.4 mb 0.00 in0.0 mm 0.00 in0.0 mm 0.00 in0.0 mm
01:18 AM 26.4°F-3.1°C 21.4°F-5.9°C 81% 7.3 mph NE11.7 kmh NE 11.0 mph17.7 kmh 29.72 in1006.4 mb 0.00 in0.0 mm 0.00 in0.0 mm 0.00 in0.0 mm
01:19 AM 26.4°F-3.1°C 21.4°F-5.9°C 81% 8.5 mph NE13.7 kmh NE 13.0 mph20.9 kmh 29.72 in1006.4 mb 0.00 in0.0 mm 0.00 in0.0 mm 0.00 in0.0 mm
01:20 AM 26.5°F-3.1°C 21.5°F-5.8°C 81% 7.6 mph NE12.2 kmh NE 13.0 mph20.9 kmh 29.72 in1006.4 mb 0.00 in0.0 mm 0.00 in0.0 mm 0.00 in0.0 mm
01:21 AM 26.4°F-3.1°C 21.4°F-5.9°C 81% 4.3 mph NE6.9 kmh NE 10.0 mph16.1 kmh 29.72 in1006.4 mb 0.00 in0.0 mm 0.00 in0.0 mm 0.00 in0.0 mm
01:22 AM 26.4°F-3.1°C 21.4°F-5.9°C 81% 5.6 mph NE9.0 kmh NE 8.0 mph12.9 kmh 29.72 in1006.4 mb 0.00 in0.0 mm 0.00 in0.0 mm 0.00 in0.0 mm
01:23 AM 26.4°F-3.1°C 21.4°F-5.9°C 81% 5.9 mph NE9.5 kmh NE 9.0 mph14.5 kmh 29.72 in1006.4 mb 0.00 in0.0 mm 0.00 in0.0 mm 0.00 in0.0 mm
01:24 AM 26.5°F-3.1°C 21.5°F-5.8°C 81% 6.5 mph NE10.5 kmh NE 9.0 mph14.5 kmh 29.72 in1006.4 mb 0.00 in0.0 mm 0.00 in0.0 mm 0.00 in0.0 mm
01:25 AM 26.4°F-3.1°C 21.4°F-5.9°C 81% 6.0 mph NE9.7 kmh NE 9.0 mph14.5 kmh 29.72 in1006.4 mb 0.00 in0.0 mm 0.00 in0.0 mm 0.00 in0.0 mm
01:26 AM 26.4°F-3.1°C 21.4°F-5.9°C 81% 7.6 mph NE12.2 kmh NE 9.0 mph14.5 kmh 29.72 in1006.4 mb 0.00 in0.0 mm 0.00 in0.0 mm 0.00 in0.0 mm
01:27 AM 26.5°F-3.1°C 21.5°F-5.8°C 81% 7.5 mph NE12.1 kmh NE 10.0 mph16.1 kmh 29.72 in1006.4 mb 0.00 in0.0 mm 0.00 in0.0 mm 0.00 in0.0 mm
01:28 AM 26.5°F-3.1°C 21.5°F-5.8°C 81% 5.6 mph NE9.0 kmh NE 10.0 mph16.1 kmh 29.72 in1006.4 mb 0.00 in0.0 mm 0.00 in0.0 mm 0.00 in0.0 mm
01:29 AM 26.5°F-3.1°C 21.5°F-5.8°C 81% 7.5 mph NE12.1 kmh NE 11.0 mph17.7 kmh 29.72 in1006.4 mb 0.00 in0.0 mm 0.00 in0.0 mm 0.00 in0.0 mm
01:30 AM 26.5°F-3.1°C 21.8°F-5.7°C 82% 7.5 mph NE12.1 kmh NE 11.0 mph17.7 kmh 29.72 in1006.4 mb 0.00 in0.0 mm 0.00 in0.0 mm 0.00 in0.0 mm
01:31 AM 26.5°F-3.1°C 21.8°F-5.7°C 82% 7.9 mph NE12.7 kmh NE 11.0 mph17.7 kmh 29.72 in1006.4 mb 0.00 in0.0 mm 0.00 in0.0 mm 0.00 in0.0 mm
01:32 AM 26.5°F-3.1°C 21.8°F-5.7°C 82% 9.0 mph NE14.5 kmh NE 12.0 mph19.3 kmh 29.72 in1006.4 mb 0.00 in0.0 mm 0.00 in0.0 mm 0.00 in0.0 mm
01:33 AM 26.6°F-3.0°C 21.9°F-5.6°C 82% 7.3 mph NE11.7 kmh NE 12.0 mph19.3 kmh 29.72 in1006.4 mb 0.00 in0.0 mm 0.00 in0.0 mm 0.00 in0.0 mm
01:34 AM 26.6°F-3.0°C 21.9°F-5.6°C 82% 5.7 mph NE9.2 kmh NE 12.0 mph19.3 kmh 29.72 in1006.4 mb 0.00 in0.0 mm 0.00 in0.0 mm 0.00 in0.0 mm
01:35 AM 26.6°F-3.0°C 21.9°F-5.6°C 82% 8.2 mph NE13.2 kmh NE 12.0 mph19.3 kmh 29.72 in1006.4 mb 0.00 in0.0 mm 0.00 in0.0 mm 0.00 in0.0 mm
01:36 AM 26.6°F-3.0°C 21.9°F-5.6°C 82% 8.8 mph NE14.2 kmh NE 12.0 mph19.3 kmh 29.72 in1006.4 mb 0.00 in0.0 mm 0.00 in0.0 mm 0.00 in0.0 mm
01:37 AM 26.6°F-3.0°C 21.9°F-5.6°C 82% 6.5 mph ENE10.5 kmh ENE 11.0 mph17.7 kmh 29.72 in1006.4 mb 0.00 in0.0 mm 0.00 in0.0 mm 0.00 in0.0 mm
01:38 AM 26.6°F-3.0°C 21.9°F-5.6°C 82% 7.4 mph ENE11.9 kmh ENE 9.0 mph14.5 kmh 29.72 in1006.4 mb 0.00 in0.0 mm 0.00 in0.0 mm 0.00 in0.0 mm
01:39 AM 26.6°F-3.0°C 21.9°F-5.6°C 82% 6.0 mph ENE9.7 kmh ENE 9.0 mph14.5 kmh 29.72 in1006.4 mb 0.00 in0.0 mm 0.00 in0.0 mm 0.00 in0.0 mm
01:40 AM 26.6°F-3.0°C 21.6°F-5.8°C 81% 5.6 mph ENE9.0 kmh ENE 8.0 mph12.9 kmh 29.72 in1006.4 mb 0.00 in0.0 mm 0.00 in0.0 mm 0.00 in0.0 mm
01:41 AM 26.6°F-3.0°C 21.9°F-5.6°C 82% 6.7 mph NE10.8 kmh NE 9.0 mph14.5 kmh 29.72 in1006.4 mb 0.00 in0.0 mm 0.00 in0.0 mm 0.00 in0.0 mm
01:42 AM 26.6°F-3.0°C 21.9°F-5.6°C 82% 8.1 mph NE13.0 kmh NE 10.0 mph16.1 kmh 29.72 in1006.4 mb 0.00 in0.0 mm 0.00 in0.0 mm 0.00 in0.0 mm
01:43 AM 26.6°F-3.0°C 21.9°F-5.6°C 82% 6.3 mph ENE10.1 kmh ENE 10.0 mph16.1 kmh 29.72 in1006.4 mb 0.00 in0.0 mm 0.00 in0.0 mm 0.00 in0.0 mm
01:44 AM 26.6°F-3.0°C 21.9°F-5.6°C 82% 10.6 mph ENE17.1 kmh ENE 13.0 mph20.9 kmh 29.72 in1006.4 mb 0.00 in0.0 mm 0.00 in0.0 mm 0.00 in0.0 mm
01:45 AM 26.6°F-3.0°C 21.9°F-5.6°C 82% 7.7 mph NE12.4 kmh NE 13.0 mph20.9 kmh 29.72 in1006.4 mb 0.00 in0.0 mm 0.00 in0.0 mm 0.00 in0.0 mm
01:46 AM 26.5°F-3.1°C 21.5°F-5.8°C 81% 9.5 mph NE15.3 kmh NE 13.0 mph20.9 kmh 29.72 in1006.4 mb 0.00 in0.0 mm 0.00 in0.0 mm 0.00 in0.0 mm
01:47 AM 26.6°F-3.0°C 21.9°F-5.6°C 82% 11.1 mph NE17.9 kmh NE 13.0 mph20.9 kmh 29.72 in1006.4 mb 0.00 in0.0 mm 0.00 in0.0 mm 0.00 in0.0 mm
01:48 AM 26.5°F-3.1°C 21.8°F-5.7°C 82% 7.5 mph NE12.1 kmh NE 13.0 mph20.9 kmh 29.72 in1006.4 mb 0.00 in0.0 mm 0.00 in0.0 mm 0.00 in0.0 mm
01:49 AM 26.5°F-3.1°C 21.8°F-5.7°C 82% 6.9 mph NE11.1 kmh NE 11.0 mph17.7 kmh 29.72 in1006.4 mb 0.00 in0.0 mm 0.00 in0.0 mm 0.00 in0.0 mm
01:50 AM 26.5°F-3.1°C 21.8°F-5.7°C 82% 6.1 mph NE9.8 kmh NE 10.0 mph16.1 kmh 29.72 in1006.4 mb 0.00 in0.0 mm 0.00 in0.0 mm 0.00 in0.0 mm
01:51 AM 26.5°F-3.1°C 21.8°F-5.7°C 82% 7.9 mph NE12.7 kmh NE 13.0 mph20.9 kmh 29.72 in1006.4 mb 0.00 in0.0 mm 0.00 in0.0 mm 0.00 in0.0 mm
01:52 AM 26.5°F-3.1°C 21.8°F-5.7°C 82% 8.8 mph NE14.2 kmh NE 13.0 mph20.9 kmh 29.72 in1006.4 mb 0.00 in0.0 mm 0.00 in0.0 mm 0.00 in0.0 mm
01:53 AM 26.6°F-3.0°C 21.9°F-5.6°C 82% 7.8 mph NE12.6 kmh NE 11.0 mph17.7 kmh 29.72 in1006.4 mb 0.00 in0.0 mm 0.00 in0.0 mm 0.00 in0.0 mm
01:54 AM 26.5°F-3.1°C 21.8°F-5.7°C 82% 8.9 mph ENE14.3 kmh ENE 11.0 mph17.7 kmh 29.72 in1006.4 mb 0.00 in0.0 mm 0.00 in0.0 mm 0.00 in0.0 mm
01:55 AM 26.5°F-3.1°C 21.8°F-5.7°C 82% 9.0 mph ENE14.5 kmh ENE 11.0 mph17.7 kmh 29.72 in1006.4 mb 0.00 in0.0 mm 0.00 in0.0 mm 0.00 in0.0 mm
01:56 AM 26.5°F-3.1°C 21.5°F-5.8°C 81% 7.2 mph ENE11.6 kmh ENE 11.0 mph17.7 kmh 29.72 in1006.4 mb 0.00 in0.0 mm 0.00 in0.0 mm 0.00 in0.0 mm
01:57 AM 26.4°F-3.1°C 21.7°F-5.7°C 82% 7.5 mph NE12.1 kmh NE 13.0 mph20.9 kmh 29.72 in1006.4 mb 0.00 in0.0 mm 0.00 in0.0 mm 0.00 in0.0 mm
01:58 AM 26.4°F-3.1°C 21.7°F-5.7°C 82% 8.5 mph ENE13.7 kmh ENE 13.0 mph20.9 kmh 29.72 in1006.4 mb 0.00 in0.0 mm 0.00 in0.0 mm 0.00 in0.0 mm
01:59 AM 26.4°F-3.1°C 21.7°F-5.7°C 82% 8.5 mph E13.7 kmh E 12.0 mph19.3 kmh 29.72 in1006.4 mb 0.00 in0.0 mm 0.00 in0.0 mm 0.00 in0.0 mm
02:00 AM 26.4°F-3.1°C 21.7°F-5.7°C 82% 8.2 mph ENE13.2 kmh ENE 11.0 mph17.7 kmh 29.72 in1006.4 mb 0.00 in0.0 mm 0.00 in0.0 mm 0.00 in0.0 mm
02:01 AM 26.3°F-3.2°C 21.6°F-5.8°C 82% 6.5 mph ENE10.5 kmh ENE 10.0 mph16.1 kmh 29.72 in1006.4 mb 0.00 in0.0 mm 0.00 in0.0 mm 0.00 in0.0 mm
02:02 AM 26.3°F-3.2°C 21.6°F-5.8°C 82% 9.2 mph ENE14.8 kmh ENE 11.0 mph17.7 kmh 29.72 in1006.4 mb 0.00 in0.0 mm 0.00 in0.0 mm 0.00 in0.0 mm
02:03 AM 26.3°F-3.2°C 21.6°F-5.8°C 82% 8.7 mph NE14.0 kmh NE 11.0 mph17.7 kmh 29.72 in1006.4 mb 0.00 in0.0 mm 0.00 in0.0 mm 0.00 in0.0 mm
02:04 AM 26.3°F-3.2°C 21.6°F-5.8°C 82% 5.8 mph ENE9.3 kmh ENE 10.0 mph16.1 kmh 29.72 in1006.4 mb 0.00 in0.0 mm 0.00 in0.0 mm 0.00 in0.0 mm
02:05 AM 26.3°F-3.2°C 21.6°F-5.8°C 82% 7.9 mph ENE12.7 kmh ENE 10.0 mph16.1 kmh 29.72 in1006.4 mb 0.00 in0.0 mm 0.00 in0.0 mm 0.00 in0.0 mm
02:06 AM 26.3°F-3.2°C 21.6°F-5.8°C 82% 7.3 mph E11.7 kmh E 10.0 mph16.1 kmh 29.72 in1006.4 mb 0.00 in0.0 mm 0.00 in0.0 mm 0.00 in0.0 mm
02:07 AM 26.2°F-3.2°C 21.5°F-5.8°C 82% 6.5 mph ENE10.5 kmh ENE 10.0 mph16.1 kmh 29.72 in1006.4 mb 0.00 in0.0 mm 0.00 in0.0 mm 0.00 in0.0 mm
02:08 AM 26.2°F-3.2°C 21.5°F-5.8°C 82% 7.5 mph ENE12.1 kmh ENE 10.0 mph16.1 kmh 29.72 in1006.4 mb 0.00 in0.0 mm 0.00 in0.0 mm 0.00 in0.0 mm
02:09 AM 26.1°F-3.3°C 21.4°F-5.9°C 82% 5.8 mph ENE9.3 kmh ENE 10.0 mph16.1 kmh 29.72 in1006.4 mb 0.00 in0.0 mm 0.00 in0.0 mm 0.00 in0.0 mm
02:10 AM 26.2°F-3.2°C 21.5°F-5.8°C 82% 7.2 mph NE11.6 kmh NE 10.0 mph16.1 kmh 29.72 in1006.4 mb 0.00 in0.0 mm 0.00 in0.0 mm 0.00 in0.0 mm
02:11 AM 26.2°F-3.2°C 21.5°F-5.8°C 82% 5.8 mph E9.3 kmh E 10.0 mph16.1 kmh 29.72 in1006.4 mb 0.00 in0.0 mm 0.00 in0.0 mm 0.00 in0.0 mm
02:12 AM 26.1°F-3.3°C 21.4°F-5.9°C 82% 5.5 mph ENE8.9 kmh ENE 9.0 mph14.5 kmh 29.72 in1006.4 mb 0.00 in0.0 mm 0.00 in0.0 mm 0.00 in0.0 mm
02:13 AM 26.1°F-3.3°C 21.4°F-5.9°C 82% 9.6 mph E15.4 kmh E 14.0 mph22.5 kmh 29.72 in1006.4 mb 0.00 in0.0 mm 0.00 in0.0 mm 0.00 in0.0 mm
02:14 AM 26.1°F-3.3°C 21.4°F-5.9°C 82% 10.8 mph ENE17.4 kmh ENE 14.0 mph22.5 kmh 29.72 in1006.4 mb 0.00 in0.0 mm 0.00 in0.0 mm 0.00 in0.0 mm
02:15 AM 26.1°F-3.3°C 21.4°F-5.9°C 82% 8.3 mph ENE13.4 kmh ENE 13.0 mph20.9 kmh 29.72 in1006.4 mb 0.00 in0.0 mm 0.00 in0.0 mm 0.00 in0.0 mm
02:16 AM 26.1°F-3.3°C 21.4°F-5.9°C 82% 6.3 mph ENE10.1 kmh ENE 10.0 mph16.1 kmh 29.72 in1006.4 mb 0.00 in0.0 mm 0.00 in0.0 mm 0.00 in0.0 mm
02:17 AM 26.1°F-3.3°C 21.4°F-5.9°C 82% 8.2 mph E13.2 kmh E 13.0 mph20.9 kmh 29.72 in1006.4 mb 0.00 in0.0 mm 0.00 in0.0 mm 0.00 in0.0 mm
02:18 AM 26.1°F-3.3°C 21.4°F-5.9°C 82% 9.8 mph ENE15.8 kmh ENE 14.0 mph22.5 kmh 29.72 in1006.4 mb 0.00 in0.0 mm 0.00 in0.0 mm 0.00 in0.0 mm
02:19 AM 26.1°F-3.3°C 21.4°F-5.9°C 82% 7.1 mph ENE11.4 kmh ENE 14.0 mph22.5 kmh 29.72 in1006.4 mb 0.00 in0.0 mm 0.00 in0.0 mm 0.00 in0.0 mm
02:20 AM 26.0°F-3.3°C 21.3°F-5.9°C 82% 7.0 mph NE11.3 kmh NE 11.0 mph17.7 kmh 29.72 in1006.4 mb 0.00 in0.0 mm 0.00 in0.0 mm 0.00 in0.0 mm
02:21 AM 26.0°F-3.3°C 21.3°F-5.9°C 82% 7.4 mph NE11.9 kmh NE 13.0 mph20.9 kmh 29.72 in1006.4 mb 0.00 in0.0 mm 0.00 in0.0 mm 0.00 in0.0 mm
02:22 AM 26.0°F-3.3°C 21.3°F-5.9°C 82% 9.2 mph ENE14.8 kmh ENE 13.0 mph20.9 kmh 29.72 in1006.4 mb 0.00 in0.0 mm 0.00 in0.0 mm 0.00 in0.0 mm
02:23 AM 26.0°F-3.3°C 21.3°F-5.9°C 82% 8.1 mph NE13.0 kmh NE 12.0 mph19.3 kmh 29.72 in1006.4 mb 0.00 in0.0 mm 0.00 in0.0 mm 0.00 in0.0 mm
02:24 AM 26.0°F-3.3°C 21.3°F-5.9°C 82% 11.0 mph NE17.7 kmh NE 14.0 mph22.5 kmh 29.72 in1006.4 mb 0.00 in0.0 mm 0.00 in0.0 mm 0.00 in0.0 mm
02:25 AM 26.0°F-3.3°C 21.3°F-5.9°C 82% 10.8 mph ENE17.4 kmh ENE 14.0 mph22.5 kmh 29.72 in1006.4 mb 0.00 in0.0 mm 0.00 in0.0 mm 0.00 in0.0 mm
02:26 AM 26.0°F-3.3°C 21.3°F-5.9°C 82% 8.4 mph NE13.5 kmh NE 14.0 mph22.5 kmh 29.72 in1006.4 mb 0.00 in0.0 mm 0.00 in0.0 mm 0.00 in0.0 mm
02:27 AM 25.9°F-3.4°C 21.2°F-6.0°C 82% 10.8 mph NE17.4 kmh NE 12.0 mph19.3 kmh 29.72 in1006.4 mb 0.00 in0.0 mm 0.00 in0.0 mm 0.00 in0.0 mm
02:28 AM 26.0°F-3.3°C 21.3°F-5.9°C 82% 8.0 mph NE12.9 kmh NE 12.0 mph19.3 kmh 29.72 in1006.4 mb 0.00 in0.0 mm 0.00 in0.0 mm 0.00 in0.0 mm
02:29 AM 25.9°F-3.4°C 21.2°F-6.0°C 82% 9.5 mph NE15.3 kmh NE 14.0 mph22.5 kmh 29.72 in1006.4 mb 0.00 in0.0 mm 0.00 in0.0 mm 0.00 in0.0 mm
02:30 AM 25.9°F-3.4°C 21.2°F-6.0°C 82% 11.3 mph NE18.2 kmh NE 14.0 mph22.5 kmh 29.72 in1006.4 mb 0.00 in0.0 mm 0.00 in0.0 mm 0.00 in0.0 mm
02:31 AM 25.9°F-3.4°C 21.2°F-6.0°C 82% 9.7 mph NE15.6 kmh NE 14.0 mph22.5 kmh 29.72 in1006.4 mb 0.00 in0.0 mm 0.00 in0.0 mm 0.00 in0.0 mm
02:32 AM 25.9°F-3.4°C 21.2°F-6.0°C 82% 9.3 mph NE15.0 kmh NE 12.0 mph19.3 kmh 29.72 in1006.4 mb 0.00 in0.0 mm 0.00 in0.0 mm 0.00 in0.0 mm
02:33 AM 25.9°F-3.4°C 21.2°F-6.0°C 82% 8.2 mph NE13.2 kmh NE 13.0 mph20.9 kmh 29.72 in1006.4 mb 0.00 in0.0 mm 0.00 in0.0 mm 0.00 in0.0 mm
02:34 AM 25.9°F-3.4°C 21.2°F-6.0°C 82% 11.8 mph NE19.0 kmh NE 16.0 mph25.7 kmh 29.72 in1006.4 mb 0.00 in0.0 mm 0.00 in0.0 mm 0.00 in0.0 mm
02:35 AM 25.9°F-3.4°C 21.2°F-6.0°C 82% 9.5 mph ENE15.3 kmh ENE 16.0 mph25.7 kmh 29.72 in1006.4 mb 0.00 in0.0 mm 0.00 in0.0 mm 0.00 in0.0 mm
02:36 AM 25.9°F-3.4°C 21.2°F-6.0°C 82% 9.1 mph ENE14.6 kmh ENE 14.0 mph22.5 kmh 29.72 in1006.4 mb 0.00 in0.0 mm 0.00 in0.0 mm 0.00 in0.0 mm
02:37 AM 25.9°F-3.4°C 21.2°F-6.0°C 82% 7.5 mph NE12.1 kmh NE 13.0 mph20.9 kmh 29.72 in1006.4 mb 0.00 in0.0 mm 0.00 in0.0 mm 0.00 in0.0 mm
02:38 AM 25.9°F-3.4°C 21.2°F-6.0°C 82% 8.5 mph NE13.7 kmh NE 13.0 mph20.9 kmh 29.72 in1006.4 mb 0.00 in0.0 mm 0.00 in0.0 mm 0.00 in0.0 mm
02:39 AM 25.9°F-3.4°C 21.2°F-6.0°C 82% 8.3 mph NE13.4 kmh NE 11.0 mph17.7 kmh 29.72 in1006.4 mb 0.00 in0.0 mm 0.00 in0.0 mm 0.00 in0.0 mm
02:40 AM 25.9°F-3.4°C 21.2°F-6.0°C 82% 10.3 mph ENE16.6 kmh ENE 12.0 mph19.3 kmh 29.72 in1006.4 mb 0.00 in0.0 mm 0.00 in0.0 mm 0.00 in0.0 mm
02:41 AM 25.8°F-3.4°C 21.1°F-6.1°C 82% 10.1 mph NE16.3 kmh NE 12.0 mph19.3 kmh 29.72 in1006.4 mb 0.00 in0.0 mm 0.00 in0.0 mm 0.00 in0.0 mm
02:42 AM 25.9°F-3.4°C 21.2°F-6.0°C 82% 8.7 mph ENE14.0 kmh ENE 11.0 mph17.7 kmh 29.72 in1006.4 mb 0.00 in0.0 mm 0.00 in0.0 mm 0.00 in0.0 mm
02:43 AM 25.8°F-3.4°C 21.1°F-6.1°C 82% 9.1 mph NE14.6 kmh NE 12.0 mph19.3 kmh 29.72 in1006.4 mb 0.00 in0.0 mm 0.00 in0.0 mm 0.00 in0.0 mm
02:44 AM 25.9°F-3.4°C 21.2°F-6.0°C 82% 10.0 mph NE16.1 kmh NE 12.0 mph19.3 kmh 29.72 in1006.4 mb 0.00 in0.0 mm 0.00 in0.0 mm 0.00 in0.0 mm
02:45 AM 25.9°F-3.4°C 21.2°F-6.0°C 82% 10.9 mph ENE17.5 kmh ENE 17.0 mph27.4 kmh 29.72 in1006.4 mb 0.00 in0.0 mm 0.00 in0.0 mm 0.00 in0.0 mm
02:46 AM 25.9°F-3.4°C 20.9°F-6.2°C 81% 11.9 mph ENE19.2 kmh ENE 17.0 mph27.4 kmh 29.72 in1006.4 mb 0.00 in0.0 mm 0.00 in0.0 mm 0.00 in0.0 mm
02:47 AM 25.9°F-3.4°C 20.9°F-6.2°C 81% 11.3 mph ENE18.2 kmh ENE 14.0 mph22.5 kmh 29.72 in1006.4 mb 0.00 in0.0 mm 0.00 in0.0 mm 0.00 in0.0 mm
02:48 AM 25.8°F-3.4°C 20.8°F-6.2°C 81% 10.8 mph ENE17.4 kmh ENE 14.0 mph22.5 kmh 29.72 in1006.4 mb 0.00 in0.0 mm 0.00 in0.0 mm 0.00 in0.0 mm
02:49 AM 25.9°F-3.4°C 20.9°F-6.2°C 81% 9.7 mph NE15.6 kmh NE 14.0 mph22.5 kmh 29.72 in1006.4 mb 0.00 in0.0 mm 0.00 in0.0 mm 0.00 in0.0 mm
02:50 AM 25.9°F-3.4°C 20.9°F-6.2°C 81% 10.5 mph NE16.9 kmh NE 15.0 mph24.1 kmh 29.72 in1006.4 mb 0.00 in0.0 mm 0.00 in0.0 mm 0.00 in0.0 mm
02:51 AM 25.8°F-3.4°C 20.8°F-6.2°C 81% 9.6 mph ENE15.4 kmh ENE 15.0 mph24.1 kmh 29.72 in1006.4 mb 0.00 in0.0 mm 0.00 in0.0 mm 0.00 in0.0 mm
02:52 AM 25.8°F-3.4°C 20.8°F-6.2°C 81% 8.4 mph ENE13.5 kmh ENE 12.0 mph19.3 kmh 29.72 in1006.4 mb 0.00 in0.0 mm 0.00 in0.0 mm 0.00 in0.0 mm
02:53 AM 25.8°F-3.4°C 20.8°F-6.2°C 81% 8.1 mph ENE13.0 kmh ENE 12.0 mph19.3 kmh 29.72 in1006.4 mb 0.00 in0.0 mm 0.00 in0.0 mm 0.00 in0.0 mm
02:54 AM 25.8°F-3.4°C 20.8°F-6.2°C 81% 8.4 mph NE13.5 kmh NE 12.0 mph19.3 kmh 29.72 in1006.4 mb 0.00 in0.0 mm 0.00 in0.0 mm 0.00 in0.0 mm
02:55 AM 25.8°F-3.4°C 20.8°F-6.2°C 81% 8.6 mph ENE13.8 kmh ENE 11.0 mph17.7 kmh 29.72 in1006.4 mb 0.00 in0.0 mm 0.00 in0.0 mm 0.00 in0.0 mm
02:56 AM 25.8°F-3.4°C 20.8°F-6.2°C 81% 7.7 mph NE12.4 kmh NE 14.0 mph22.5 kmh 29.72 in1006.4 mb 0.00 in0.0 mm 0.00 in0.0 mm 0.00 in0.0 mm
02:57 AM 25.8°F-3.4°C 20.8°F-6.2°C 81% 6.5 mph NE10.5 kmh NE 14.0 mph22.5 kmh 29.72 in1006.4 mb 0.00 in0.0 mm 0.00 in0.0 mm 0.00 in0.0 mm
02:58 AM 25.8°F-3.4°C 20.8°F-6.2°C 81% 9.5 mph ENE15.3 kmh ENE 12.0 mph19.3 kmh 29.72 in1006.4 mb 0.00 in0.0 mm 0.00 in0.0 mm 0.00 in0.0 mm
02:59 AM 25.8°F-3.4°C 20.8°F-6.2°C 81% 7.8 mph NE12.6 kmh NE 12.0 mph19.3 kmh 29.72 in1006.4 mb 0.00 in0.0 mm 0.00 in0.0 mm 0.00 in0.0 mm
03:00 AM 25.8°F-3.4°C 20.8°F-6.2°C 81% 7.0 mph ENE11.3 kmh ENE 9.0 mph14.5 kmh 29.72 in1006.4 mb 0.00 in0.0 mm 0.00 in0.0 mm 0.00 in0.0 mm
03:01 AM 25.8°F-3.4°C 20.8°F-6.2°C 81% 8.3 mph E13.4 kmh E 10.0 mph16.1 kmh 29.72 in1006.4 mb 0.00 in0.0 mm 0.00 in0.0 mm 0.00 in0.0 mm
03:02 AM 25.8°F-3.4°C 20.8°F-6.2°C 81% 6.6 mph ENE10.6 kmh ENE 10.0 mph16.1 kmh 29.72 in1006.4 mb 0.00 in0.0 mm 0.00 in0.0 mm 0.00 in0.0 mm
03:03 AM 25.8°F-3.4°C 20.8°F-6.2°C 81% 7.9 mph ENE12.7 kmh ENE 11.0 mph17.7 kmh 29.72 in1006.4 mb 0.00 in0.0 mm 0.00 in0.0 mm 0.00 in0.0 mm
03:04 AM 25.8°F-3.4°C 20.8°F-6.2°C 81% 8.5 mph E13.7 kmh E 11.0 mph17.7 kmh 29.72 in1006.4 mb 0.00 in0.0 mm 0.00 in0.0 mm 0.00 in0.0 mm
03:05 AM 25.8°F-3.4°C 20.8°F-6.2°C 81% 5.6 mph ENE9.0 kmh ENE 11.0 mph17.7 kmh 29.72 in1006.4 mb 0.00 in0.0 mm 0.00 in0.0 mm 0.00 in0.0 mm
03:06 AM 25.8°F-3.4°C 20.8°F-6.2°C 81% 6.0 mph ENE9.7 kmh ENE 9.0 mph14.5 kmh 29.72 in1006.4 mb 0.00 in0.0 mm 0.00 in0.0 mm 0.00 in0.0 mm
03:07 AM 25.8°F-3.4°C 20.8°F-6.2°C 81% 6.0 mph ENE9.7 kmh ENE 9.0 mph14.5 kmh 29.72 in1006.4 mb 0.00 in0.0 mm 0.00 in0.0 mm 0.00 in0.0 mm
03:08 AM 25.8°F-3.4°C 20.8°F-6.2°C 81% 6.9 mph NE11.1 kmh NE 10.0 mph16.1 kmh 29.72 in1006.4 mb 0.00 in0.0 mm 0.00 in0.0 mm 0.00 in0.0 mm
03:09 AM 25.8°F-3.4°C 20.8°F-6.2°C 81% 10.0 mph NE16.1 kmh NE 12.0 mph19.3 kmh 29.72 in1006.4 mb 0.00 in0.0 mm 0.00 in0.0 mm 0.00 in0.0 mm
03:10 AM 25.8°F-3.4°C 20.8°F-6.2°C 81% 6.1 mph NE9.8 kmh NE 12.0 mph19.3 kmh 29.72 in1006.4 mb 0.00 in0.0 mm 0.00 in0.0 mm 0.00 in0.0 mm
03:11 AM 25.8°F-3.4°C 20.8°F-6.2°C 81% 6.3 mph NE10.1 kmh NE 10.0 mph16.1 kmh 29.72 in1006.4 mb 0.00 in0.0 mm 0.00 in0.0 mm 0.00 in0.0 mm
03:12 AM 25.8°F-3.4°C 20.8°F-6.2°C 81% 6.1 mph NE9.8 kmh NE 9.0 mph14.5 kmh 29.72 in1006.4 mb 0.00 in0.0 mm 0.00 in0.0 mm 0.00 in0.0 mm
03:13 AM 25.8°F-3.4°C 20.8°F-6.2°C 81% 3.8 mph NE6.1 kmh NE 9.0 mph14.5 kmh 29.72 in1006.4 mb 0.00 in0.0 mm 0.00 in0.0 mm 0.00 in0.0 mm
03:14 AM 25.8°F-3.4°C 21.1°F-6.1°C 82% 4.9 mph NE7.9 kmh NE 8.0 mph12.9 kmh 29.72 in1006.4 mb 0.00 in0.0 mm 0.00 in0.0 mm 0.00 in0.0 mm
03:15 AM 25.8°F-3.4°C 21.1°F-6.1°C 82% 7.1 mph NE11.4 kmh NE 11.0 mph17.7 kmh 29.72 in1006.4 mb 0.00 in0.0 mm 0.00 in0.0 mm 0.00 in0.0 mm
03:16 AM 25.9°F-3.4°C 21.2°F-6.0°C 82% 7.5 mph NE12.1 kmh NE 11.0 mph17.7 kmh 29.72 in1006.4 mb 0.00 in0.0 mm 0.00 in0.0 mm 0.00 in0.0 mm
03:17 AM 25.9°F-3.4°C 21.2°F-6.0°C 82% 7.9 mph NE12.7 kmh NE 10.0 mph16.1 kmh 29.72 in1006.4 mb 0.00 in0.0 mm 0.00 in0.0 mm 0.00 in0.0 mm
03:18 AM 25.9°F-3.4°C 21.2°F-6.0°C 82% 6.0 mph NE9.7 kmh NE 10.0 mph16.1 kmh 29.72 in1006.4 mb 0.00 in0.0 mm 0.00 in0.0 mm 0.00 in0.0 mm
03:19 AM 25.8°F-3.4°C 21.1°F-6.1°C 82% 6.2 mph NE10.0 kmh NE 11.0 mph17.7 kmh 29.72 in1006.4 mb 0.00 in0.0 mm 0.00 in0.0 mm 0.00 in0.0 mm
03:20 AM 25.9°F-3.4°C 21.2°F-6.0°C 82% 6.1 mph NE9.8 kmh NE 11.0 mph17.7 kmh 29.72 in1006.4 mb 0.00 in0.0 mm 0.00 in0.0 mm 0.00 in0.0 mm
03:21 AM 25.9°F-3.4°C 21.2°F-6.0°C 82% 8.2 mph NE13.2 kmh NE 11.0 mph17.7 kmh 29.72 in1006.4 mb 0.00 in0.0 mm 0.00 in0.0 mm 0.00 in0.0 mm
03:22 AM 25.9°F-3.4°C 21.2°F-6.0°C 82% 8.3 mph NNE13.4 kmh NNE 11.0 mph17.7 kmh 29.72 in1006.4 mb 0.00 in0.0 mm 0.00 in0.0 mm 0.00 in0.0 mm
03:23 AM 26.0°F-3.3°C 21.3°F-5.9°C 82% 11.3 mph NNE18.2 kmh NNE 14.0 mph22.5 kmh 29.72 in1006.4 mb 0.00 in0.0 mm 0.00 in0.0 mm 0.00 in0.0 mm
03:24 AM 26.1°F-3.3°C 21.7°F-5.7°C 83% 12.5 mph N20.1 kmh N 14.0 mph22.5 kmh 29.72 in1006.4 mb 0.00 in0.0 mm 0.00 in0.0 mm 0.00 in0.0 mm
03:25 AM 26.2°F-3.2°C 21.8°F-5.7°C 83% 13.2 mph NNE21.2 kmh NNE 15.0 mph24.1 kmh 29.72 in1006.4 mb 0.00 in0.0 mm 0.00 in0.0 mm 0.00 in0.0 mm
03:26 AM 26.2°F-3.2°C 21.8°F-5.7°C 83% 12.1 mph NNE19.5 kmh NNE 15.0 mph24.1 kmh 29.72 in1006.4 mb 0.00 in0.0 mm 0.00 in0.0 mm 0.00 in0.0 mm
03:27 AM 26.3°F-3.2°C 21.9°F-5.6°C 83% 12.0 mph NNE19.3 kmh NNE 14.0 mph22.5 kmh 29.72 in1006.4 mb 0.00 in0.0 mm 0.00 in0.0 mm 0.00 in0.0 mm
03:28 AM 26.2°F-3.2°C 21.8°F-5.7°C 83% 13.0 mph NNE20.9 kmh NNE 14.0 mph22.5 kmh 29.72 in1006.4 mb 0.00 in0.0 mm 0.00 in0.0 mm 0.00 in0.0 mm
03:29 AM 26.2°F-3.2°C 21.8°F-5.7°C 83% 11.9 mph NE19.2 kmh NE 14.0 mph22.5 kmh 29.72 in1006.4 mb 0.00 in0.0 mm 0.00 in0.0 mm 0.00 in0.0 mm
03:30 AM 26.2°F-3.2°C 21.8°F-5.7°C 83% 9.7 mph NNE15.6 kmh NNE 14.0 mph22.5 kmh 29.72 in1006.4 mb 0.00 in0.0 mm 0.00 in0.0 mm 0.00 in0.0 mm
03:31 AM 26.1°F-3.3°C 21.7°F-5.7°C 83% 11.6 mph NNE18.7 kmh NNE 15.0 mph24.1 kmh 29.72 in1006.4 mb 0.00 in0.0 mm 0.00 in0.0 mm 0.00 in0.0 mm
03:32 AM 26.1°F-3.3°C 21.7°F-5.7°C 83% 12.1 mph NNE19.5 kmh NNE 15.0 mph24.1 kmh 29.72 in1006.4 mb 0.00 in0.0 mm 0.00 in0.0 mm 0.00 in0.0 mm
03:33 AM 26.1°F-3.3°C 21.7°F-5.7°C 83% 12.3 mph NNE19.8 kmh NNE 14.0 mph22.5 kmh 29.72 in1006.4 mb 0.00 in0.0 mm 0.00 in0.0 mm 0.00 in0.0 mm
03:34 AM 26.1°F-3.3°C 21.4°F-5.9°C 82% 10.4 mph NNE16.7 kmh NNE 14.0 mph22.5 kmh 29.72 in1006.4 mb 0.00 in0.0 mm 0.00 in0.0 mm 0.00 in0.0 mm
03:35 AM 26.1°F-3.3°C 21.7°F-5.7°C 83% 10.5 mph NNE16.9 kmh NNE 14.0 mph22.5 kmh 29.72 in1006.4 mb 0.00 in0.0 mm 0.00 in0.0 mm 0.00 in0.0 mm
03:36 AM 26.0°F-3.3°C 21.6°F-5.8°C 83% 10.8 mph NE17.4 kmh NE 13.0 mph20.9 kmh 29.72 in1006.4 mb 0.00 in0.0 mm 0.00 in0.0 mm 0.00 in0.0 mm
03:37 AM 26.0°F-3.3°C 21.6°F-5.8°C 83% 10.0 mph NE16.1 kmh NE 13.0 mph20.9 kmh 29.72 in1006.4 mb 0.00 in0.0 mm 0.00 in0.0 mm 0.00 in0.0 mm
03:38 AM 26.0°F-3.3°C 21.6°F-5.8°C 83% 11.0 mph NNE17.7 kmh NNE 13.0 mph20.9 kmh 29.72 in1006.4 mb 0.00 in0.0 mm 0.00 in0.0 mm 0.00 in0.0 mm
03:39 AM 26.0°F-3.3°C 21.6°F-5.8°C 83% 10.2 mph NE16.4 kmh NE 14.0 mph22.5 kmh 29.72 in1006.4 mb 0.00 in0.0 mm 0.00 in0.0 mm 0.00 in0.0 mm
03:40 AM 26.0°F-3.3°C 21.6°F-5.8°C 83% 11.4 mph NE18.3 kmh NE 14.0 mph22.5 kmh 29.72 in1006.4 mb 0.00 in0.0 mm 0.00 in0.0 mm 0.00 in0.0 mm
03:41 AM 26.0°F-3.3°C 21.3°F-5.9°C 82% 6.7 mph NE10.8 kmh NE 13.0 mph20.9 kmh 29.72 in1006.4 mb 0.00 in0.0 mm 0.00 in0.0 mm 0.00 in0.0 mm
03:42 AM 26.0°F-3.3°C 21.3°F-5.9°C 82% 9.8 mph NNE15.8 kmh NNE 14.0 mph22.5 kmh 29.72 in1006.4 mb 0.00 in0.0 mm 0.00 in0.0 mm 0.00 in0.0 mm
03:43 AM 26.0°F-3.3°C 21.6°F-5.8°C 83% 10.7 mph NNE17.2 kmh NNE 14.0 mph22.5 kmh 29.72 in1006.4 mb 0.00 in0.0 mm 0.00 in0.0 mm 0.00 in0.0 mm
03:44 AM 26.0°F-3.3°C 21.3°F-5.9°C 82% 9.9 mph NNE15.9 kmh NNE 13.0 mph20.9 kmh 29.72 in1006.4 mb 0.00 in0.0 mm 0.00 in0.0 mm 0.00 in0.0 mm
03:45 AM 26.0°F-3.3°C 21.6°F-5.8°C 83% 10.5 mph NNE16.9 kmh NNE 13.0 mph20.9 kmh 29.72 in1006.4 mb 0.00 in0.0 mm 0.00 in0.0 mm 0.00 in0.0 mm
03:46 AM 26.0°F-3.3°C 21.6°F-5.8°C 83% 12.1 mph NNE19.5 kmh NNE 15.0 mph24.1 kmh 29.72 in1006.4 mb 0.00 in0.0 mm 0.00 in0.0 mm 0.00 in0.0 mm
03:47 AM 26.0°F-3.3°C 21.6°F-5.8°C 83% 10.1 mph NNE16.3 kmh NNE 15.0 mph24.1 kmh 29.72 in1006.4 mb 0.00 in0.0 mm 0.00 in0.0 mm 0.00 in0.0 mm
03:48 AM 26.0°F-3.3°C 21.6°F-5.8°C 83% 10.1 mph NNE16.3 kmh NNE 12.0 mph19.3 kmh 29.72 in1006.4 mb 0.00 in0.0 mm 0.00 in0.0 mm 0.00 in0.0 mm
03:49 AM 26.0°F-3.3°C 21.6°F-5.8°C 83% 9.7 mph NE15.6 kmh NE 11.0 mph17.7 kmh 29.72 in1006.4 mb 0.00 in0.0 mm 0.00 in0.0 mm 0.00 in0.0 mm
03:50 AM 26.0°F-3.3°C 21.6°F-5.8°C 83% 8.3 mph NE13.4 kmh NE 12.0 mph19.3 kmh 29.72 in1006.4 mb 0.00 in0.0 mm 0.00 in0.0 mm 0.00 in0.0 mm
03:51 AM 26.0°F-3.3°C 21.6°F-5.8°C 83% 8.3 mph NE13.4 kmh NE 13.0 mph20.9 kmh 29.72 in1006.4 mb 0.00 in0.0 mm 0.00 in0.0 mm 0.00 in0.0 mm
03:52 AM 26.1°F-3.3°C 21.7°F-5.7°C 83% 9.7 mph NE15.6 kmh NE 13.0 mph20.9 kmh 29.72 in1006.4 mb 0.00 in0.0 mm 0.00 in0.0 mm 0.00 in0.0 mm
03:53 AM 26.1°F-3.3°C 21.7°F-5.7°C 83% 10.7 mph NNE17.2 kmh NNE 13.0 mph20.9 kmh 29.72 in1006.4 mb 0.00 in0.0 mm 0.00 in0.0 mm 0.00 in0.0 mm
03:54 AM 26.1°F-3.3°C 21.7°F-5.7°C 83% 8.2 mph NE13.2 kmh NE 13.0 mph20.9 kmh 29.72 in1006.4 mb 0.00 in0.0 mm 0.00 in0.0 mm 0.00 in0.0 mm
03:55 AM 26.1°F-3.3°C 21.7°F-5.7°C 83% 7.5 mph NE12.1 kmh NE 10.0 mph16.1 kmh 29.72 in1006.4 mb 0.00 in0.0 mm 0.00 in0.0 mm 0.00 in0.0 mm
03:56 AM 26.0°F-3.3°C 21.6°F-5.8°C 83% 8.2 mph NNE13.2 kmh NNE 11.0 mph17.7 kmh 29.73 in1006.8 mb 0.00 in0.0 mm 0.00 in0.0 mm 0.00 in0.0 mm
03:57 AM 26.1°F-3.3°C 21.7°F-5.7°C 83% 9.1 mph N14.6 kmh N 11.0 mph17.7 kmh 29.72 in1006.4 mb 0.00 in0.0 mm 0.00 in0.0 mm 0.00 in0.0 mm
03:58 AM 26.0°F-3.3°C 21.6°F-5.8°C 83% 10.3 mph N16.6 kmh N 14.0 mph22.5 kmh 29.72 in1006.4 mb 0.00 in0.0 mm 0.00 in0.0 mm 0.00 in0.0 mm
03:59 AM 26.0°F-3.3°C 21.6°F-5.8°C 83% 11.9 mph NNE19.2 kmh NNE 14.0 mph22.5 kmh 29.72 in1006.4 mb 0.00 in0.0 mm 0.00 in0.0 mm 0.00 in0.0 mm
04:00 AM 26.0°F-3.3°C 21.6°F-5.8°C 83% 11.1 mph NNE17.9 kmh NNE 13.0 mph20.9 kmh 29.72 in1006.4 mb 0.00 in0.0 mm 0.00 in0.0 mm 0.00 in0.0 mm
04:01 AM 26.1°F-3.3°C 21.7°F-5.7°C 83% 10.2 mph NNE16.4 kmh NNE 13.0 mph20.9 kmh 29.72 in1006.4 mb 0.00 in0.0 mm 0.00 in0.0 mm 0.00 in0.0 mm
04:02 AM 26.1°F-3.3°C 21.7°F-5.7°C 83% 7.6 mph ENE12.2 kmh ENE 13.0 mph20.9 kmh 29.72 in1006.4 mb 0.00 in0.0 mm 0.00 in0.0 mm 0.00 in0.0 mm
04:03 AM 26.1°F-3.3°C 21.7°F-5.7°C 83% 7.0 mph ENE11.3 kmh ENE 10.0 mph16.1 kmh 29.72 in1006.4 mb 0.00 in0.0 mm 0.00 in0.0 mm 0.00 in0.0 mm
04:04 AM 26.1°F-3.3°C 21.7°F-5.7°C 83% 7.0 mph ENE11.3 kmh ENE 9.0 mph14.5 kmh 29.72 in1006.4 mb 0.00 in0.0 mm 0.00 in0.0 mm 0.00 in0.0 mm
04:05 AM 26.0°F-3.3°C 21.6°F-5.8°C 83% 6.2 mph ENE10.0 kmh ENE 9.0 mph14.5 kmh 29.72 in1006.4 mb 0.00 in0.0 mm 0.00 in0.0 mm 0.00 in0.0 mm
04:06 AM 25.9°F-3.4°C 21.2°F-6.0°C 82% 5.6 mph NE9.0 kmh NE 9.0 mph14.5 kmh 29.72 in1006.4 mb 0.00 in0.0 mm 0.00 in0.0 mm 0.00 in0.0 mm
04:07 AM 25.9°F-3.4°C 21.2°F-6.0°C 82% 6.5 mph NE10.5 kmh NE 10.0 mph16.1 kmh 29.72 in1006.4 mb 0.00 in0.0 mm 0.00 in0.0 mm 0.00 in0.0 mm
04:08 AM 25.8°F-3.4°C 21.1°F-6.1°C 82% 4.4 mph NE7.1 kmh NE 10.0 mph16.1 kmh 29.72 in1006.4 mb 0.00 in0.0 mm 0.00 in0.0 mm 0.00 in0.0 mm
04:09 AM 25.9°F-3.4°C 21.2°F-6.0°C 82% 3.4 mph ENE5.5 kmh ENE 6.0 mph9.7 kmh 29.72 in1006.4 mb 0.00 in0.0 mm 0.00 in0.0 mm 0.00 in0.0 mm
04:10 AM 25.8°F-3.4°C 21.1°F-6.1°C 82% 7.3 mph ENE11.7 kmh ENE 10.0 mph16.1 kmh 29.73 in1006.8 mb 0.00 in0.0 mm 0.00 in0.0 mm 0.00 in0.0 mm
04:11 AM 25.8°F-3.4°C 21.1°F-6.1°C 82% 5.3 mph NE8.5 kmh NE 10.0 mph16.1 kmh 29.73 in1006.8 mb 0.00 in0.0 mm 0.00 in0.0 mm 0.00 in0.0 mm
04:12 AM 25.8°F-3.4°C 21.1°F-6.1°C 82% 6.6 mph NE10.6 kmh NE 10.0 mph16.1 kmh 29.72 in1006.4 mb 0.00 in0.0 mm 0.00 in0.0 mm 0.00 in0.0 mm
04:13 AM 25.8°F-3.4°C 21.4°F-5.9°C 83% 9.7 mph NE15.6 kmh NE 12.0 mph19.3 kmh 29.72 in1006.4 mb 0.00 in0.0 mm 0.00 in0.0 mm 0.00 in0.0 mm
04:14 AM 25.8°F-3.4°C 21.4°F-5.9°C 83% 9.5 mph NE15.3 kmh NE 12.0 mph19.3 kmh 29.73 in1006.8 mb 0.00 in0.0 mm 0.00 in0.0 mm 0.00 in0.0 mm
04:15 AM 25.8°F-3.4°C 21.4°F-5.9°C 83% 10.5 mph NE16.9 kmh NE 12.0 mph19.3 kmh 29.72 in1006.4 mb 0.00 in0.0 mm 0.00 in0.0 mm 0.00 in0.0 mm
04:16 AM 25.8°F-3.4°C 21.4°F-5.9°C 83% 8.8 mph NE14.2 kmh NE 12.0 mph19.3 kmh 29.72 in1006.4 mb 0.00 in0.0 mm 0.00 in0.0 mm 0.00 in0.0 mm
04:17 AM 25.8°F-3.4°C 21.4°F-5.9°C 83% 6.7 mph NE10.8 kmh NE 12.0 mph19.3 kmh 29.72 in1006.4 mb 0.00 in0.0 mm 0.00 in0.0 mm 0.00 in0.0 mm
04:18 AM 25.8°F-3.4°C 21.4°F-5.9°C 83% 6.1 mph NE9.8 kmh NE 11.0 mph17.7 kmh 29.72 in1006.4 mb 0.00 in0.0 mm 0.00 in0.0 mm 0.00 in0.0 mm
04:19 AM 25.8°F-3.4°C 21.4°F-5.9°C 83% 9.1 mph NE14.6 kmh NE 12.0 mph19.3 kmh 29.73 in1006.8 mb 0.00 in0.0 mm 0.00 in0.0 mm 0.00 in0.0 mm
04:20 AM 25.9°F-3.4°C 21.5°F-5.8°C 83% 10.9 mph NE17.5 kmh NE 13.0 mph20.9 kmh 29.72 in1006.4 mb 0.00 in0.0 mm 0.00 in0.0 mm 0.00 in0.0 mm
04:21 AM 25.9°F-3.4°C 21.5°F-5.8°C 83% 12.0 mph NE19.3 kmh NE 15.0 mph24.1 kmh 29.72 in1006.4 mb 0.00 in0.0 mm 0.00 in0.0 mm 0.00 in0.0 mm
04:22 AM 25.9°F-3.4°C 21.5°F-5.8°C 83% 12.6 mph NNE20.3 kmh NNE 15.0 mph24.1 kmh 29.72 in1006.4 mb 0.00 in0.0 mm 0.00 in0.0 mm 0.00 in0.0 mm
04:23 AM 26.0°F-3.3°C 21.6°F-5.8°C 83% 13.9 mph NNE22.4 kmh NNE 18.0 mph29.0 kmh 29.72 in1006.4 mb 0.00 in0.0 mm 0.00 in0.0 mm 0.00 in0.0 mm
04:24 AM 26.0°F-3.3°C 21.6°F-5.8°C 83% 11.9 mph NE19.2 kmh NE 18.0 mph29.0 kmh 29.72 in1006.4 mb 0.00 in0.0 mm 0.00 in0.0 mm 0.00 in0.0 mm
04:25 AM 26.0°F-3.3°C 21.6°F-5.8°C 83% 11.3 mph NE18.2 kmh NE 16.0 mph25.7 kmh 29.72 in1006.4 mb 0.00 in0.0 mm 0.00 in0.0 mm 0.00 in0.0 mm
04:26 AM 26.0°F-3.3°C 21.6°F-5.8°C 83% 8.7 mph NE14.0 kmh NE 14.0 mph22.5 kmh 29.72 in1006.4 mb 0.00 in0.0 mm 0.00 in0.0 mm 0.00 in0.0 mm
04:27 AM 26.0°F-3.3°C 21.6°F-5.8°C 83% 10.6 mph NE17.1 kmh NE 14.0 mph22.5 kmh 29.72 in1006.4 mb 0.00 in0.0 mm 0.00 in0.0 mm 0.00 in0.0 mm
04:28 AM 26.0°F-3.3°C 21.6°F-5.8°C 83% 12.1 mph NE19.5 kmh NE 16.0 mph25.7 kmh 29.72 in1006.4 mb 0.00 in0.0 mm 0.00 in0.0 mm 0.00 in0.0 mm
04:29 AM 26.0°F-3.3°C 21.6°F-5.8°C 83% 9.3 mph NE15.0 kmh NE 16.0 mph25.7 kmh 29.72 in1006.4 mb 0.00 in0.0 mm 0.00 in0.0 mm 0.00 in0.0 mm
04:30 AM 26.0°F-3.3°C 21.6°F-5.8°C 83% 12.4 mph NE20.0 kmh NE 15.0 mph24.1 kmh 29.72 in1006.4 mb 0.00 in0.0 mm 0.00 in0.0 mm 0.00 in0.0 mm
04:31 AM 26.0°F-3.3°C 21.6°F-5.8°C 83% 9.5 mph NE15.3 kmh NE 15.0 mph24.1 kmh 29.72 in1006.4 mb 0.00 in0.0 mm 0.00 in0.0 mm 0.00 in0.0 mm
04:32 AM 26.0°F-3.3°C 21.6°F-5.8°C 83% 11.6 mph NE18.7 kmh NE 15.0 mph24.1 kmh 29.72 in1006.4 mb 0.00 in0.0 mm 0.00 in0.0 mm 0.00 in0.0 mm
04:33 AM 26.0°F-3.3°C 21.6°F-5.8°C 83% 9.8 mph NE15.8 kmh NE 15.0 mph24.1 kmh 29.72 in1006.4 mb 0.00 in0.0 mm 0.00 in0.0 mm 0.00 in0.0 mm
04:34 AM 25.9°F-3.4°C 21.5°F-5.8°C 83% 11.0 mph NE17.7 kmh NE 15.0 mph24.1 kmh 29.72 in1006.4 mb 0.00 in0.0 mm 0.00 in0.0 mm 0.00 in0.0 mm
04:35 AM 26.0°F-3.3°C 21.6°F-5.8°C 83% 13.2 mph NE21.2 kmh NE 16.0 mph25.7 kmh 29.72 in1006.4 mb 0.00 in0.0 mm 0.00 in0.0 mm 0.00 in0.0 mm
04:36 AM 26.0°F-3.3°C 21.6°F-5.8°C 83% 13.0 mph NE20.9 kmh NE 16.0 mph25.7 kmh 29.72 in1006.4 mb 0.00 in0.0 mm 0.00 in0.0 mm 0.00 in0.0 mm
04:37 AM 26.0°F-3.3°C 21.6°F-5.8°C 83% 11.1 mph NE17.9 kmh NE 15.0 mph24.1 kmh 29.73 in1006.8 mb 0.00 in0.0 mm 0.00 in0.0 mm 0.00 in0.0 mm
04:38 AM 26.0°F-3.3°C 21.6°F-5.8°C 83% 10.9 mph NE17.5 kmh NE 15.0 mph24.1 kmh 29.72 in1006.4 mb 0.00 in0.0 mm 0.00 in0.0 mm 0.00 in0.0 mm
04:39 AM 26.0°F-3.3°C 21.6°F-5.8°C 83% 11.2 mph NE18.0 kmh NE 15.0 mph24.1 kmh 29.73 in1006.8 mb 0.00 in0.0 mm 0.00 in0.0 mm 0.00 in0.0 mm
04:40 AM 26.0°F-3.3°C 21.6°F-5.8°C 83% 9.0 mph NE14.5 kmh NE 13.0 mph20.9 kmh 29.73 in1006.8 mb 0.00 in0.0 mm 0.00 in0.0 mm 0.00 in0.0 mm
04:41 AM 26.0°F-3.3°C 21.6°F-5.8°C 83% 8.1 mph NE13.0 kmh NE 13.0 mph20.9 kmh 29.73 in1006.8 mb 0.00 in0.0 mm 0.00 in0.0 mm 0.00 in0.0 mm
04:42 AM 26.0°F-3.3°C 21.3°F-5.9°C 82% 8.4 mph NE13.5 kmh NE 13.0 mph20.9 kmh 29.72 in1006.4 mb 0.00 in0.0 mm 0.00 in0.0 mm 0.00 in0.0 mm
04:43 AM 26.0°F-3.3°C 21.6°F-5.8°C 83% 9.1 mph NE14.6 kmh NE 12.0 mph19.3 kmh 29.72 in1006.4 mb 0.00 in0.0 mm 0.00 in0.0 mm 0.00 in0.0 mm
04:44 AM 26.0°F-3.3°C 21.3°F-5.9°C 82% 9.0 mph NE14.5 kmh NE 12.0 mph19.3 kmh 29.72 in1006.4 mb 0.00 in0.0 mm 0.00 in0.0 mm 0.00 in0.0 mm
04:45 AM 26.0°F-3.3°C 21.3°F-5.9°C 82% 7.8 mph NE12.6 kmh NE 13.0 mph20.9 kmh 29.72 in1006.4 mb 0.00 in0.0 mm 0.00 in0.0 mm 0.00 in0.0 mm
04:46 AM 25.9°F-3.4°C 21.2°F-6.0°C 82% 8.7 mph NE14.0 kmh NE 13.0 mph20.9 kmh 29.72 in1006.4 mb 0.00 in0.0 mm 0.00 in0.0 mm 0.00 in0.0 mm
04:47 AM 26.0°F-3.3°C 21.3°F-5.9°C 82% 7.7 mph NE12.4 kmh NE 12.0 mph19.3 kmh 29.72 in1006.4 mb 0.00 in0.0 mm 0.00 in0.0 mm 0.00 in0.0 mm
04:48 AM 26.0°F-3.3°C 21.6°F-5.8°C 83% 8.7 mph NE14.0 kmh NE 12.0 mph19.3 kmh 29.72 in1006.4 mb 0.00 in0.0 mm 0.00 in0.0 mm 0.00 in0.0 mm
04:49 AM 26.0°F-3.3°C 21.6°F-5.8°C 83% 8.6 mph NE13.8 kmh NE 11.0 mph17.7 kmh 29.72 in1006.4 mb 0.00 in0.0 mm 0.00 in0.0 mm 0.00 in0.0 mm
04:50 AM 26.0°F-3.3°C 21.3°F-5.9°C 82% 7.2 mph NE11.6 kmh NE 11.0 mph17.7 kmh 29.72 in1006.4 mb 0.00 in0.0 mm 0.00 in0.0 mm 0.00 in0.0 mm
04:51 AM 26.0°F-3.3°C 21.6°F-5.8°C 83% 10.0 mph NE16.1 kmh NE 13.0 mph20.9 kmh 29.72 in1006.4 mb 0.00 in0.0 mm 0.00 in0.0 mm 0.00 in0.0 mm
04:52 AM 26.0°F-3.3°C 21.3°F-5.9°C 82% 10.6 mph NE17.1 kmh NE 14.0 mph22.5 kmh 29.72 in1006.4 mb 0.00 in0.0 mm 0.00 in0.0 mm 0.00 in0.0 mm
04:53 AM 26.0°F-3.3°C 21.3°F-5.9°C 82% 11.6 mph NE18.7 kmh NE 14.0 mph22.5 kmh 29.72 in1006.4 mb 0.00 in0.0 mm 0.00 in0.0 mm 0.00 in0.0 mm
04:54 AM 26.0°F-3.3°C 21.3°F-5.9°C 82% 8.1 mph NE13.0 kmh NE 14.0 mph22.5 kmh 29.73 in1006.8 mb 0.00 in0.0 mm 0.00 in0.0 mm 0.00 in0.0 mm
04:55 AM 26.0°F-3.3°C 21.3°F-5.9°C 82% 10.7 mph NE17.2 kmh NE 14.0 mph22.5 kmh 29.73 in1006.8 mb 0.00 in0.0 mm 0.00 in0.0 mm 0.00 in0.0 mm
04:56 AM 26.0°F-3.3°C 21.3°F-5.9°C 82% 10.6 mph NE17.1 kmh NE 14.0 mph22.5 kmh 29.72 in1006.4 mb 0.00 in0.0 mm 0.00 in0.0 mm 0.00 in0.0 mm
04:57 AM 26.0°F-3.3°C 21.3°F-5.9°C 82% 10.2 mph NE16.4 kmh NE 13.0 mph20.9 kmh 29.73 in1006.8 mb 0.00 in0.0 mm 0.00 in0.0 mm 0.00 in0.0 mm
04:58 AM 26.0°F-3.3°C 21.3°F-5.9°C 82% 11.0 mph NE17.7 kmh NE 14.0 mph22.5 kmh 29.73 in1006.8 mb 0.00 in0.0 mm 0.00 in0.0 mm 0.00 in0.0 mm
04:59 AM 26.0°F-3.3°C 21.3°F-5.9°C 82% 10.3 mph NE16.6 kmh NE 14.0 mph22.5 kmh 29.73 in1006.8 mb 0.00 in0.0 mm 0.00 in0.0 mm 0.00 in0.0 mm
05:00 AM 26.0°F-3.3°C 21.3°F-5.9°C 82% 8.7 mph NE14.0 kmh NE 13.0 mph20.9 kmh 29.73 in1006.8 mb 0.00 in0.0 mm 0.00 in0.0 mm 0.00 in0.0 mm
05:01 AM 26.0°F-3.3°C 21.3°F-5.9°C 82% 7.3 mph NE11.7 kmh NE 11.0 mph17.7 kmh 29.73 in1006.8 mb 0.00 in0.0 mm 0.00 in0.0 mm 0.00 in0.0 mm
05:02 AM 26.0°F-3.3°C 21.3°F-5.9°C 82% 11.9 mph NE19.2 kmh NE 15.0 mph24.1 kmh 29.73 in1006.8 mb 0.00 in0.0 mm 0.00 in0.0 mm 0.00 in0.0 mm
05:03 AM 26.0°F-3.3°C 21.3°F-5.9°C 82% 10.4 mph NE16.7 kmh NE 15.0 mph24.1 kmh 29.73 in1006.8 mb 0.00 in0.0 mm 0.00 in0.0 mm 0.00 in0.0 mm
05:04 AM 26.0°F-3.3°C 21.3°F-5.9°C 82% 8.5 mph NE13.7 kmh NE 14.0 mph22.5 kmh 29.73 in1006.8 mb 0.00 in0.0 mm 0.00 in0.0 mm 0.00 in0.0 mm
05:05 AM 26.0°F-3.3°C 21.3°F-5.9°C 82% 6.5 mph NE10.5 kmh NE 11.0 mph17.7 kmh 29.73 in1006.8 mb 0.00 in0.0 mm 0.00 in0.0 mm 0.00 in0.0 mm
05:06 AM 26.0°F-3.3°C 21.3°F-5.9°C 82% 7.5 mph NE12.1 kmh NE 11.0 mph17.7 kmh 29.73 in1006.8 mb 0.00 in0.0 mm 0.00 in0.0 mm 0.00 in0.0 mm
05:07 AM 26.0°F-3.3°C 21.3°F-5.9°C 82% 7.2 mph NE11.6 kmh NE 11.0 mph17.7 kmh 29.73 in1006.8 mb 0.00 in0.0 mm 0.00 in0.0 mm 0.00 in0.0 mm
05:08 AM 26.0°F-3.3°C 21.3°F-5.9°C 82% 7.2 mph NE11.6 kmh NE 10.0 mph16.1 kmh 29.73 in1006.8 mb 0.00 in0.0 mm 0.00 in0.0 mm 0.00 in0.0 mm
05:09 AM 26.1°F-3.3°C 21.4°F-5.9°C 82% 7.0 mph NE11.3 kmh NE 10.0 mph16.1 kmh 29.73 in1006.8 mb 0.00 in0.0 mm 0.00 in0.0 mm 0.00 in0.0 mm
05:10 AM 26.1°F-3.3°C 21.4°F-5.9°C 82% 9.5 mph NE15.3 kmh NE 12.0 mph19.3 kmh 29.73 in1006.8 mb 0.00 in0.0 mm 0.00 in0.0 mm 0.00 in0.0 mm
05:11 AM 26.1°F-3.3°C 21.4°F-5.9°C 82% 10.7 mph NE17.2 kmh NE 13.0 mph20.9 kmh 29.73 in1006.8 mb 0.00 in0.0 mm 0.00 in0.0 mm 0.00 in0.0 mm
05:12 AM 26.1°F-3.3°C 21.4°F-5.9°C 82% 7.7 mph NE12.4 kmh NE 13.0 mph20.9 kmh 29.73 in1006.8 mb 0.00 in0.0 mm 0.00 in0.0 mm 0.00 in0.0 mm
05:13 AM 26.1°F-3.3°C 21.4°F-5.9°C 82% 5.2 mph NE8.4 kmh NE 11.0 mph17.7 kmh 29.73 in1006.8 mb 0.00 in0.0 mm 0.00 in0.0 mm 0.00 in0.0 mm
05:14 AM 26.1°F-3.3°C 21.4°F-5.9°C 82% 8.4 mph NE13.5 kmh NE 12.0 mph19.3 kmh 29.73 in1006.8 mb 0.00 in0.0 mm 0.00 in0.0 mm 0.00 in0.0 mm
05:15 AM 26.1°F-3.3°C 21.4°F-5.9°C 82% 5.5 mph NE8.9 kmh NE 12.0 mph19.3 kmh 29.73 in1006.8 mb 0.00 in0.0 mm 0.00 in0.0 mm 0.00 in0.0 mm
05:16 AM 26.1°F-3.3°C 21.4°F-5.9°C 82% 4.8 mph NE7.7 kmh NE 9.0 mph14.5 kmh 29.73 in1006.8 mb 0.00 in0.0 mm 0.00 in0.0 mm 0.00 in0.0 mm
05:17 AM 26.1°F-3.3°C 21.4°F-5.9°C 82% 8.1 mph NE13.0 kmh NE 11.0 mph17.7 kmh 29.73 in1006.8 mb 0.00 in0.0 mm 0.00 in0.0 mm 0.00 in0.0 mm
05:18 AM 26.1°F-3.3°C 21.4°F-5.9°C 82% 7.7 mph NE12.4 kmh NE 12.0 mph19.3 kmh 29.73 in1006.8 mb 0.00 in0.0 mm 0.00 in0.0 mm 0.00 in0.0 mm
05:19 AM 26.1°F-3.3°C 21.4°F-5.9°C 82% 10.6 mph NE17.1 kmh NE 14.0 mph22.5 kmh 29.73 in1006.8 mb 0.00 in0.0 mm 0.00 in0.0 mm 0.00 in0.0 mm
05:20 AM 26.1°F-3.3°C 21.4°F-5.9°C 82% 7.8 mph NE12.6 kmh NE 14.0 mph22.5 kmh 29.73 in1006.8 mb 0.00 in0.0 mm 0.00 in0.0 mm 0.00 in0.0 mm
05:21 AM 26.1°F-3.3°C 21.4°F-5.9°C 82% 7.5 mph NE12.1 kmh NE 10.0 mph16.1 kmh 29.73 in1006.8 mb 0.00 in0.0 mm 0.00 in0.0 mm 0.00 in0.0 mm
05:22 AM 26.1°F-3.3°C 21.4°F-5.9°C 82% 7.1 mph NE11.4 kmh NE 10.0 mph16.1 kmh 29.73 in1006.8 mb 0.00 in0.0 mm 0.00 in0.0 mm 0.00 in0.0 mm
05:23 AM 26.1°F-3.3°C 21.4°F-5.9°C 82% 4.5 mph NE7.2 kmh NE 10.0 mph16.1 kmh 29.73 in1006.8 mb 0.00 in0.0 mm 0.00 in0.0 mm 0.00 in0.0 mm
05:24 AM 26.2°F-3.2°C 21.5°F-5.8°C 82% 10.3 mph N16.6 kmh N 14.0 mph22.5 kmh 29.73 in1006.8 mb 0.00 in0.0 mm 0.00 in0.0 mm 0.00 in0.0 mm
05:25 AM 26.2°F-3.2°C 21.5°F-5.8°C 82% 10.1 mph NNE16.3 kmh NNE 14.0 mph22.5 kmh 29.73 in1006.8 mb 0.00 in0.0 mm 0.00 in0.0 mm 0.00 in0.0 mm
05:26 AM 26.3°F-3.2°C 21.9°F-5.6°C 83% 9.6 mph NNE15.4 kmh NNE 12.0 mph19.3 kmh 29.73 in1006.8 mb 0.00 in0.0 mm 0.00 in0.0 mm 0.00 in0.0 mm
05:27 AM 26.3°F-3.2°C 21.9°F-5.6°C 83% 10.7 mph NE17.2 kmh NE 13.0 mph20.9 kmh 29.73 in1006.8 mb 0.00 in0.0 mm 0.00 in0.0 mm 0.00 in0.0 mm
05:28 AM 26.3°F-3.2°C 21.9°F-5.6°C 83% 9.0 mph NE14.5 kmh NE 13.0 mph20.9 kmh 29.73 in1006.8 mb 0.00 in0.0 mm 0.00 in0.0 mm 0.00 in0.0 mm
05:29 AM 26.3°F-3.2°C 21.9°F-5.6°C 83% 11.4 mph NNE18.3 kmh NNE 13.0 mph20.9 kmh 29.73 in1006.8 mb 0.00 in0.0 mm 0.00 in0.0 mm 0.00 in0.0 mm
05:30 AM 26.3°F-3.2°C 21.9°F-5.6°C 83% 10.3 mph NNE16.6 kmh NNE 13.0 mph20.9 kmh 29.73 in1006.8 mb 0.00 in0.0 mm 0.00 in0.0 mm 0.00 in0.0 mm
05:31 AM 26.3°F-3.2°C 21.9°F-5.6°C 83% 8.9 mph NNE14.3 kmh NNE 12.0 mph19.3 kmh 29.73 in1006.8 mb 0.00 in0.0 mm 0.00 in0.0 mm 0.00 in0.0 mm
05:32 AM 26.4°F-3.1°C 22.0°F-5.6°C 83% 10.4 mph N16.7 kmh N 12.0 mph19.3 kmh 29.73 in1006.8 mb 0.00 in0.0 mm 0.00 in0.0 mm 0.00 in0.0 mm
05:33 AM 26.4°F-3.1°C 22.0°F-5.6°C 83% 9.1 mph NNE14.6 kmh NNE 12.0 mph19.3 kmh 29.72 in1006.4 mb 0.00 in0.0 mm 0.00 in0.0 mm 0.00 in0.0 mm
05:34 AM 26.4°F-3.1°C 22.0°F-5.6°C 83% 10.4 mph NNE16.7 kmh NNE 12.0 mph19.3 kmh 29.72 in1006.4 mb 0.00 in0.0 mm 0.00 in0.0 mm 0.00 in0.0 mm
05:35 AM 26.3°F-3.2°C 21.9°F-5.6°C 83% 9.9 mph NNE15.9 kmh NNE 12.0 mph19.3 kmh 29.72 in1006.4 mb 0.00 in0.0 mm 0.00 in0.0 mm 0.00 in0.0 mm
05:36 AM 26.4°F-3.1°C 22.0°F-5.6°C 83% 7.3 mph NNE11.7 kmh NNE 12.0 mph19.3 kmh 29.72 in1006.4 mb 0.00 in0.0 mm 0.00 in0.0 mm 0.00 in0.0 mm
05:37 AM 26.4°F-3.1°C 22.0°F-5.6°C 83% 10.5 mph NNE16.9 kmh NNE 13.0 mph20.9 kmh 29.72 in1006.4 mb 0.00 in0.0 mm 0.00 in0.0 mm 0.00 in0.0 mm
05:38 AM 26.4°F-3.1°C 22.0°F-5.6°C 83% 11.1 mph N17.9 kmh N 19.0 mph30.6 kmh 29.72 in1006.4 mb 0.00 in0.0 mm 0.00 in0.0 mm 0.00 in0.0 mm
05:39 AM 26.5°F-3.1°C 22.0°F-5.6°C 83% 10.7 mph NE17.2 kmh NE 19.0 mph30.6 kmh 29.72 in1006.4 mb 0.00 in0.0 mm 0.00 in0.0 mm 0.00 in0.0 mm
05:40 AM 26.5°F-3.1°C 22.0°F-5.6°C 83% 11.1 mph NNE17.9 kmh NNE 13.0 mph20.9 kmh 29.72 in1006.4 mb 0.00 in0.0 mm 0.00 in0.0 mm 0.00 in0.0 mm
05:41 AM 26.5°F-3.1°C 22.0°F-5.6°C 83% 12.1 mph NNE19.5 kmh NNE 14.0 mph22.5 kmh 29.73 in1006.8 mb 0.00 in0.0 mm 0.00 in0.0 mm 0.00 in0.0 mm
05:42 AM 26.5°F-3.1°C 22.0°F-5.6°C 83% 11.2 mph NE18.0 kmh NE 14.0 mph22.5 kmh 29.72 in1006.4 mb 0.00 in0.0 mm 0.00 in0.0 mm 0.00 in0.0 mm
05:43 AM 26.6°F-3.0°C 22.1°F-5.5°C 83% 10.0 mph NE16.1 kmh NE 14.0 mph22.5 kmh 29.72 in1006.4 mb 0.00 in0.0 mm 0.00 in0.0 mm 0.00 in0.0 mm
05:44 AM 26.6°F-3.0°C 22.1°F-5.5°C 83% 11.8 mph NNE19.0 kmh NNE 14.0 mph22.5 kmh 29.72 in1006.4 mb 0.00 in0.0 mm 0.00 in0.0 mm 0.00 in0.0 mm
05:45 AM 26.6°F-3.0°C 22.1°F-5.5°C 83% 11.8 mph NNE19.0 kmh NNE 15.0 mph24.1 kmh 29.72 in1006.4 mb 0.00 in0.0 mm 0.00 in0.0 mm 0.00 in0.0 mm
05:46 AM 26.6°F-3.0°C 22.1°F-5.5°C 83% 11.1 mph NNE17.9 kmh NNE 15.0 mph24.1 kmh 29.73 in1006.8 mb 0.00 in0.0 mm 0.00 in0.0 mm 0.00 in0.0 mm
05:47 AM 26.6°F-3.0°C 22.1°F-5.5°C 83% 8.0 mph NE12.9 kmh NE 13.0 mph20.9 kmh 29.73 in1006.8 mb 0.00 in0.0 mm 0.00 in0.0 mm 0.00 in0.0 mm
05:48 AM 26.6°F-3.0°C 22.1°F-5.5°C 83% 9.6 mph NNE15.4 kmh NNE 12.0 mph19.3 kmh 29.72 in1006.4 mb 0.00 in0.0 mm 0.00 in0.0 mm 0.00 in0.0 mm
05:49 AM 26.7°F-2.9°C 22.2°F-5.4°C 83% 8.1 mph NE13.0 kmh NE 12.0 mph19.3 kmh 29.72 in1006.4 mb 0.00 in0.0 mm 0.00 in0.0 mm 0.00 in0.0 mm
05:50 AM 26.7°F-2.9°C 22.2°F-5.4°C 83% 10.4 mph NE16.7 kmh NE 12.0 mph19.3 kmh 29.72 in1006.4 mb 0.00 in0.0 mm 0.00 in0.0 mm 0.00 in0.0 mm
05:51 AM 26.7°F-2.9°C 22.2°F-5.4°C 83% 12.4 mph NNE20.0 kmh NNE 14.0 mph22.5 kmh 29.72 in1006.4 mb 0.00 in0.0 mm 0.00 in0.0 mm 0.00 in0.0 mm
05:52 AM 26.7°F-2.9°C 22.2°F-5.4°C 83% 12.5 mph NNE20.1 kmh NNE 14.0 mph22.5 kmh 29.72 in1006.4 mb 0.00 in0.0 mm 0.00 in0.0 mm 0.00 in0.0 mm
05:53 AM 26.6°F-3.0°C 22.1°F-5.5°C 83% 12.5 mph NE20.1 kmh NE 15.0 mph24.1 kmh 29.72 in1006.4 mb 0.00 in0.0 mm 0.00 in0.0 mm 0.00 in0.0 mm
05:54 AM 26.6°F-3.0°C 22.1°F-5.5°C 83% 11.9 mph NE19.2 kmh NE 15.0 mph24.1 kmh 29.72 in1006.4 mb 0.00 in0.0 mm 0.00 in0.0 mm 0.00 in0.0 mm
05:55 AM 26.6°F-3.0°C 22.1°F-5.5°C 83% 9.9 mph NNE15.9 kmh NNE 15.0 mph24.1 kmh 29.72 in1006.4 mb 0.00 in0.0 mm 0.00 in0.0 mm 0.00 in0.0 mm
05:56 AM 26.6°F-3.0°C 22.1°F-5.5°C 83% 12.5 mph NNE20.1 kmh NNE 16.0 mph25.7 kmh 29.72 in1006.4 mb 0.00 in0.0 mm 0.00 in0.0 mm 0.00 in0.0 mm
05:57 AM 26.5°F-3.1°C 22.0°F-5.6°C 83% 12.4 mph NNE20.0 kmh NNE 16.0 mph25.7 kmh 29.72 in1006.4 mb 0.00 in0.0 mm 0.00 in0.0 mm 0.00 in0.0 mm
05:58 AM 26.6°F-3.0°C 22.1°F-5.5°C 83% 9.5 mph NNE15.3 kmh NNE 15.0 mph24.1 kmh 29.72 in1006.4 mb 0.00 in0.0 mm 0.00 in0.0 mm 0.00 in0.0 mm
05:59 AM 26.6°F-3.0°C 22.1°F-5.5°C 83% 10.8 mph NNE17.4 kmh NNE 14.0 mph22.5 kmh 29.72 in1006.4 mb 0.00 in0.0 mm 0.00 in0.0 mm 0.00 in0.0 mm
06:00 AM 26.6°F-3.0°C 22.1°F-5.5°C 83% 11.5 mph NNE18.5 kmh NNE 14.0 mph22.5 kmh 29.72 in1006.4 mb 0.00 in0.0 mm 0.00 in0.0 mm 0.00 in0.0 mm
06:01 AM 26.6°F-3.0°C 22.1°F-5.5°C 83% 12.1 mph NNE19.5 kmh NNE 15.0 mph24.1 kmh 29.72 in1006.4 mb 0.00 in0.0 mm 0.00 in0.0 mm 0.00 in0.0 mm
06:02 AM 26.7°F-2.9°C 22.2°F-5.4°C 83% 12.7 mph N20.4 kmh N 15.0 mph24.1 kmh 29.72 in1006.4 mb 0.00 in0.0 mm 0.00 in0.0 mm 0.00 in0.0 mm
06:03 AM 26.6°F-3.0°C 22.1°F-5.5°C 83% 10.1 mph NNE16.3 kmh NNE 14.0 mph22.5 kmh 29.72 in1006.4 mb 0.00 in0.0 mm 0.00 in0.0 mm 0.00 in0.0 mm
06:04 AM 26.6°F-3.0°C 22.1°F-5.5°C 83% 10.2 mph NE16.4 kmh NE 12.0 mph19.3 kmh 29.72 in1006.4 mb 0.00 in0.0 mm 0.00 in0.0 mm 0.00 in0.0 mm
06:05 AM 26.6°F-3.0°C 22.1°F-5.5°C 83% 10.5 mph N16.9 kmh N 14.0 mph22.5 kmh 29.72 in1006.4 mb 0.00 in0.0 mm 0.00 in0.0 mm 0.00 in0.0 mm
06:06 AM 26.7°F-2.9°C 22.2°F-5.4°C 83% 11.6 mph NNE18.7 kmh NNE 14.0 mph22.5 kmh 29.72 in1006.4 mb 0.00 in0.0 mm 0.00 in0.0 mm 0.00 in0.0 mm
06:07 AM 26.7°F-2.9°C 22.2°F-5.4°C 83% 11.3 mph N18.2 kmh N 14.0 mph22.5 kmh 29.72 in1006.4 mb 0.00 in0.0 mm 0.00 in0.0 mm 0.00 in0.0 mm
06:08 AM 26.7°F-2.9°C 22.2°F-5.4°C 83% 12.8 mph N20.6 kmh N 14.0 mph22.5 kmh 29.72 in1006.4 mb 0.00 in0.0 mm 0.00 in0.0 mm 0.00 in0.0 mm
06:09 AM 26.7°F-2.9°C 22.2°F-5.4°C 83% 13.3 mph N21.4 kmh N 15.0 mph24.1 kmh 29.72 in1006.4 mb 0.00 in0.0 mm 0.00 in0.0 mm 0.00 in0.0 mm
06:10 AM 26.7°F-2.9°C 22.2°F-5.4°C 83% 12.9 mph N20.8 kmh N 15.0 mph24.1 kmh 29.72 in1006.4 mb 0.00 in0.0 mm 0.00 in0.0 mm 0.00 in0.0 mm
06:11 AM 26.7°F-2.9°C 22.2°F-5.4°C 83% 11.2 mph NNE18.0 kmh NNE 15.0 mph24.1 kmh 29.72 in1006.4 mb 0.00 in0.0 mm 0.00 in0.0 mm 0.00 in0.0 mm
06:12 AM 26.7°F-2.9°C 22.2°F-5.4°C 83% 11.9 mph NNE19.2 kmh NNE 15.0 mph24.1 kmh 29.72 in1006.4 mb 0.00 in0.0 mm 0.00 in0.0 mm 0.00 in0.0 mm
06:13 AM 26.6°F-3.0°C 22.1°F-5.5°C 83% 10.4 mph NE16.7 kmh NE 15.0 mph24.1 kmh 29.72 in1006.4 mb 0.00 in0.0 mm 0.00 in0.0 mm 0.00 in0.0 mm
06:14 AM 26.6°F-3.0°C 22.1°F-5.5°C 83% 11.4 mph NNE18.3 kmh NNE 14.0 mph22.5 kmh 29.72 in1006.4 mb 0.00 in0.0 mm 0.00 in0.0 mm 0.00 in0.0 mm
06:15 AM 26.7°F-2.9°C 22.2°F-5.4°C 83% 11.3 mph NNE18.2 kmh NNE 14.0 mph22.5 kmh 29.72 in1006.4 mb 0.00 in0.0 mm 0.00 in0.0 mm 0.00 in0.0 mm
06:16 AM 26.7°F-2.9°C 22.2°F-5.4°C 83% 9.4 mph NNE15.1 kmh NNE 13.0 mph20.9 kmh 29.72 in1006.4 mb 0.00 in0.0 mm 0.00 in0.0 mm 0.00 in0.0 mm
06:17 AM 26.6°F-3.0°C 22.1°F-5.5°C 83% 13.0 mph NNE20.9 kmh NNE 15.0 mph24.1 kmh 29.72 in1006.4 mb 0.00 in0.0 mm 0.00 in0.0 mm 0.00 in0.0 mm
06:18 AM 26.6°F-3.0°C 22.1°F-5.5°C 83% 13.7 mph NNE22.0 kmh NNE 16.0 mph25.7 kmh 29.72 in1006.4 mb 0.00 in0.0 mm 0.00 in0.0 mm 0.00 in0.0 mm
06:19 AM 26.6°F-3.0°C 22.1°F-5.5°C 83% 12.9 mph NNE20.8 kmh NNE 16.0 mph25.7 kmh 29.72 in1006.4 mb 0.00 in0.0 mm 0.00 in0.0 mm 0.00 in0.0 mm
06:20 AM 26.6°F-3.0°C 22.1°F-5.5°C 83% 12.8 mph NNE20.6 kmh NNE 17.0 mph27.4 kmh 29.72 in1006.4 mb 0.00 in0.0 mm 0.00 in0.0 mm 0.00 in0.0 mm
06:21 AM 26.7°F-2.9°C 22.2°F-5.4°C 83% 12.4 mph N20.0 kmh N 17.0 mph27.4 kmh 29.72 in1006.4 mb 0.00 in0.0 mm 0.00 in0.0 mm 0.00 in0.0 mm
06:22 AM 26.6°F-3.0°C 22.1°F-5.5°C 83% 12.6 mph N20.3 kmh N 14.0 mph22.5 kmh 29.72 in1006.4 mb 0.00 in0.0 mm 0.00 in0.0 mm 0.00 in0.0 mm
06:23 AM 26.7°F-2.9°C 22.2°F-5.4°C 83% 11.5 mph NNE18.5 kmh NNE 14.0 mph22.5 kmh 29.72 in1006.4 mb 0.00 in0.0 mm 0.00 in0.0 mm 0.00 in0.0 mm
06:24 AM 26.7°F-2.9°C 22.2°F-5.4°C 83% 12.0 mph NNE19.3 kmh NNE 14.0 mph22.5 kmh 29.72 in1006.4 mb 0.00 in0.0 mm 0.00 in0.0 mm 0.00 in0.0 mm
06:25 AM 26.7°F-2.9°C 22.2°F-5.4°C 83% 11.8 mph NNE19.0 kmh NNE 14.0 mph22.5 kmh 29.72 in1006.4 mb 0.00 in0.0 mm 0.00 in0.0 mm 0.00 in0.0 mm
06:26 AM 26.7°F-2.9°C 22.2°F-5.4°C 83% 12.2 mph N19.6 kmh N 14.0 mph22.5 kmh 29.72 in1006.4 mb 0.00 in0.0 mm 0.00 in0.0 mm 0.00 in0.0 mm
06:27 AM 26.7°F-2.9°C 22.2°F-5.4°C 83% 12.2 mph NNE19.6 kmh NNE 14.0 mph22.5 kmh 29.72 in1006.4 mb 0.00 in0.0 mm 0.00 in0.0 mm 0.00 in0.0 mm
06:28 AM 26.7°F-2.9°C 22.2°F-5.4°C 83% 12.1 mph NNE19.5 kmh NNE 14.0 mph22.5 kmh 29.72 in1006.4 mb 0.00 in0.0 mm 0.00 in0.0 mm 0.00 in0.0 mm
06:29 AM 26.7°F-2.9°C 22.2°F-5.4°C 83% 12.3 mph NNE19.8 kmh NNE 14.0 mph22.5 kmh 29.72 in1006.4 mb 0.00 in0.0 mm 0.00 in0.0 mm 0.00 in0.0 mm
06:30 AM 26.7°F-2.9°C 22.2°F-5.4°C 83% 11.4 mph NNE18.3 kmh NNE 14.0 mph22.5 kmh 29.72 in1006.4 mb 0.00 in0.0 mm 0.00 in0.0 mm 0.00 in0.0 mm
06:31 AM 26.8°F-2.9°C 22.6°F-5.2°C 84% 10.7 mph NNE17.2 kmh NNE 14.0 mph22.5 kmh 29.72 in1006.4 mb 0.00 in0.0 mm 0.00 in0.0 mm 0.00 in0.0 mm
06:32 AM 26.7°F-2.9°C 22.2°F-5.4°C 83% 9.7 mph NNE15.6 kmh NNE 14.0 mph22.5 kmh 29.72 in1006.4 mb 0.00 in0.0 mm 0.00 in0.0 mm 0.00 in0.0 mm
06:33 AM 26.8°F-2.9°C 22.3°F-5.4°C 83% 10.5 mph NE16.9 kmh NE 14.0 mph22.5 kmh 29.72 in1006.4 mb 0.00 in0.0 mm 0.00 in0.0 mm 0.00 in0.0 mm
06:34 AM 26.7°F-2.9°C 22.2°F-5.4°C 83% 8.9 mph NE14.3 kmh NE 14.0 mph22.5 kmh 29.72 in1006.4 mb 0.00 in0.0 mm 0.00 in0.0 mm 0.00 in0.0 mm
06:35 AM 26.7°F-2.9°C 22.2°F-5.4°C 83% 9.7 mph NE15.6 kmh NE 11.0 mph17.7 kmh 29.72 in1006.4 mb 0.00 in0.0 mm 0.00 in0.0 mm 0.00 in0.0 mm
06:36 AM 26.7°F-2.9°C 22.2°F-5.4°C 83% 10.6 mph NNE17.1 kmh NNE 12.0 mph19.3 kmh 29.72 in1006.4 mb 0.00 in0.0 mm 0.00 in0.0 mm 0.00 in0.0 mm
06:37 AM 26.7°F-2.9°C 22.2°F-5.4°C 83% 9.4 mph NNE15.1 kmh NNE 12.0 mph19.3 kmh 29.72 in1006.4 mb 0.00 in0.0 mm 0.00 in0.0 mm 0.00 in0.0 mm
06:38 AM 26.7°F-2.9°C 22.2°F-5.4°C 83% 10.5 mph NNE16.9 kmh NNE 13.0 mph20.9 kmh 29.72 in1006.4 mb 0.00 in0.0 mm 0.00 in0.0 mm 0.00 in0.0 mm
06:39 AM 26.7°F-2.9°C 22.2°F-5.4°C 83% 11.6 mph NNE18.7 kmh NNE 13.0 mph20.9 kmh 29.72 in1006.4 mb 0.00 in0.0 mm 0.00 in0.0 mm 0.00 in0.0 mm
06:40 AM 26.7°F-2.9°C 22.2°F-5.4°C 83% 9.9 mph NNE15.9 kmh NNE 13.0 mph20.9 kmh 29.72 in1006.4 mb 0.00 in0.0 mm 0.00 in0.0 mm 0.00 in0.0 mm
06:41 AM 26.7°F-2.9°C 22.2°F-5.4°C 83% 10.6 mph N17.1 kmh N 13.0 mph20.9 kmh 29.72 in1006.4 mb 0.00 in0.0 mm 0.00 in0.0 mm 0.00 in0.0 mm
06:42 AM 26.7°F-2.9°C 22.5°F-5.3°C 84% 11.3 mph N18.2 kmh N 13.0 mph20.9 kmh 29.72 in1006.4 mb 0.00 in0.0 mm 0.00 in0.0 mm 0.00 in0.0 mm
06:43 AM 26.7°F-2.9°C 22.5°F-5.3°C 84% 10.8 mph N17.4 kmh N 13.0 mph20.9 kmh 29.72 in1006.4 mb 0.00 in0.0 mm 0.00 in0.0 mm 0.00 in0.0 mm
06:44 AM 26.8°F-2.9°C 22.6°F-5.2°C 84% 12.5 mph N20.1 kmh N 14.0 mph22.5 kmh 29.72 in1006.4 mb 0.00 in0.0 mm 0.00 in0.0 mm 0.00 in0.0 mm
06:45 AM 26.8°F-2.9°C 22.6°F-5.2°C 84% 11.3 mph N18.2 kmh N 14.0 mph22.5 kmh 29.72 in1006.4 mb 0.00 in0.0 mm 0.00 in0.0 mm 0.00 in0.0 mm
06:46 AM 26.8°F-2.9°C 22.6°F-5.2°C 84% 11.2 mph N18.0 kmh N 14.0 mph22.5 kmh 29.72 in1006.4 mb 0.00 in0.0 mm 0.00 in0.0 mm 0.00 in0.0 mm
06:47 AM 26.8°F-2.9°C 22.6°F-5.2°C 84% 10.1 mph N16.3 kmh N 13.0 mph20.9 kmh 29.72 in1006.4 mb 0.00 in0.0 mm 0.00 in0.0 mm 0.00 in0.0 mm
06:48 AM 26.9°F-2.8°C 22.7°F-5.2°C 84% 10.7 mph NNE17.2 kmh NNE 12.0 mph19.3 kmh 29.72 in1006.4 mb 0.00 in0.0 mm 0.00 in0.0 mm 0.00 in0.0 mm
06:49 AM 26.9°F-2.8°C 22.7°F-5.2°C 84% 10.5 mph NNE16.9 kmh NNE 12.0 mph19.3 kmh 29.72 in1006.4 mb 0.00 in0.0 mm 0.00 in0.0 mm 0.00 in0.0 mm
06:50 AM 26.9°F-2.8°C 22.4°F-5.3°C 83% 9.6 mph NE15.4 kmh NE 12.0 mph19.3 kmh 29.72 in1006.4 mb 0.00 in0.0 mm 0.00 in0.0 mm 0.00 in0.0 mm
06:51 AM 26.9°F-2.8°C 22.4°F-5.3°C 83% 9.7 mph N15.6 kmh N 14.0 mph22.5 kmh 29.72 in1006.4 mb 0.00 in0.0 mm 0.00 in0.0 mm 0.00 in0.0 mm
06:52 AM 26.9°F-2.8°C 22.4°F-5.3°C 83% 10.6 mph N17.1 kmh N 14.0 mph22.5 kmh 29.72 in1006.4 mb 0.00 in0.0 mm 0.00 in0.0 mm 0.00 in0.0 mm
06:53 AM 26.9°F-2.8°C 22.7°F-5.2°C 84% 12.9 mph NNE20.8 kmh NNE 16.0 mph25.7 kmh 29.72 in1006.4 mb 0.00 in0.0 mm 0.00 in0.0 mm 0.00 in0.0 mm
06:54 AM 26.9°F-2.8°C 22.4°F-5.3°C 83% 12.2 mph NNE19.6 kmh NNE 16.0 mph25.7 kmh 29.72 in1006.4 mb 0.00 in0.0 mm 0.00 in0.0 mm 0.00 in0.0 mm
06:55 AM 26.9°F-2.8°C 22.4°F-5.3°C 83% 11.9 mph NE19.2 kmh NE 14.0 mph22.5 kmh 29.72 in1006.4 mb 0.00 in0.0 mm 0.00 in0.0 mm 0.00 in0.0 mm
06:56 AM 26.9°F-2.8°C 22.4°F-5.3°C 83% 9.5 mph NNE15.3 kmh NNE 14.0 mph22.5 kmh 29.72 in1006.4 mb 0.00 in0.0 mm 0.00 in0.0 mm 0.00 in0.0 mm
06:57 AM 26.9°F-2.8°C 22.4°F-5.3°C 83% 11.4 mph NNE18.3 kmh NNE 13.0 mph20.9 kmh 29.72 in1006.4 mb 0.00 in0.0 mm 0.00 in0.0 mm 0.00 in0.0 mm
06:58 AM 26.9°F-2.8°C 22.7°F-5.2°C 84% 12.5 mph NNE20.1 kmh NNE 15.0 mph24.1 kmh 29.72 in1006.4 mb 0.00 in0.0 mm 0.00 in0.0 mm 0.00 in0.0 mm
06:59 AM 26.9°F-2.8°C 22.7°F-5.2°C 84% 9.2 mph NNE14.8 kmh NNE 15.0 mph24.1 kmh 29.72 in1006.4 mb 0.00 in0.0 mm 0.00 in0.0 mm 0.00 in0.0 mm
07:00 AM 26.9°F-2.8°C 22.4°F-5.3°C 83% 8.5 mph NNE13.7 kmh NNE 12.0 mph19.3 kmh 29.72 in1006.4 mb 0.00 in0.0 mm 0.00 in0.0 mm 0.00 in0.0 mm
07:01 AM 26.9°F-2.8°C 22.4°F-5.3°C 83% 10.8 mph NNE17.4 kmh NNE 14.0 mph22.5 kmh 29.72 in1006.4 mb 0.00 in0.0 mm 0.00 in0.0 mm 0.00 in0.0 mm
07:02 AM 26.9°F-2.8°C 22.4°F-5.3°C 83% 10.5 mph N16.9 kmh N 14.0 mph22.5 kmh 29.72 in1006.4 mb 0.00 in0.0 mm 0.00 in0.0 mm 0.00 in0.0 mm
07:03 AM 26.8°F-2.9°C 22.3°F-5.4°C 83% 10.9 mph N17.5 kmh N 14.0 mph22.5 kmh 29.72 in1006.4 mb 0.00 in0.0 mm 0.00 in0.0 mm 0.00 in0.0 mm
07:04 AM 26.8°F-2.9°C 22.3°F-5.4°C 83% 11.1 mph NNE17.9 kmh NNE 13.0 mph20.9 kmh 29.72 in1006.4 mb 0.00 in0.0 mm 0.00 in0.0 mm 0.00 in0.0 mm
07:05 AM 26.8°F-2.9°C 22.3°F-5.4°C 83% 9.8 mph NNE15.8 kmh NNE 13.0 mph20.9 kmh 29.72 in1006.4 mb 0.00 in0.0 mm 0.00 in0.0 mm 0.00 in0.0 mm
07:06 AM 26.8°F-2.9°C 22.3°F-5.4°C 83% 9.8 mph N15.8 kmh N 12.0 mph19.3 kmh 29.72 in1006.4 mb 0.00 in0.0 mm 0.00 in0.0 mm 0.00 in0.0 mm
07:07 AM 26.9°F-2.8°C 22.4°F-5.3°C 83% 9.7 mph N15.6 kmh N 12.0 mph19.3 kmh 29.72 in1006.4 mb 0.00 in0.0 mm 0.00 in0.0 mm 0.00 in0.0 mm
07:08 AM 26.9°F-2.8°C 22.7°F-5.2°C 84% 8.8 mph N14.2 kmh N 12.0 mph19.3 kmh 29.72 in1006.4 mb 0.00 in0.0 mm 0.00 in0.0 mm 0.00 in0.0 mm
07:09 AM 26.9°F-2.8°C 22.7°F-5.2°C 84% 8.2 mph N13.2 kmh N 13.0 mph20.9 kmh 29.72 in1006.4 mb 0.00 in0.0 mm 0.00 in0.0 mm 0.00 in0.0 mm
07:10 AM 26.9°F-2.8°C 22.7°F-5.2°C 84% 11.2 mph N18.0 kmh N 13.0 mph20.9 kmh 29.72 in1006.4 mb 0.00 in0.0 mm 0.00 in0.0 mm 0.00 in0.0 mm
07:11 AM 26.9°F-2.8°C 22.7°F-5.2°C 84% 10.3 mph N16.6 kmh N 13.0 mph20.9 kmh 29.71 in1006.1 mb 0.00 in0.0 mm 0.00 in0.0 mm 0.00 in0.0 mm
07:12 AM 27.0°F-2.8°C 22.8°F-5.1°C 84% 11.5 mph N18.5 kmh N 13.0 mph20.9 kmh 29.72 in1006.4 mb 0.00 in0.0 mm 0.00 in0.0 mm 0.00 in0.0 mm
07:13 AM 27.0°F-2.8°C 22.8°F-5.1°C 84% 10.8 mph N17.4 kmh N 14.0 mph22.5 kmh 29.71 in1006.1 mb 0.00 in0.0 mm 0.00 in0.0 mm 0.00 in0.0 mm
07:14 AM 27.1°F-2.7°C 22.9°F-5.1°C 84% 11.4 mph N18.3 kmh N 14.0 mph22.5 kmh 29.71 in1006.1 mb 0.00 in0.0 mm 0.00 in0.0 mm 0.00 in0.0 mm
07:15 AM 27.2°F-2.7°C 23.0°F-5.0°C 84% 11.7 mph N18.8 kmh N 13.0 mph20.9 kmh 29.72 in1006.4 mb 0.00 in0.0 mm 0.00 in0.0 mm 0.00 in0.0 mm
07:16 AM 27.1°F-2.7°C 22.9°F-5.1°C 84% 11.3 mph N18.2 kmh N 13.0 mph20.9 kmh 29.71 in1006.1 mb 0.00 in0.0 mm 0.00 in0.0 mm 0.00 in0.0 mm
07:17 AM 27.1°F-2.7°C 22.9°F-5.1°C 84% 11.5 mph N18.5 kmh N 14.0 mph22.5 kmh 29.71 in1006.1 mb 0.00 in0.0 mm 0.00 in0.0 mm 0.00 in0.0 mm
07:18 AM 27.1°F-2.7°C 22.9°F-5.1°C 84% 11.5 mph N18.5 kmh N 14.0 mph22.5 kmh 29.71 in1006.1 mb 0.00 in0.0 mm 0.00 in0.0 mm 0.00 in0.0 mm
07:19 AM 27.1°F-2.7°C 22.9°F-5.1°C 84% 12.6 mph NNE20.3 kmh NNE 14.0 mph22.5 kmh 29.71 in1006.1 mb 0.00 in0.0 mm 0.00 in0.0 mm 0.00 in0.0 mm
07:20 AM 27.1°F-2.7°C 22.9°F-5.1°C 84% 10.9 mph NNE17.5 kmh NNE 14.0 mph22.5 kmh 29.71 in1006.1 mb 0.00 in0.0 mm 0.00 in0.0 mm 0.00 in0.0 mm
07:21 AM 27.1°F-2.7°C 22.9°F-5.1°C 84% 9.6 mph N15.4 kmh N 13.0 mph20.9 kmh 29.71 in1006.1 mb 0.00 in0.0 mm 0.00 in0.0 mm 0.00 in0.0 mm
07:22 AM 27.2°F-2.7°C 23.0°F-5.0°C 84% 11.8 mph N19.0 kmh N 14.0 mph22.5 kmh 29.71 in1006.1 mb 0.00 in0.0 mm 0.00 in0.0 mm 0.00 in0.0 mm
07:23 AM 27.1°F-2.7°C 22.9°F-5.1°C 84% 10.5 mph N16.9 kmh N 14.0 mph22.5 kmh 29.71 in1006.1 mb 0.00 in0.0 mm 0.00 in0.0 mm 0.00 in0.0 mm
07:24 AM 27.2°F-2.7°C 23.0°F-5.0°C 84% 11.2 mph N18.0 kmh N 15.0 mph24.1 kmh 29.71 in1006.1 mb 0.00 in0.0 mm 0.00 in0.0 mm 0.00 in0.0 mm
07:25 AM 27.3°F-2.6°C 23.1°F-4.9°C 84% 10.4 mph NNE16.7 kmh NNE 15.0 mph24.1 kmh 29.71 in1006.1 mb 0.00 in0.0 mm 0.00 in0.0 mm 0.00 in0.0 mm
07:26 AM 27.3°F-2.6°C 23.1°F-4.9°C 84% 10.0 mph NNE16.1 kmh NNE 12.0 mph19.3 kmh 29.71 in1006.1 mb 0.00 in0.0 mm 0.00 in0.0 mm 0.00 in0.0 mm
07:27 AM 27.3°F-2.6°C 23.1°F-4.9°C 84% 11.1 mph N17.9 kmh N 13.0 mph20.9 kmh 29.71 in1006.1 mb 0.00 in0.0 mm 0.00 in0.0 mm 0.00 in0.0 mm
07:28 AM 27.3°F-2.6°C 23.1°F-4.9°C 84% 10.5 mph N16.9 kmh N 13.0 mph20.9 kmh 29.71 in1006.1 mb 0.00 in0.0 mm 0.00 in0.0 mm 0.00 in0.0 mm
07:29 AM 27.4°F-2.6°C 23.2°F-4.9°C 84% 12.9 mph NNW20.8 kmh NNW 16.0 mph25.7 kmh 29.71 in1006.1 mb 0.00 in0.0 mm 0.00 in0.0 mm 0.00 in0.0 mm
07:30 AM 27.4°F-2.6°C 23.2°F-4.9°C 84% 10.9 mph N17.5 kmh N 16.0 mph25.7 kmh 29.71 in1006.1 mb 0.00 in0.0 mm 0.00 in0.0 mm 0.00 in0.0 mm
07:31 AM 27.5°F-2.5°C 23.3°F-4.8°C 84% 11.1 mph N17.9 kmh N 14.0 mph22.5 kmh 29.71 in1006.1 mb 0.00 in0.0 mm 0.00 in0.0 mm 0.00 in0.0 mm
07:32 AM 27.6°F-2.4°C 23.4°F-4.8°C 84% 10.5 mph N16.9 kmh N 13.0 mph20.9 kmh 29.71 in1006.1 mb 0.00 in0.0 mm 0.00 in0.0 mm 0.00 in0.0 mm
07:33 AM 27.6°F-2.4°C 23.4°F-4.8°C 84% 11.2 mph N18.0 kmh N 13.0 mph20.9 kmh 29.71 in1006.1 mb 0.00 in0.0 mm 0.00 in0.0 mm 0.00 in0.0 mm
07:34 AM 27.5°F-2.5°C 23.3°F-4.8°C 84% 10.1 mph N16.3 kmh N 13.0 mph20.9 kmh 29.71 in1006.1 mb 0.00 in0.0 mm 0.00 in0.0 mm 0.00 in0.0 mm
07:35 AM 27.6°F-2.4°C 23.4°F-4.8°C 84% 11.5 mph N18.5 kmh N 16.0 mph25.7 kmh 29.71 in1006.1 mb 0.00 in0.0 mm 0.00 in0.0 mm 0.00 in0.0 mm
07:36 AM 27.6°F-2.4°C 23.4°F-4.8°C 84% 12.8 mph 20.6 kmh 16.0 mph25.7 kmh 29.71 in1006.1 mb 0.00 in0.0 mm 0.00 in0.0 mm 0.00 in0.0 mm
07:37 AM 27.6°F-2.4°C 23.4°F-4.8°C 84% 11.2 mph N18.0 kmh N 15.0 mph24.1 kmh 29.71 in1006.1 mb 0.00 in0.0 mm 0.00 in0.0 mm 0.00 in0.0 mm
07:38 AM 27.5°F-2.5°C 23.3°F-4.8°C 84% 11.9 mph N19.2 kmh N 14.0 mph22.5 kmh 29.71 in1006.1 mb 0.00 in0.0 mm 0.00 in0.0 mm 0.00 in0.0 mm
07:39 AM 27.5°F-2.5°C 23.0°F-5.0°C 83% 11.6 mph N18.7 kmh N 14.0 mph22.5 kmh 29.72 in1006.4 mb 0.00 in0.0 mm 0.00 in0.0 mm 0.00 in0.0 mm
07:40 AM 27.5°F-2.5°C 23.3°F-4.8°C 84% 11.2 mph N18.0 kmh N 14.0 mph22.5 kmh 29.71 in1006.1 mb 0.00 in0.0 mm 0.00 in0.0 mm 0.00 in0.0 mm
07:41 AM 27.5°F-2.5°C 23.0°F-5.0°C 83% 10.9 mph N17.5 kmh N 14.0 mph22.5 kmh 29.71 in1006.1 mb 0.00 in0.0 mm 0.00 in0.0 mm 0.00 in0.0 mm
07:42 AM 27.6°F-2.4°C 23.4°F-4.8°C 84% 11.9 mph N19.2 kmh N 14.0 mph22.5 kmh 29.71 in1006.1 mb 0.00 in0.0 mm 0.00 in0.0 mm 0.00 in0.0 mm
07:43 AM 27.6°F-2.4°C 23.4°F-4.8°C 84% 12.2 mph NNE19.6 kmh NNE 14.0 mph22.5 kmh 29.71 in1006.1 mb 0.00 in0.0 mm 0.00 in0.0 mm 0.00 in0.0 mm
07:44 AM 27.7°F-2.4°C 23.5°F-4.7°C 84% 11.4 mph NNE18.3 kmh NNE 13.0 mph20.9 kmh 29.71 in1006.1 mb 0.00 in0.0 mm 0.00 in0.0 mm 0.00 in0.0 mm
07:45 AM 27.7°F-2.4°C 23.5°F-4.7°C 84% 10.9 mph N17.5 kmh N 13.0 mph20.9 kmh 29.71 in1006.1 mb 0.00 in0.0 mm 0.00 in0.0 mm 0.00 in0.0 mm
07:46 AM 27.7°F-2.4°C 23.5°F-4.7°C 84% 11.6 mph N18.7 kmh N 13.0 mph20.9 kmh 29.71 in1006.1 mb 0.00 in0.0 mm 0.00 in0.0 mm 0.00 in0.0 mm
07:47 AM 27.7°F-2.4°C 23.5°F-4.7°C 84% 10.5 mph NNE16.9 kmh NNE 13.0 mph20.9 kmh 29.71 in1006.1 mb 0.00 in0.0 mm 0.00 in0.0 mm 0.00 in0.0 mm
07:48 AM 27.7°F-2.4°C 23.5°F-4.7°C 84% 10.3 mph NNE16.6 kmh NNE 13.0 mph20.9 kmh 29.72 in1006.4 mb 0.00 in0.0 mm 0.00 in0.0 mm 0.00 in0.0 mm
07:49 AM 27.7°F-2.4°C 23.5°F-4.7°C 84% 9.6 mph NNE15.4 kmh NNE 13.0 mph20.9 kmh 29.72 in1006.4 mb 0.00 in0.0 mm 0.00 in0.0 mm 0.00 in0.0 mm
07:50 AM 27.6°F-2.4°C 23.4°F-4.8°C 84% 10.5 mph NNE16.9 kmh NNE 12.0 mph19.3 kmh 29.72 in1006.4 mb 0.00 in0.0 mm 0.00 in0.0 mm 0.00 in0.0 mm
07:51 AM 27.7°F-2.4°C 23.5°F-4.7°C 84% 9.9 mph NNE15.9 kmh NNE 12.0 mph19.3 kmh 29.72 in1006.4 mb 0.00 in0.0 mm 0.00 in0.0 mm 0.00 in0.0 mm
07:52 AM 27.8°F-2.3°C 23.6°F-4.7°C 84% 9.5 mph NNE15.3 kmh NNE 12.0 mph19.3 kmh 29.72 in1006.4 mb 0.00 in0.0 mm 0.00 in0.0 mm 0.00 in0.0 mm
07:53 AM 27.7°F-2.4°C 23.5°F-4.7°C 84% 10.9 mph NNE17.5 kmh NNE 12.0 mph19.3 kmh 29.72 in1006.4 mb 0.00 in0.0 mm 0.00 in0.0 mm 0.00 in0.0 mm
07:54 AM 27.6°F-2.4°C 23.4°F-4.8°C 84% 10.9 mph NNE17.5 kmh NNE 13.0 mph20.9 kmh 29.72 in1006.4 mb 0.00 in0.0 mm 0.00 in0.0 mm 0.00 in0.0 mm
07:55 AM 27.6°F-2.4°C 23.4°F-4.8°C 84% 11.5 mph NNE18.5 kmh NNE 14.0 mph22.5 kmh 29.72 in1006.4 mb 0.00 in0.0 mm 0.00 in0.0 mm 0.00 in0.0 mm
07:56 AM 27.6°F-2.4°C 23.4°F-4.8°C 84% 11.0 mph NNE17.7 kmh NNE 14.0 mph22.5 kmh 29.72 in1006.4 mb 0.00 in0.0 mm 0.00 in0.0 mm 0.00 in0.0 mm
07:57 AM 27.6°F-2.4°C 23.4°F-4.8°C 84% 10.7 mph NNE17.2 kmh NNE 13.0 mph20.9 kmh 29.72 in1006.4 mb 0.00 in0.0 mm 0.00 in0.0 mm 0.00 in0.0 mm
07:58 AM 27.6°F-2.4°C 23.4°F-4.8°C 84% 11.8 mph NNE19.0 kmh NNE 14.0 mph22.5 kmh 29.72 in1006.4 mb 0.00 in0.0 mm 0.00 in0.0 mm 0.00 in0.0 mm
07:59 AM 27.6°F-2.4°C 23.4°F-4.8°C 84% 9.8 mph NE15.8 kmh NE 14.0 mph22.5 kmh 29.72 in1006.4 mb 0.00 in0.0 mm 0.00 in0.0 mm 0.00 in0.0 mm
08:00 AM 27.5°F-2.5°C 23.3°F-4.8°C 84% 8.5 mph NE13.7 kmh NE 12.0 mph19.3 kmh 29.72 in1006.4 mb 0.00 in0.0 mm 0.00 in0.0 mm 0.00 in0.0 mm
08:01 AM 27.5°F-2.5°C 23.3°F-4.8°C 84% 7.7 mph NE12.4 kmh NE 11.0 mph17.7 kmh 29.72 in1006.4 mb 0.00 in0.0 mm 0.00 in0.0 mm 0.00 in0.0 mm
08:02 AM 27.5°F-2.5°C 23.3°F-4.8°C 84% 7.9 mph NE12.7 kmh NE 11.0 mph17.7 kmh 29.72 in1006.4 mb 0.00 in0.0 mm 0.00 in0.0 mm 0.00 in0.0 mm
08:03 AM 27.5°F-2.5°C 23.3°F-4.8°C 84% 8.9 mph NE14.3 kmh NE 12.0 mph19.3 kmh 29.72 in1006.4 mb 0.00 in0.0 mm 0.00 in0.0 mm 0.00 in0.0 mm
08:04 AM 27.5°F-2.5°C 23.3°F-4.8°C 84% 8.5 mph NE13.7 kmh NE 12.0 mph19.3 kmh 29.72 in1006.4 mb 0.00 in0.0 mm 0.00 in0.0 mm 0.00 in0.0 mm
08:05 AM 27.5°F-2.5°C 23.3°F-4.8°C 84% 9.8 mph NNE15.8 kmh NNE 12.0 mph19.3 kmh 29.72 in1006.4 mb 0.00 in0.0 mm 0.00 in0.0 mm 0.00 in0.0 mm
08:06 AM 27.5°F-2.5°C 23.3°F-4.8°C 84% 7.6 mph NNE12.2 kmh NNE 12.0 mph19.3 kmh 29.72 in1006.4 mb 0.00 in0.0 mm 0.00 in0.0 mm 0.00 in0.0 mm
08:07 AM 27.5°F-2.5°C 23.3°F-4.8°C 84% 9.4 mph NNE15.1 kmh NNE 12.0 mph19.3 kmh 29.72 in1006.4 mb 0.00 in0.0 mm 0.00 in0.0 mm 0.00 in0.0 mm
08:08 AM 27.5°F-2.5°C 23.3°F-4.8°C 84% 8.1 mph NNE13.0 kmh NNE 12.0 mph19.3 kmh 29.72 in1006.4 mb 0.00 in0.0 mm 0.00 in0.0 mm 0.00 in0.0 mm
08:09 AM 27.6°F-2.4°C 23.4°F-4.8°C 84% 4.6 mph NE7.4 kmh NE 10.0 mph16.1 kmh 29.72 in1006.4 mb 0.00 in0.0 mm 0.00 in0.0 mm 0.00 in0.0 mm
08:10 AM 27.6°F-2.4°C 23.4°F-4.8°C 84% 7.4 mph NE11.9 kmh NE 10.0 mph16.1 kmh 29.72 in1006.4 mb 0.00 in0.0 mm 0.00 in0.0 mm 0.00 in0.0 mm
08:11 AM 27.6°F-2.4°C 23.4°F-4.8°C 84% 6.9 mph NNE11.1 kmh NNE 12.0 mph19.3 kmh 29.72 in1006.4 mb 0.00 in0.0 mm 0.00 in0.0 mm 0.00 in0.0 mm
08:12 AM 27.5°F-2.5°C 23.3°F-4.8°C 84% 10.1 mph NNE16.3 kmh NNE 12.0 mph19.3 kmh 29.73 in1006.8 mb 0.00 in0.0 mm 0.00 in0.0 mm 0.00 in0.0 mm
08:13 AM 27.6°F-2.4°C 23.4°F-4.8°C 84% 9.9 mph NE15.9 kmh NE 12.0 mph19.3 kmh 29.73 in1006.8 mb 0.00 in0.0 mm 0.00 in0.0 mm 0.00 in0.0 mm
08:14 AM 27.6°F-2.4°C 23.4°F-4.8°C 84% 9.3 mph NE15.0 kmh NE 12.0 mph19.3 kmh 29.73 in1006.8 mb 0.00 in0.0 mm 0.00 in0.0 mm 0.00 in0.0 mm
08:15 AM 27.6°F-2.4°C 23.4°F-4.8°C 84% 7.0 mph NE11.3 kmh NE 12.0 mph19.3 kmh 29.73 in1006.8 mb 0.00 in0.0 mm 0.00 in0.0 mm 0.00 in0.0 mm
08:16 AM 27.5°F-2.5°C 23.3°F-4.8°C 84% 9.1 mph NNE14.6 kmh NNE 11.0 mph17.7 kmh 29.73 in1006.8 mb 0.00 in0.0 mm 0.00 in0.0 mm 0.00 in0.0 mm
08:17 AM 27.5°F-2.5°C 23.3°F-4.8°C 84% 8.2 mph NNE13.2 kmh NNE 11.0 mph17.7 kmh 29.73 in1006.8 mb 0.00 in0.0 mm 0.00 in0.0 mm 0.00 in0.0 mm
08:18 AM 27.5°F-2.5°C 23.3°F-4.8°C 84% 10.5 mph NE16.9 kmh NE 14.0 mph22.5 kmh 29.73 in1006.8 mb 0.00 in0.0 mm 0.00 in0.0 mm 0.00 in0.0 mm
08:19 AM 27.5°F-2.5°C 23.3°F-4.8°C 84% 11.7 mph NNE18.8 kmh NNE 16.0 mph25.7 kmh 29.73 in1006.8 mb 0.00 in0.0 mm 0.00 in0.0 mm 0.00 in0.0 mm
08:20 AM 27.4°F-2.6°C 23.2°F-4.9°C 84% 9.5 mph NNE15.3 kmh NNE 16.0 mph25.7 kmh 29.73 in1006.8 mb 0.00 in0.0 mm 0.00 in0.0 mm 0.00 in0.0 mm
08:21 AM 27.5°F-2.5°C 23.3°F-4.8°C 84% 9.5 mph NNE15.3 kmh NNE 13.0 mph20.9 kmh 29.73 in1006.8 mb 0.00 in0.0 mm 0.00 in0.0 mm 0.00 in0.0 mm
08:22 AM 27.5°F-2.5°C 23.3°F-4.8°C 84% 11.1 mph NE17.9 kmh NE 13.0 mph20.9 kmh 29.73 in1006.8 mb 0.00 in0.0 mm 0.00 in0.0 mm 0.00 in0.0 mm
08:23 AM 27.5°F-2.5°C 23.6°F-4.7°C 85% 10.4 mph NE16.7 kmh NE 13.0 mph20.9 kmh 29.73 in1006.8 mb 0.00 in0.0 mm 0.00 in0.0 mm 0.00 in0.0 mm
08:24 AM 27.6°F-2.4°C 23.4°F-4.8°C 84% 9.5 mph NE15.3 kmh NE 12.0 mph19.3 kmh 29.73 in1006.8 mb 0.00 in0.0 mm 0.00 in0.0 mm 0.00 in0.0 mm
08:25 AM 27.5°F-2.5°C 23.6°F-4.7°C 85% 9.6 mph NE15.4 kmh NE 12.0 mph19.3 kmh 29.73 in1006.8 mb 0.00 in0.0 mm 0.00 in0.0 mm 0.00 in0.0 mm
08:26 AM 27.6°F-2.4°C 23.7°F-4.6°C 85% 8.0 mph NE12.9 kmh NE 12.0 mph19.3 kmh 29.72 in1006.4 mb 0.00 in0.0 mm 0.00 in0.0 mm 0.00 in0.0 mm
08:27 AM 27.6°F-2.4°C 23.7°F-4.6°C 85% 7.3 mph NE11.7 kmh NE 11.0 mph17.7 kmh 29.73 in1006.8 mb 0.00 in0.0 mm 0.00 in0.0 mm 0.00 in0.0 mm
08:28 AM 27.6°F-2.4°C 23.7°F-4.6°C 85% 9.4 mph NE15.1 kmh NE 12.0 mph19.3 kmh 29.73 in1006.8 mb 0.00 in0.0 mm 0.00 in0.0 mm 0.00 in0.0 mm
08:29 AM 27.6°F-2.4°C 23.7°F-4.6°C 85% 8.3 mph NE13.4 kmh NE 12.0 mph19.3 kmh 29.73 in1006.8 mb 0.00 in0.0 mm 0.00 in0.0 mm 0.00 in0.0 mm
08:30 AM 27.6°F-2.4°C 23.7°F-4.6°C 85% 8.4 mph NNE13.5 kmh NNE 11.0 mph17.7 kmh 29.73 in1006.8 mb 0.00 in0.0 mm 0.00 in0.0 mm 0.00 in0.0 mm
08:31 AM 27.6°F-2.4°C 23.7°F-4.6°C 85% 10.6 mph NE17.1 kmh NE 12.0 mph19.3 kmh 29.73 in1006.8 mb 0.00 in0.0 mm 0.00 in0.0 mm 0.00 in0.0 mm
08:32 AM 27.7°F-2.4°C 23.8°F-4.6°C 85% 6.5 mph NE10.5 kmh NE 12.0 mph19.3 kmh 29.73 in1006.8 mb 0.00 in0.0 mm 0.00 in0.0 mm 0.00 in0.0 mm
08:33 AM 27.7°F-2.4°C 23.8°F-4.6°C 85% 6.4 mph NE10.3 kmh NE 10.0 mph16.1 kmh 29.73 in1006.8 mb 0.00 in0.0 mm 0.00 in0.0 mm 0.00 in0.0 mm
08:34 AM 27.7°F-2.4°C 23.8°F-4.6°C 85% 8.3 mph NE13.4 kmh NE 13.0 mph20.9 kmh 29.73 in1006.8 mb 0.00 in0.0 mm 0.00 in0.0 mm 0.00 in0.0 mm
08:35 AM 27.7°F-2.4°C 23.8°F-4.6°C 85% 10.2 mph NE16.4 kmh NE 13.0 mph20.9 kmh 29.73 in1006.8 mb 0.00 in0.0 mm 0.00 in0.0 mm 0.00 in0.0 mm
08:36 AM 27.7°F-2.4°C 23.8°F-4.6°C 85% 11.2 mph NE18.0 kmh NE 13.0 mph20.9 kmh 29.73 in1006.8 mb 0.00 in0.0 mm 0.00 in0.0 mm 0.00 in0.0 mm
08:37 AM 27.7°F-2.4°C 23.8°F-4.6°C 85% 10.5 mph NE16.9 kmh NE 13.0 mph20.9 kmh 29.73 in1006.8 mb 0.00 in0.0 mm 0.00 in0.0 mm 0.00 in0.0 mm
08:38 AM 27.7°F-2.4°C 23.8°F-4.6°C 85% 9.1 mph NE14.6 kmh NE 13.0 mph20.9 kmh 29.73 in1006.8 mb 0.00 in0.0 mm 0.00 in0.0 mm 0.00 in0.0 mm
08:39 AM 27.7°F-2.4°C 23.8°F-4.6°C 85% 9.1 mph NE14.6 kmh NE 11.0 mph17.7 kmh 29.73 in1006.8 mb 0.00 in0.0 mm 0.00 in0.0 mm 0.00 in0.0 mm
08:40 AM 27.7°F-2.4°C 23.8°F-4.6°C 85% 6.6 mph NE10.6 kmh NE 11.0 mph17.7 kmh 29.73 in1006.8 mb 0.00 in0.0 mm 0.00 in0.0 mm 0.00 in0.0 mm
08:41 AM 27.7°F-2.4°C 23.8°F-4.6°C 85% 6.4 mph NE10.3 kmh NE 10.0 mph16.1 kmh 29.73 in1006.8 mb 0.00 in0.0 mm 0.00 in0.0 mm 0.00 in0.0 mm
08:42 AM 27.8°F-2.3°C 23.9°F-4.5°C 85% 8.8 mph NE14.2 kmh NE 15.0 mph24.1 kmh 29.73 in1006.8 mb 0.00 in0.0 mm 0.00 in0.0 mm 0.00 in0.0 mm
08:43 AM 27.8°F-2.3°C 23.9°F-4.5°C 85% 11.8 mph NE19.0 kmh NE 15.0 mph24.1 kmh 29.73 in1006.8 mb 0.00 in0.0 mm 0.00 in0.0 mm 0.00 in0.0 mm
08:44 AM 27.8°F-2.3°C 23.9°F-4.5°C 85% 10.9 mph NE17.5 kmh NE 15.0 mph24.1 kmh 29.73 in1006.8 mb 0.00 in0.0 mm 0.00 in0.0 mm 0.00 in0.0 mm
08:45 AM 27.8°F-2.3°C 23.9°F-4.5°C 85% 7.5 mph NE12.1 kmh NE 14.0 mph22.5 kmh 29.73 in1006.8 mb 0.00 in0.0 mm 0.00 in0.0 mm 0.00 in0.0 mm
08:46 AM 27.7°F-2.4°C 23.8°F-4.6°C 85% 7.9 mph NE12.7 kmh NE 12.0 mph19.3 kmh 29.73 in1006.8 mb 0.00 in0.0 mm 0.00 in0.0 mm 0.00 in0.0 mm
08:47 AM 27.8°F-2.3°C 23.9°F-4.5°C 85% 7.8 mph NE12.6 kmh NE 12.0 mph19.3 kmh 29.73 in1006.8 mb 0.00 in0.0 mm 0.00 in0.0 mm 0.00 in0.0 mm
08:48 AM 27.8°F-2.3°C 23.9°F-4.5°C 85% 8.6 mph NE13.8 kmh NE 13.0 mph20.9 kmh 29.73 in1006.8 mb 0.00 in0.0 mm 0.00 in0.0 mm 0.00 in0.0 mm
08:49 AM 27.8°F-2.3°C 23.9°F-4.5°C 85% 11.5 mph NE18.5 kmh NE 15.0 mph24.1 kmh 29.73 in1006.8 mb 0.00 in0.0 mm 0.00 in0.0 mm 0.00 in0.0 mm
08:50 AM 27.7°F-2.4°C 23.8°F-4.6°C 85% 10.0 mph NE16.1 kmh NE 15.0 mph24.1 kmh 29.73 in1006.8 mb 0.00 in0.0 mm 0.00 in0.0 mm 0.00 in0.0 mm
08:51 AM 27.8°F-2.3°C 23.9°F-4.5°C 85% 10.5 mph NE16.9 kmh NE 14.0 mph22.5 kmh 29.73 in1006.8 mb 0.00 in0.0 mm 0.00 in0.0 mm 0.00 in0.0 mm
08:52 AM 27.8°F-2.3°C 23.9°F-4.5°C 85% 11.5 mph NE18.5 kmh NE 15.0 mph24.1 kmh 29.73 in1006.8 mb 0.00 in0.0 mm 0.00 in0.0 mm 0.00 in0.0 mm
08:53 AM 27.8°F-2.3°C 23.9°F-4.5°C 85% 12.9 mph NE20.8 kmh NE 15.0 mph24.1 kmh 29.73 in1006.8 mb 0.00 in0.0 mm 0.00 in0.0 mm 0.00 in0.0 mm
08:54 AM 27.8°F-2.3°C 23.9°F-4.5°C 85% 10.7 mph NE17.2 kmh NE 15.0 mph24.1 kmh 29.73 in1006.8 mb 0.00 in0.0 mm 0.00 in0.0 mm 0.00 in0.0 mm
08:55 AM 27.8°F-2.3°C 23.9°F-4.5°C 85% 10.0 mph NE16.1 kmh NE 14.0 mph22.5 kmh 29.73 in1006.8 mb 0.00 in0.0 mm 0.00 in0.0 mm 0.00 in0.0 mm
08:56 AM 27.8°F-2.3°C 23.9°F-4.5°C 85% 11.5 mph NE18.5 kmh NE 15.0 mph24.1 kmh 29.73 in1006.8 mb 0.00 in0.0 mm 0.00 in0.0 mm 0.00 in0.0 mm
08:57 AM 27.8°F-2.3°C 23.9°F-4.5°C 85% 9.7 mph NE15.6 kmh NE 15.0 mph24.1 kmh 29.73 in1006.8 mb 0.00 in0.0 mm 0.00 in0.0 mm 0.00 in0.0 mm
08:58 AM 27.8°F-2.3°C 23.9°F-4.5°C 85% 12.6 mph NE20.3 kmh NE 18.0 mph29.0 kmh 29.73 in1006.8 mb 0.00 in0.0 mm 0.00 in0.0 mm 0.00 in0.0 mm
08:59 AM 27.8°F-2.3°C 23.9°F-4.5°C 85% 14.4 mph NE23.2 kmh NE 19.0 mph30.6 kmh 29.73 in1006.8 mb 0.00 in0.0 mm 0.00 in0.0 mm 0.00 in0.0 mm
09:00 AM 27.8°F-2.3°C 23.9°F-4.5°C 85% 14.1 mph NE22.7 kmh NE 19.0 mph30.6 kmh 29.73 in1006.8 mb 0.00 in0.0 mm 0.00 in0.0 mm 0.00 in0.0 mm
09:01 AM 27.9°F-2.3°C 24.0°F-4.4°C 85% 11.1 mph NE17.9 kmh NE 19.0 mph30.6 kmh 29.73 in1006.8 mb 0.00 in0.0 mm 0.00 in0.0 mm 0.00 in0.0 mm
09:02 AM 27.9°F-2.3°C 24.0°F-4.4°C 85% 11.9 mph NE19.2 kmh NE 15.0 mph24.1 kmh 29.73 in1006.8 mb 0.00 in0.0 mm 0.00 in0.0 mm 0.00 in0.0 mm
09:03 AM 27.8°F-2.3°C 23.6°F-4.7°C 84% 14.0 mph NE22.5 kmh NE 18.0 mph29.0 kmh 29.73 in1006.8 mb 0.00 in0.0 mm 0.00 in0.0 mm 0.00 in0.0 mm
09:04 AM 27.8°F-2.3°C 23.6°F-4.7°C 84% 12.6 mph NE20.3 kmh NE 18.0 mph29.0 kmh 29.73 in1006.8 mb 0.00 in0.0 mm 0.00 in0.0 mm 0.00 in0.0 mm
09:05 AM 27.9°F-2.3°C 23.7°F-4.6°C 84% 11.8 mph NE19.0 kmh NE 16.0 mph25.7 kmh 29.73 in1006.8 mb 0.00 in0.0 mm 0.00 in0.0 mm 0.00 in0.0 mm
09:06 AM 27.9°F-2.3°C 24.0°F-4.4°C 85% 12.3 mph NE19.8 kmh NE 16.0 mph25.7 kmh 29.73 in1006.8 mb 0.00 in0.0 mm 0.00 in0.0 mm 0.00 in0.0 mm
09:07 AM 27.9°F-2.3°C 23.7°F-4.6°C 84% 10.4 mph NE16.7 kmh NE 15.0 mph24.1 kmh 29.73 in1006.8 mb 0.00 in0.0 mm 0.00 in0.0 mm 0.00 in0.0 mm
09:08 AM 27.9°F-2.3°C 23.7°F-4.6°C 84% 13.3 mph NE21.4 kmh NE 18.0 mph29.0 kmh 29.73 in1006.8 mb 0.00 in0.0 mm 0.00 in0.0 mm 0.00 in0.0 mm
09:09 AM 27.9°F-2.3°C 23.7°F-4.6°C 84% 13.5 mph NE21.7 kmh NE 19.0 mph30.6 kmh 29.73 in1006.8 mb 0.00 in0.0 mm 0.00 in0.0 mm 0.00 in0.0 mm
09:10 AM 27.9°F-2.3°C 23.7°F-4.6°C 84% 12.1 mph NE19.5 kmh NE 19.0 mph30.6 kmh 29.73 in1006.8 mb 0.00 in0.0 mm 0.00 in0.0 mm 0.00 in0.0 mm
09:11 AM 27.9°F-2.3°C 23.7°F-4.6°C 84% 12.7 mph NE20.4 kmh NE 18.0 mph29.0 kmh 29.73 in1006.8 mb 0.00 in0.0 mm 0.00 in0.0 mm 0.00 in0.0 mm
09:12 AM 27.9°F-2.3°C 23.7°F-4.6°C 84% 11.5 mph NE18.5 kmh NE 17.0 mph27.4 kmh 29.73 in1006.8 mb 0.00 in0.0 mm 0.00 in0.0 mm 0.00 in0.0 mm
09:13 AM 27.9°F-2.3°C 23.7°F-4.6°C 84% 14.0 mph NE22.5 kmh NE 17.0 mph27.4 kmh 29.73 in1006.8 mb 0.00 in0.0 mm 0.00 in0.0 mm 0.00 in0.0 mm
09:14 AM 27.9°F-2.3°C 23.7°F-4.6°C 84% 12.7 mph NE20.4 kmh NE 19.0 mph30.6 kmh 29.73 in1006.8 mb 0.00 in0.0 mm 0.00 in0.0 mm 0.00 in0.0 mm
09:15 AM 27.9°F-2.3°C 23.7°F-4.6°C 84% 15.2 mph NE24.5 kmh NE 19.0 mph30.6 kmh 29.73 in1006.8 mb 0.00 in0.0 mm 0.00 in0.0 mm 0.00 in0.0 mm
09:16 AM 27.9°F-2.3°C 23.7°F-4.6°C 84% 15.8 mph NE25.4 kmh NE 19.0 mph30.6 kmh 29.73 in1006.8 mb 0.00 in0.0 mm 0.00 in0.0 mm 0.00 in0.0 mm
09:17 AM 27.9°F-2.3°C 23.7°F-4.6°C 84% 12.4 mph NE20.0 kmh NE 19.0 mph30.6 kmh 29.73 in1006.8 mb 0.00 in0.0 mm 0.00 in0.0 mm 0.00 in0.0 mm
09:18 AM 27.9°F-2.3°C 23.7°F-4.6°C 84% 13.3 mph NE21.4 kmh NE 18.0 mph29.0 kmh 29.73 in1006.8 mb 0.00 in0.0 mm 0.00 in0.0 mm 0.00 in0.0 mm
09:19 AM 27.9°F-2.3°C 23.7°F-4.6°C 84% 12.0 mph NE19.3 kmh NE 18.0 mph29.0 kmh 29.74 in1007.1 mb 0.00 in0.0 mm 0.00 in0.0 mm 0.00 in0.0 mm
09:20 AM 27.9°F-2.3°C 23.7°F-4.6°C 84% 12.6 mph NE20.3 kmh NE 17.0 mph27.4 kmh 29.73 in1006.8 mb 0.00 in0.0 mm 0.00 in0.0 mm 0.00 in0.0 mm
09:21 AM 27.9°F-2.3°C 23.7°F-4.6°C 84% 15.4 mph NE24.8 kmh NE 22.0 mph35.4 kmh 29.73 in1006.8 mb 0.00 in0.0 mm 0.00 in0.0 mm 0.00 in0.0 mm
09:22 AM 27.9°F-2.3°C 23.7°F-4.6°C 84% 14.1 mph NE22.7 kmh NE 22.0 mph35.4 kmh 29.74 in1007.1 mb 0.00 in0.0 mm 0.00 in0.0 mm 0.00 in0.0 mm
09:23 AM 27.9°F-2.3°C 23.7°F-4.6°C 84% 15.6 mph NE25.1 kmh NE 22.0 mph35.4 kmh 29.74 in1007.1 mb 0.00 in0.0 mm 0.00 in0.0 mm 0.00 in0.0 mm
09:24 AM 27.9°F-2.3°C 23.7°F-4.6°C 84% 15.5 mph NE24.9 kmh NE 22.0 mph35.4 kmh 29.74 in1007.1 mb 0.00 in0.0 mm 0.00 in0.0 mm 0.00 in0.0 mm
09:25 AM 27.9°F-2.3°C 23.7°F-4.6°C 84% 9.9 mph NE15.9 kmh NE 22.0 mph35.4 kmh 29.74 in1007.1 mb 0.00 in0.0 mm 0.00 in0.0 mm 0.00 in0.0 mm
09:26 AM 27.9°F-2.3°C 23.7°F-4.6°C 84% 14.4 mph NE23.2 kmh NE 22.0 mph35.4 kmh 29.74 in1007.1 mb 0.00 in0.0 mm 0.00 in0.0 mm 0.00 in0.0 mm
09:27 AM 27.9°F-2.3°C 23.7°F-4.6°C 84% 14.1 mph NE22.7 kmh NE 22.0 mph35.4 kmh 29.74 in1007.1 mb 0.00 in0.0 mm 0.00 in0.0 mm 0.00 in0.0 mm
09:28 AM 27.9°F-2.3°C 23.7°F-4.6°C 84% 14.8 mph NE23.8 kmh NE 20.0 mph32.2 kmh 29.74 in1007.1 mb 0.00 in0.0 mm 0.00 in0.0 mm 0.00 in0.0 mm
09:29 AM 27.9°F-2.3°C 23.7°F-4.6°C 84% 12.2 mph NE19.6 kmh NE 18.0 mph29.0 kmh 29.74 in1007.1 mb 0.00 in0.0 mm 0.00 in0.0 mm 0.00 in0.0 mm
09:30 AM 27.9°F-2.3°C 23.7°F-4.6°C 84% 13.5 mph NE21.7 kmh NE 18.0 mph29.0 kmh 29.74 in1007.1 mb 0.00 in0.0 mm 0.00 in0.0 mm 0.00 in0.0 mm
09:31 AM 28.0°F-2.2°C 23.8°F-4.6°C 84% 11.7 mph NE18.8 kmh NE 18.0 mph29.0 kmh 29.74 in1007.1 mb 0.00 in0.0 mm 0.00 in0.0 mm 0.00 in0.0 mm
09:32 AM 27.9°F-2.3°C 23.7°F-4.6°C 84% 9.8 mph NE15.8 kmh NE 17.0 mph27.4 kmh 29.74 in1007.1 mb 0.00 in0.0 mm 0.00 in0.0 mm 0.00 in0.0 mm
09:33 AM 27.9°F-2.3°C 23.7°F-4.6°C 84% 10.7 mph NE17.2 kmh NE 14.0 mph22.5 kmh 29.74 in1007.1 mb 0.00 in0.0 mm 0.00 in0.0 mm 0.00 in0.0 mm
09:34 AM 27.9°F-2.3°C 23.7°F-4.6°C 84% 10.5 mph NE16.9 kmh NE 16.0 mph25.7 kmh 29.74 in1007.1 mb 0.00 in0.0 mm 0.00 in0.0 mm 0.00 in0.0 mm
09:35 AM 28.0°F-2.2°C 23.8°F-4.6°C 84% 11.8 mph NE19.0 kmh NE 17.0 mph27.4 kmh 29.74 in1007.1 mb 0.00 in0.0 mm 0.00 in0.0 mm 0.00 in0.0 mm
09:36 AM 27.9°F-2.3°C 23.7°F-4.6°C 84% 11.1 mph NE17.9 kmh NE 17.0 mph27.4 kmh 29.74 in1007.1 mb 0.00 in0.0 mm 0.00 in0.0 mm 0.00 in0.0 mm
09:37 AM 28.0°F-2.2°C 23.8°F-4.6°C 84% 14.6 mph NE23.5 kmh NE 19.0 mph30.6 kmh 29.74 in1007.1 mb 0.00 in0.0 mm 0.00 in0.0 mm 0.00 in0.0 mm
09:38 AM 28.0°F-2.2°C 23.8°F-4.6°C 84% 15.3 mph NE24.6 kmh NE 20.0 mph32.2 kmh 29.74 in1007.1 mb 0.00 in0.0 mm 0.00 in0.0 mm 0.00 in0.0 mm
09:39 AM 27.9°F-2.3°C 23.7°F-4.6°C 84% 18.3 mph NNE29.5 kmh NNE 21.0 mph33.8 kmh 29.74 in1007.1 mb 0.00 in0.0 mm 0.00 in0.0 mm 0.00 in0.0 mm
09:40 AM 27.8°F-2.3°C 23.3°F-4.8°C 83% 16.3 mph NE26.2 kmh NE 21.0 mph33.8 kmh 29.74 in1007.1 mb 0.00 in0.0 mm 0.00 in0.0 mm 0.00 in0.0 mm
09:41 AM 27.8°F-2.3°C 23.6°F-4.7°C 84% 17.0 mph NE27.4 kmh NE 19.0 mph30.6 kmh 29.74 in1007.1 mb 0.00 in0.0 mm 0.00 in0.0 mm 0.00 in0.0 mm
09:42 AM 27.8°F-2.3°C 23.6°F-4.7°C 84% 18.5 mph NE29.8 kmh NE 23.0 mph37.0 kmh 29.74 in1007.1 mb 0.00 in0.0 mm 0.00 in0.0 mm 0.00 in0.0 mm
09:43 AM 27.8°F-2.3°C 23.6°F-4.7°C 84% 16.2 mph NNE26.1 kmh NNE 23.0 mph37.0 kmh 29.74 in1007.1 mb 0.00 in0.0 mm 0.00 in0.0 mm 0.00 in0.0 mm
09:44 AM 27.8°F-2.3°C 23.6°F-4.7°C 84% 16.8 mph NNE27.0 kmh NNE 21.0 mph33.8 kmh 29.74 in1007.1 mb 0.00 in0.0 mm 0.00 in0.0 mm 0.00 in0.0 mm
09:45 AM 27.8°F-2.3°C 23.6°F-4.7°C 84% 18.8 mph NE30.3 kmh NE 22.0 mph35.4 kmh 29.74 in1007.1 mb 0.00 in0.0 mm 0.00 in0.0 mm 0.00 in0.0 mm
09:46 AM 27.8°F-2.3°C 23.6°F-4.7°C 84% 17.0 mph NE27.4 kmh NE 22.0 mph35.4 kmh 29.74 in1007.1 mb 0.00 in0.0 mm 0.00 in0.0 mm 0.00 in0.0 mm
09:47 AM 27.8°F-2.3°C 23.6°F-4.7°C 84% 15.1 mph NE24.3 kmh NE 20.0 mph32.2 kmh 29.74 in1007.1 mb 0.00 in0.0 mm 0.00 in0.0 mm 0.00 in0.0 mm
09:48 AM 27.8°F-2.3°C 23.6°F-4.7°C 84% 15.2 mph NE24.5 kmh NE 18.0 mph29.0 kmh 29.74 in1007.1 mb 0.00 in0.0 mm 0.00 in0.0 mm 0.00 in0.0 mm
09:49 AM 27.7°F-2.4°C 23.5°F-4.7°C 84% 12.6 mph NE20.3 kmh NE 17.0 mph27.4 kmh 29.74 in1007.1 mb 0.00 in0.0 mm 0.00 in0.0 mm 0.00 in0.0 mm
09:50 AM 27.7°F-2.4°C 23.5°F-4.7°C 84% 13.6 mph NE21.9 kmh NE 19.0 mph30.6 kmh 29.74 in1007.1 mb 0.00 in0.0 mm 0.00 in0.0 mm 0.00 in0.0 mm
09:51 AM 27.7°F-2.4°C 23.5°F-4.7°C 84% 12.5 mph NE20.1 kmh NE 19.0 mph30.6 kmh 29.74 in1007.1 mb 0.00 in0.0 mm 0.00 in0.0 mm 0.00 in0.0 mm
09:52 AM 27.7°F-2.4°C 23.5°F-4.7°C 84% 12.1 mph NE19.5 kmh NE 19.0 mph30.6 kmh 29.74 in1007.1 mb 0.00 in0.0 mm 0.00 in0.0 mm 0.00 in0.0 mm
09:53 AM 27.6°F-2.4°C 23.4°F-4.8°C 84% 14.6 mph NE23.5 kmh NE 19.0 mph30.6 kmh 29.74 in1007.1 mb 0.00 in0.0 mm 0.00 in0.0 mm 0.00 in0.0 mm
09:54 AM 27.6°F-2.4°C 23.4°F-4.8°C 84% 14.2 mph NE22.9 kmh NE 19.0 mph30.6 kmh 29.74 in1007.1 mb 0.00 in0.0 mm 0.00 in0.0 mm 0.00 in0.0 mm
09:55 AM 27.6°F-2.4°C 23.4°F-4.8°C 84% 12.5 mph NE20.1 kmh NE 17.0 mph27.4 kmh 29.74 in1007.1 mb 0.00 in0.0 mm 0.00 in0.0 mm 0.00 in0.0 mm
09:56 AM 27.5°F-2.5°C 23.3°F-4.8°C 84% 12.6 mph NE20.3 kmh NE 17.0 mph27.4 kmh 29.74 in1007.1 mb 0.00 in0.0 mm 0.00 in0.0 mm 0.00 in0.0 mm
09:57 AM 27.5°F-2.5°C 23.3°F-4.8°C 84% 11.6 mph NE18.7 kmh NE 16.0 mph25.7 kmh 29.74 in1007.1 mb 0.00 in0.0 mm 0.00 in0.0 mm 0.00 in0.0 mm
09:58 AM 27.4°F-2.6°C 23.2°F-4.9°C 84% 14.3 mph NE23.0 kmh NE 18.0 mph29.0 kmh 29.74 in1007.1 mb 0.00 in0.0 mm 0.00 in0.0 mm 0.00 in0.0 mm
09:59 AM 27.4°F-2.6°C 22.9°F-5.1°C 83% 14.9 mph NE24.0 kmh NE 18.0 mph29.0 kmh 29.74 in1007.1 mb 0.00 in0.0 mm 0.00 in0.0 mm 0.00 in0.0 mm
10:00 AM 27.3°F-2.6°C 23.1°F-4.9°C 84% 11.9 mph NE19.2 kmh NE 18.0 mph29.0 kmh 29.75 in1007.5 mb 0.00 in0.0 mm 0.00 in0.0 mm 0.00 in0.0 mm
10:01 AM 27.3°F-2.6°C 22.8°F-5.1°C 83% 12.7 mph NE20.4 kmh NE 17.0 mph27.4 kmh 29.74 in1007.1 mb 0.00 in0.0 mm 0.00 in0.0 mm 0.00 in0.0 mm
10:02 AM 27.2°F-2.7°C 22.7°F-5.2°C 83% 13.6 mph NE21.9 kmh NE 18.0 mph29.0 kmh 29.75 in1007.5 mb 0.00 in0.0 mm 0.00 in0.0 mm 0.00 in0.0 mm
10:03 AM 27.2°F-2.7°C 22.7°F-5.2°C 83% 12.8 mph NE20.6 kmh NE 18.0 mph29.0 kmh 29.74 in1007.1 mb 0.00 in0.0 mm 0.00 in0.0 mm 0.00 in0.0 mm
10:04 AM 27.2°F-2.7°C 22.7°F-5.2°C 83% 15.4 mph NE24.8 kmh NE 20.0 mph32.2 kmh 29.74 in1007.1 mb 0.00 in0.0 mm 0.00 in0.0 mm 0.00 in0.0 mm
10:05 AM 27.1°F-2.7°C 22.6°F-5.2°C 83% 16.7 mph NE26.9 kmh NE 22.0 mph35.4 kmh 29.74 in1007.1 mb 0.00 in0.0 mm 0.00 in0.0 mm 0.00 in0.0 mm
10:06 AM 27.1°F-2.7°C 22.6°F-5.2°C 83% 13.3 mph NE21.4 kmh NE 22.0 mph35.4 kmh 29.74 in1007.1 mb 0.00 in0.0 mm 0.00 in0.0 mm 0.00 in0.0 mm
10:07 AM 27.0°F-2.8°C 22.8°F-5.1°C 84% 12.9 mph NE20.8 kmh NE 18.0 mph29.0 kmh 29.74 in1007.1 mb 0.00 in0.0 mm 0.00 in0.0 mm 0.00 in0.0 mm
10:08 AM 27.0°F-2.8°C 22.8°F-5.1°C 84% 12.5 mph NE20.1 kmh NE 16.0 mph25.7 kmh 29.74 in1007.1 mb 0.00 in0.0 mm 0.00 in0.0 mm 0.00 in0.0 mm
10:09 AM 27.0°F-2.8°C 22.8°F-5.1°C 84% 11.4 mph NE18.3 kmh NE 16.0 mph25.7 kmh 29.74 in1007.1 mb 0.00 in0.0 mm 0.00 in0.0 mm 0.00 in0.0 mm
10:10 AM 27.0°F-2.8°C 22.8°F-5.1°C 84% 13.4 mph NE21.6 kmh NE 16.0 mph25.7 kmh 29.74 in1007.1 mb 0.00 in0.0 mm 0.00 in0.0 mm 0.00 in0.0 mm
10:11 AM 27.0°F-2.8°C 22.8°F-5.1°C 84% 11.4 mph NE18.3 kmh NE 17.0 mph27.4 kmh 29.74 in1007.1 mb 0.00 in0.0 mm 0.00 in0.0 mm 0.00 in0.0 mm
10:12 AM 27.0°F-2.8°C 22.8°F-5.1°C 84% 11.1 mph NE17.9 kmh NE 17.0 mph27.4 kmh 29.74 in1007.1 mb 0.00 in0.0 mm 0.00 in0.0 mm 0.00 in0.0 mm
10:13 AM 27.0°F-2.8°C 22.8°F-5.1°C 84% 12.3 mph NE19.8 kmh NE 17.0 mph27.4 kmh 29.74 in1007.1 mb 0.00 in0.0 mm 0.00 in0.0 mm 0.00 in0.0 mm
10:14 AM 27.0°F-2.8°C 22.8°F-5.1°C 84% 13.1 mph NE21.1 kmh NE 18.0 mph29.0 kmh 29.74 in1007.1 mb 0.00 in0.0 mm 0.00 in0.0 mm 0.00 in0.0 mm
10:15 AM 27.0°F-2.8°C 22.8°F-5.1°C 84% 8.6 mph NE13.8 kmh NE 18.0 mph29.0 kmh 29.75 in1007.5 mb 0.00 in0.0 mm 0.00 in0.0 mm 0.00 in0.0 mm
10:16 AM 27.0°F-2.8°C 22.8°F-5.1°C 84% 10.1 mph NE16.3 kmh NE 14.0 mph22.5 kmh 29.75 in1007.5 mb 0.00 in0.0 mm 0.00 in0.0 mm 0.00 in0.0 mm
10:17 AM 27.0°F-2.8°C 22.8°F-5.1°C 84% 10.8 mph NE17.4 kmh NE 14.0 mph22.5 kmh 29.75 in1007.5 mb 0.00 in0.0 mm 0.00 in0.0 mm 0.00 in0.0 mm
10:18 AM 27.0°F-2.8°C 22.8°F-5.1°C 84% 9.3 mph NE15.0 kmh NE 14.0 mph22.5 kmh 29.75 in1007.5 mb 0.00 in0.0 mm 0.00 in0.0 mm 0.00 in0.0 mm
10:19 AM 27.0°F-2.8°C 22.8°F-5.1°C 84% 10.9 mph NE17.5 kmh NE 16.0 mph25.7 kmh 29.75 in1007.5 mb 0.00 in0.0 mm 0.00 in0.0 mm 0.00 in0.0 mm
10:20 AM 27.0°F-2.8°C 22.8°F-5.1°C 84% 11.2 mph NE18.0 kmh NE 16.0 mph25.7 kmh 29.75 in1007.5 mb 0.00 in0.0 mm 0.00 in0.0 mm 0.00 in0.0 mm
10:21 AM 27.0°F-2.8°C 22.8°F-5.1°C 84% 11.5 mph NE18.5 kmh NE 14.0 mph22.5 kmh 29.75 in1007.5 mb 0.00 in0.0 mm 0.00 in0.0 mm 0.00 in0.0 mm
10:22 AM 27.0°F-2.8°C 22.8°F-5.1°C 84% 9.5 mph NE15.3 kmh NE 16.0 mph25.7 kmh 29.75 in1007.5 mb 0.00 in0.0 mm 0.00 in0.0 mm 0.00 in0.0 mm
10:23 AM 27.0°F-2.8°C 22.8°F-5.1°C 84% 11.4 mph NE18.3 kmh NE 16.0 mph25.7 kmh 29.75 in1007.5 mb 0.00 in0.0 mm 0.00 in0.0 mm 0.00 in0.0 mm
10:24 AM 27.0°F-2.8°C 22.8°F-5.1°C 84% 12.1 mph NE19.5 kmh NE 16.0 mph25.7 kmh 29.75 in1007.5 mb 0.00 in0.0 mm 0.00 in0.0 mm 0.00 in0.0 mm
10:25 AM 27.0°F-2.8°C 22.8°F-5.1°C 84% 10.2 mph NE16.4 kmh NE 16.0 mph25.7 kmh 29.75 in1007.5 mb 0.00 in0.0 mm 0.00 in0.0 mm 0.00 in0.0 mm
10:26 AM 27.0°F-2.8°C 22.8°F-5.1°C 84% 11.4 mph NE18.3 kmh NE 15.0 mph24.1 kmh 29.75 in1007.5 mb 0.00 in0.0 mm 0.00 in0.0 mm 0.00 in0.0 mm
10:27 AM 26.9°F-2.8°C 22.7°F-5.2°C 84% 12.5 mph NE20.1 kmh NE 18.0 mph29.0 kmh 29.75 in1007.5 mb 0.00 in0.0 mm 0.00 in0.0 mm 0.00 in0.0 mm
10:28 AM 26.9°F-2.8°C 22.7°F-5.2°C 84% 16.5 mph NE26.6 kmh NE 24.0 mph38.6 kmh 29.75 in1007.5 mb 0.00 in0.0 mm 0.00 in0.0 mm 0.00 in0.0 mm
10:29 AM 26.9°F-2.8°C 22.7°F-5.2°C 84% 14.1 mph NE22.7 kmh NE 24.0 mph38.6 kmh 29.75 in1007.5 mb 0.00 in0.0 mm 0.00 in0.0 mm 0.00 in0.0 mm
10:30 AM 26.9°F-2.8°C 22.7°F-5.2°C 84% 13.3 mph NE21.4 kmh NE 20.0 mph32.2 kmh 29.75 in1007.5 mb 0.00 in0.0 mm 0.00 in0.0 mm 0.00 in0.0 mm
10:31 AM 26.9°F-2.8°C 22.7°F-5.2°C 84% 13.8 mph NE22.2 kmh NE 20.0 mph32.2 kmh 29.75 in1007.5 mb 0.00 in0.0 mm 0.00 in0.0 mm 0.00 in0.0 mm
10:32 AM 26.9°F-2.8°C 22.7°F-5.2°C 84% 14.5 mph NE23.3 kmh NE 20.0 mph32.2 kmh 29.75 in1007.5 mb 0.00 in0.0 mm 0.00 in0.0 mm 0.00 in0.0 mm
10:33 AM 27.0°F-2.8°C 22.8°F-5.1°C 84% 10.7 mph NE17.2 kmh NE 19.0 mph30.6 kmh 29.75 in1007.5 mb 0.00 in0.0 mm 0.00 in0.0 mm 0.00 in0.0 mm
10:34 AM 27.0°F-2.8°C 22.8°F-5.1°C 84% 8.2 mph NE13.2 kmh NE 14.0 mph22.5 kmh 29.75 in1007.5 mb 0.00 in0.0 mm 0.00 in0.0 mm 0.00 in0.0 mm
10:35 AM 27.0°F-2.8°C 22.8°F-5.1°C 84% 13.6 mph NE21.9 kmh NE 17.0 mph27.4 kmh 29.75 in1007.5 mb 0.00 in0.0 mm 0.00 in0.0 mm 0.00 in0.0 mm
10:36 AM 26.9°F-2.8°C 22.7°F-5.2°C 84% 15.9 mph NE25.6 kmh NE 19.0 mph30.6 kmh 29.75 in1007.5 mb 0.00 in0.0 mm 0.00 in0.0 mm 0.00 in0.0 mm
10:37 AM 26.9°F-2.8°C 22.4°F-5.3°C 83% 11.3 mph NE18.2 kmh NE 19.0 mph30.6 kmh 29.75 in1007.5 mb 0.00 in0.0 mm 0.00 in0.0 mm 0.00 in0.0 mm
10:38 AM 26.9°F-2.8°C 22.4°F-5.3°C 83% 12.3 mph NE19.8 kmh NE 16.0 mph25.7 kmh 29.75 in1007.5 mb 0.00 in0.0 mm 0.00 in0.0 mm 0.00 in0.0 mm
10:39 AM 26.9°F-2.8°C 22.7°F-5.2°C 84% 13.8 mph NE22.2 kmh NE 18.0 mph29.0 kmh 29.75 in1007.5 mb 0.00 in0.0 mm 0.00 in0.0 mm 0.00 in0.0 mm
10:40 AM 26.9°F-2.8°C 22.7°F-5.2°C 84% 12.2 mph NE19.6 kmh NE 18.0 mph29.0 kmh 29.75 in1007.5 mb 0.00 in0.0 mm 0.00 in0.0 mm 0.00 in0.0 mm
10:41 AM 27.0°F-2.8°C 22.8°F-5.1°C 84% 14.1 mph NNE22.7 kmh NNE 18.0 mph29.0 kmh 29.75 in1007.5 mb 0.00 in0.0 mm 0.00 in0.0 mm 0.00 in0.0 mm
10:42 AM 27.0°F-2.8°C 22.8°F-5.1°C 84% 15.7 mph NE25.3 kmh NE 18.0 mph29.0 kmh 29.75 in1007.5 mb 0.00 in0.0 mm 0.00 in0.0 mm 0.00 in0.0 mm
10:43 AM 27.1°F-2.7°C 22.9°F-5.1°C 84% 13.3 mph NNE21.4 kmh NNE 17.0 mph27.4 kmh 29.75 in1007.5 mb 0.00 in0.0 mm 0.00 in0.0 mm 0.00 in0.0 mm
10:44 AM 27.1°F-2.7°C 22.9°F-5.1°C 84% 13.2 mph NE21.2 kmh NE 16.0 mph25.7 kmh 29.75 in1007.5 mb 0.00 in0.0 mm 0.00 in0.0 mm 0.00 in0.0 mm
10:45 AM 27.1°F-2.7°C 22.9°F-5.1°C 84% 16.3 mph NNE26.2 kmh NNE 19.0 mph30.6 kmh 29.75 in1007.5 mb 0.00 in0.0 mm 0.00 in0.0 mm 0.00 in0.0 mm
10:46 AM 27.2°F-2.7°C 23.0°F-5.0°C 84% 16.5 mph NNE26.6 kmh NNE 19.0 mph30.6 kmh 29.75 in1007.5 mb 0.00 in0.0 mm 0.00 in0.0 mm 0.00 in0.0 mm
10:47 AM 27.3°F-2.6°C 23.1°F-4.9°C 84% 12.0 mph NE19.3 kmh NE 19.0 mph30.6 kmh 29.75 in1007.5 mb 0.00 in0.0 mm 0.00 in0.0 mm 0.00 in0.0 mm
10:48 AM 27.3°F-2.6°C 23.1°F-4.9°C 84% 14.8 mph NE23.8 kmh NE 20.0 mph32.2 kmh 29.75 in1007.5 mb 0.00 in0.0 mm 0.00 in0.0 mm 0.00 in0.0 mm
10:49 AM 27.3°F-2.6°C 22.8°F-5.1°C 83% 15.1 mph NE24.3 kmh NE 20.0 mph32.2 kmh 29.75 in1007.5 mb 0.00 in0.0 mm 0.00 in0.0 mm 0.00 in0.0 mm
10:50 AM 27.2°F-2.7°C 22.7°F-5.2°C 83% 13.4 mph NE21.6 kmh NE 18.0 mph29.0 kmh 29.75 in1007.5 mb 0.00 in0.0 mm 0.00 in0.0 mm 0.00 in0.0 mm
10:51 AM 27.2°F-2.7°C 22.7°F-5.2°C 83% 14.8 mph NE23.8 kmh NE 20.0 mph32.2 kmh 29.75 in1007.5 mb 0.00 in0.0 mm 0.00 in0.0 mm 0.00 in0.0 mm
10:52 AM 27.2°F-2.7°C 22.7°F-5.2°C 83% 14.0 mph NE22.5 kmh NE 20.0 mph32.2 kmh 29.75 in1007.5 mb 0.00 in0.0 mm 0.00 in0.0 mm 0.00 in0.0 mm
10:53 AM 27.2°F-2.7°C 22.7°F-5.2°C 83% 14.8 mph NNE23.8 kmh NNE 17.0 mph27.4 kmh 29.75 in1007.5 mb 0.00 in0.0 mm 0.00 in0.0 mm 0.00 in0.0 mm
10:54 AM 27.3°F-2.6°C 22.8°F-5.1°C 83% 13.5 mph NE21.7 kmh NE 18.0 mph29.0 kmh 29.75 in1007.5 mb 0.00 in0.0 mm 0.00 in0.0 mm 0.00 in0.0 mm
10:55 AM 27.3°F-2.6°C 22.8°F-5.1°C 83% 11.4 mph NE18.3 kmh NE 18.0 mph29.0 kmh 29.75 in1007.5 mb 0.00 in0.0 mm 0.00 in0.0 mm 0.00 in0.0 mm
10:56 AM 27.3°F-2.6°C 22.8°F-5.1°C 83% 10.8 mph NNE17.4 kmh NNE 15.0 mph24.1 kmh 29.75 in1007.5 mb 0.00 in0.0 mm 0.00 in0.0 mm 0.00 in0.0 mm
10:57 AM 27.4°F-2.6°C 23.2°F-4.9°C 84% 16.1 mph NNE25.9 kmh NNE 19.0 mph30.6 kmh 29.75 in1007.5 mb 0.00 in0.0 mm 0.00 in0.0 mm 0.00 in0.0 mm
10:58 AM 27.4°F-2.6°C 23.2°F-4.9°C 84% 13.3 mph NE21.4 kmh NE 19.0 mph30.6 kmh 29.75 in1007.5 mb 0.00 in0.0 mm 0.00 in0.0 mm 0.00 in0.0 mm
10:59 AM 27.4°F-2.6°C 23.2°F-4.9°C 84% 12.0 mph NE19.3 kmh NE 16.0 mph25.7 kmh 29.75 in1007.5 mb 0.00 in0.0 mm 0.00 in0.0 mm 0.00 in0.0 mm
11:00 AM 27.4°F-2.6°C 23.2°F-4.9°C 84% 10.1 mph NE16.3 kmh NE 14.0 mph22.5 kmh 29.75 in1007.5 mb 0.00 in0.0 mm 0.00 in0.0 mm 0.00 in0.0 mm
11:01 AM 27.4°F-2.6°C 23.2°F-4.9°C 84% 9.9 mph NE15.9 kmh NE 14.0 mph22.5 kmh 29.75 in1007.5 mb 0.00 in0.0 mm 0.00 in0.0 mm 0.00 in0.0 mm
11:02 AM 27.4°F-2.6°C 23.2°F-4.9°C 84% 9.6 mph NE15.4 kmh NE 14.0 mph22.5 kmh 29.75 in1007.5 mb 0.00 in0.0 mm 0.00 in0.0 mm 0.00 in0.0 mm
11:03 AM 27.4°F-2.6°C 23.2°F-4.9°C 84% 10.4 mph NE16.7 kmh NE 14.0 mph22.5 kmh 29.75 in1007.5 mb 0.00 in0.0 mm 0.00 in0.0 mm 0.00 in0.0 mm
11:04 AM 27.4°F-2.6°C 23.2°F-4.9°C 84% 12.5 mph NE20.1 kmh NE 15.0 mph24.1 kmh 29.75 in1007.5 mb 0.00 in0.0 mm 0.00 in0.0 mm 0.00 in0.0 mm
11:05 AM 27.5°F-2.5°C 23.3°F-4.8°C 84% 9.4 mph NE15.1 kmh NE 15.0 mph24.1 kmh 29.75 in1007.5 mb 0.00 in0.0 mm 0.00 in0.0 mm 0.00 in0.0 mm
11:06 AM 27.5°F-2.5°C 23.3°F-4.8°C 84% 7.3 mph NE11.7 kmh NE 12.0 mph19.3 kmh 29.75 in1007.5 mb 0.00 in0.0 mm 0.00 in0.0 mm 0.00 in0.0 mm
11:07 AM 27.5°F-2.5°C 23.3°F-4.8°C 84% 8.9 mph NE14.3 kmh NE 12.0 mph19.3 kmh 29.75 in1007.5 mb 0.00 in0.0 mm 0.00 in0.0 mm 0.00 in0.0 mm
11:08 AM 27.6°F-2.4°C 23.4°F-4.8°C 84% 15.0 mph NE24.1 kmh NE 19.0 mph30.6 kmh 29.75 in1007.5 mb 0.00 in0.0 mm 0.00 in0.0 mm 0.00 in0.0 mm
11:09 AM 27.6°F-2.4°C 23.4°F-4.8°C 84% 13.7 mph NE22.0 kmh NE 19.0 mph30.6 kmh 29.75 in1007.5 mb 0.00 in0.0 mm 0.00 in0.0 mm 0.00 in0.0 mm
11:10 AM 27.6°F-2.4°C 23.1°F-4.9°C 83% 13.5 mph NE21.7 kmh NE 19.0 mph30.6 kmh 29.75 in1007.5 mb 0.00 in0.0 mm 0.00 in0.0 mm 0.00 in0.0 mm
11:11 AM 27.5°F-2.5°C 23.0°F-5.0°C 83% 12.5 mph NE20.1 kmh NE 17.0 mph27.4 kmh 29.75 in1007.5 mb 0.00 in0.0 mm 0.00 in0.0 mm 0.00 in0.0 mm
11:12 AM 27.5°F-2.5°C 23.0°F-5.0°C 83% 10.4 mph NE16.7 kmh NE 16.0 mph25.7 kmh 29.75 in1007.5 mb 0.00 in0.0 mm 0.00 in0.0 mm 0.00 in0.0 mm
11:13 AM 27.5°F-2.5°C 23.0°F-5.0°C 83% 12.0 mph NE19.3 kmh NE 16.0 mph25.7 kmh 29.75 in1007.5 mb 0.00 in0.0 mm 0.00 in0.0 mm 0.00 in0.0 mm
11:14 AM 27.5°F-2.5°C 23.0°F-5.0°C 83% 11.2 mph NE18.0 kmh NE 16.0 mph25.7 kmh 29.75 in1007.5 mb 0.00 in0.0 mm 0.00 in0.0 mm 0.00 in0.0 mm
11:15 AM 27.5°F-2.5°C 23.0°F-5.0°C 83% 10.0 mph NE16.1 kmh NE 17.0 mph27.4 kmh 29.75 in1007.5 mb 0.00 in0.0 mm 0.00 in0.0 mm 0.00 in0.0 mm
11:16 AM 27.5°F-2.5°C 23.0°F-5.0°C 83% 10.2 mph NE16.4 kmh NE 17.0 mph27.4 kmh 29.75 in1007.5 mb 0.00 in0.0 mm 0.00 in0.0 mm 0.00 in0.0 mm
11:17 AM 27.5°F-2.5°C 23.0°F-5.0°C 83% 11.4 mph NE18.3 kmh NE 16.0 mph25.7 kmh 29.75 in1007.5 mb 0.00 in0.0 mm 0.00 in0.0 mm 0.00 in0.0 mm
11:18 AM 27.5°F-2.5°C 23.0°F-5.0°C 83% 12.5 mph NE20.1 kmh NE 16.0 mph25.7 kmh 29.75 in1007.5 mb 0.00 in0.0 mm 0.00 in0.0 mm 0.00 in0.0 mm
11:19 AM 27.6°F-2.4°C 23.1°F-4.9°C 83% 13.6 mph NE21.9 kmh NE 20.0 mph32.2 kmh 29.75 in1007.5 mb 0.00 in0.0 mm 0.00 in0.0 mm 0.00 in0.0 mm
11:20 AM 27.6°F-2.4°C 23.1°F-4.9°C 83% 14.8 mph NE23.8 kmh NE 20.0 mph32.2 kmh 29.75 in1007.5 mb 0.00 in0.0 mm 0.00 in0.0 mm 0.00 in0.0 mm
11:21 AM 27.5°F-2.5°C 23.0°F-5.0°C 83% 9.9 mph NE15.9 kmh NE 17.0 mph27.4 kmh 29.75 in1007.5 mb 0.00 in0.0 mm 0.00 in0.0 mm 0.00 in0.0 mm
11:22 AM 27.5°F-2.5°C 23.0°F-5.0°C 83% 10.4 mph NE16.7 kmh NE 17.0 mph27.4 kmh 29.75 in1007.5 mb 0.00 in0.0 mm 0.00 in0.0 mm 0.00 in0.0 mm
11:23 AM 27.5°F-2.5°C 23.0°F-5.0°C 83% 15.1 mph NE24.3 kmh NE 19.0 mph30.6 kmh 29.75 in1007.5 mb 0.00 in0.0 mm 0.00 in0.0 mm 0.00 in0.0 mm
11:24 AM 27.5°F-2.5°C 23.0°F-5.0°C 83% 13.7 mph NE22.0 kmh NE 19.0 mph30.6 kmh 29.75 in1007.5 mb 0.00 in0.0 mm 0.00 in0.0 mm 0.00 in0.0 mm
11:25 AM 27.5°F-2.5°C 23.0°F-5.0°C 83% 11.5 mph NE18.5 kmh NE 16.0 mph25.7 kmh 29.75 in1007.5 mb 0.00 in0.0 mm 0.00 in0.0 mm 0.00 in0.0 mm
11:26 AM 27.5°F-2.5°C 23.0°F-5.0°C 83% 14.1 mph NE22.7 kmh NE 18.0 mph29.0 kmh 29.75 in1007.5 mb 0.00 in0.0 mm 0.00 in0.0 mm 0.00 in0.0 mm
11:27 AM 27.5°F-2.5°C 22.7°F-5.2°C 82% 12.9 mph NE20.8 kmh NE 18.0 mph29.0 kmh 29.75 in1007.5 mb 0.00 in0.0 mm 0.00 in0.0 mm 0.00 in0.0 mm
11:28 AM 27.5°F-2.5°C 23.0°F-5.0°C 83% 13.5 mph NE21.7 kmh NE 17.0 mph27.4 kmh 29.75 in1007.5 mb 0.00 in0.0 mm 0.00 in0.0 mm 0.00 in0.0 mm
11:29 AM 27.6°F-2.4°C 23.1°F-4.9°C 83% 12.8 mph NE20.6 kmh NE 16.0 mph25.7 kmh 29.75 in1007.5 mb 0.00 in0.0 mm 0.00 in0.0 mm 0.00 in0.0 mm
11:30 AM 27.6°F-2.4°C 23.1°F-4.9°C 83% 11.2 mph NE18.0 kmh NE 15.0 mph24.1 kmh 29.75 in1007.5 mb 0.00 in0.0 mm 0.00 in0.0 mm 0.00 in0.0 mm
11:31 AM 27.6°F-2.4°C 23.1°F-4.9°C 83% 9.9 mph NE15.9 kmh NE 14.0 mph22.5 kmh 29.75 in1007.5 mb 0.00 in0.0 mm 0.00 in0.0 mm 0.00 in0.0 mm
11:32 AM 27.6°F-2.4°C 23.1°F-4.9°C 83% 11.6 mph NE18.7 kmh NE 15.0 mph24.1 kmh 29.75 in1007.5 mb 0.00 in0.0 mm 0.00 in0.0 mm 0.00 in0.0 mm
11:33 AM 27.6°F-2.4°C 23.1°F-4.9°C 83% 12.5 mph NE20.1 kmh NE 15.0 mph24.1 kmh 29.75 in1007.5 mb 0.00 in0.0 mm 0.00 in0.0 mm 0.00 in0.0 mm
11:34 AM 27.6°F-2.4°C 23.1°F-4.9°C 83% 9.5 mph NE15.3 kmh NE 15.0 mph24.1 kmh 29.75 in1007.5 mb 0.00 in0.0 mm 0.00 in0.0 mm 0.00 in0.0 mm
11:35 AM 27.6°F-2.4°C 23.1°F-4.9°C 83% 13.7 mph NE22.0 kmh NE 16.0 mph25.7 kmh 29.75 in1007.5 mb 0.00 in0.0 mm 0.00 in0.0 mm 0.00 in0.0 mm
11:36 AM 27.7°F-2.4°C 23.2°F-4.9°C 83% 12.0 mph NE19.3 kmh NE 16.0 mph25.7 kmh 29.74 in1007.1 mb 0.00 in0.0 mm 0.00 in0.0 mm 0.00 in0.0 mm
11:37 AM 27.7°F-2.4°C 23.5°F-4.7°C 84% 9.6 mph NE15.4 kmh NE 16.0 mph25.7 kmh 29.74 in1007.1 mb 0.00 in0.0 mm 0.00 in0.0 mm 0.00 in0.0 mm
11:38 AM 27.7°F-2.4°C 23.2°F-4.9°C 83% 14.0 mph NE22.5 kmh NE 18.0 mph29.0 kmh 29.75 in1007.5 mb 0.00 in0.0 mm 0.00 in0.0 mm 0.00 in0.0 mm
11:39 AM 27.6°F-2.4°C 23.1°F-4.9°C 83% 14.0 mph NE22.5 kmh NE 19.0 mph30.6 kmh 29.75 in1007.5 mb 0.00 in0.0 mm 0.00 in0.0 mm 0.00 in0.0 mm
11:40 AM 27.7°F-2.4°C 23.2°F-4.9°C 83% 15.0 mph NE24.1 kmh NE 19.0 mph30.6 kmh 29.75 in1007.5 mb 0.00 in0.0 mm 0.00 in0.0 mm 0.00 in0.0 mm
11:41 AM 27.7°F-2.4°C 23.2°F-4.9°C 83% 17.5 mph NNE28.2 kmh NNE 22.0 mph35.4 kmh 29.75 in1007.5 mb 0.00 in0.0 mm 0.00 in0.0 mm 0.00 in0.0 mm
11:42 AM 27.7°F-2.4°C 23.5°F-4.7°C 84% 15.3 mph NNE24.6 kmh NNE 22.0 mph35.4 kmh 29.75 in1007.5 mb 0.00 in0.0 mm 0.00 in0.0 mm 0.00 in0.0 mm
11:43 AM 27.7°F-2.4°C 23.2°F-4.9°C 83% 15.1 mph NE24.3 kmh NE 20.0 mph32.2 kmh 29.75 in1007.5 mb 0.00 in0.0 mm 0.00 in0.0 mm 0.00 in0.0 mm
11:44 AM 27.7°F-2.4°C 23.2°F-4.9°C 83% 16.1 mph NNE25.9 kmh NNE 20.0 mph32.2 kmh 29.75 in1007.5 mb 0.00 in0.0 mm 0.00 in0.0 mm 0.00 in0.0 mm
11:45 AM 27.7°F-2.4°C 23.2°F-4.9°C 83% 16.5 mph NNE26.6 kmh NNE 20.0 mph32.2 kmh 29.75 in1007.5 mb 0.00 in0.0 mm 0.00 in0.0 mm 0.00 in0.0 mm
11:46 AM 27.7°F-2.4°C 23.2°F-4.9°C 83% 16.6 mph NNE26.7 kmh NNE 21.0 mph33.8 kmh 29.75 in1007.5 mb 0.00 in0.0 mm 0.00 in0.0 mm 0.00 in0.0 mm
11:47 AM 27.7°F-2.4°C 23.2°F-4.9°C 83% 13.5 mph NE21.7 kmh NE 21.0 mph33.8 kmh 29.75 in1007.5 mb 0.00 in0.0 mm 0.00 in0.0 mm 0.00 in0.0 mm
11:48 AM 27.6°F-2.4°C 23.1°F-4.9°C 83% 11.8 mph NE19.0 kmh NE 18.0 mph29.0 kmh 29.75 in1007.5 mb 0.00 in0.0 mm 0.00 in0.0 mm 0.00 in0.0 mm
11:49 AM 27.7°F-2.4°C 23.2°F-4.9°C 83% 13.8 mph NE22.2 kmh NE 17.0 mph27.4 kmh 29.75 in1007.5 mb 0.00 in0.0 mm 0.00 in0.0 mm 0.00 in0.0 mm
11:50 AM 27.6°F-2.4°C 23.1°F-4.9°C 83% 13.1 mph NE21.1 kmh NE 18.0 mph29.0 kmh 29.74 in1007.1 mb 0.00 in0.0 mm 0.00 in0.0 mm 0.00 in0.0 mm
11:51 AM 27.6°F-2.4°C 23.1°F-4.9°C 83% 12.4 mph NE20.0 kmh NE 18.0 mph29.0 kmh 29.75 in1007.5 mb 0.00 in0.0 mm 0.00 in0.0 mm 0.00 in0.0 mm
11:52 AM 27.6°F-2.4°C 23.1°F-4.9°C 83% 13.0 mph NE20.9 kmh NE 17.0 mph27.4 kmh 29.75 in1007.5 mb 0.00 in0.0 mm 0.00 in0.0 mm 0.00 in0.0 mm
11:53 AM 27.6°F-2.4°C 23.1°F-4.9°C 83% 13.4 mph NE21.6 kmh NE 17.0 mph27.4 kmh 29.75 in1007.5 mb 0.00 in0.0 mm 0.00 in0.0 mm 0.00 in0.0 mm
11:54 AM 27.6°F-2.4°C 23.1°F-4.9°C 83% 10.4 mph NE16.7 kmh NE 17.0 mph27.4 kmh 29.75 in1007.5 mb 0.00 in0.0 mm 0.00 in0.0 mm 0.00 in0.0 mm
11:55 AM 27.6°F-2.4°C 23.1°F-4.9°C 83% 11.5 mph NE18.5 kmh NE 14.0 mph22.5 kmh 29.75 in1007.5 mb 0.00 in0.0 mm 0.00 in0.0 mm 0.00 in0.0 mm
11:56 AM 27.6°F-2.4°C 23.1°F-4.9°C 83% 12.8 mph NE20.6 kmh NE 15.0 mph24.1 kmh 29.75 in1007.5 mb 0.00 in0.0 mm 0.00 in0.0 mm 0.00 in0.0 mm
11:57 AM 27.6°F-2.4°C 23.1°F-4.9°C 83% 13.3 mph NE21.4 kmh NE 15.0 mph24.1 kmh 29.75 in1007.5 mb 0.00 in0.0 mm 0.00 in0.0 mm 0.00 in0.0 mm
11:58 AM 27.6°F-2.4°C 23.1°F-4.9°C 83% 9.1 mph NE14.6 kmh NE 15.0 mph24.1 kmh 29.75 in1007.5 mb 0.00 in0.0 mm 0.00 in0.0 mm 0.00 in0.0 mm
11:59 AM 27.6°F-2.4°C 23.1°F-4.9°C 83% 12.5 mph NNE20.1 kmh NNE 17.0 mph27.4 kmh 29.75 in1007.5 mb 0.00 in0.0 mm 0.00 in0.0 mm 0.00 in0.0 mm
12:00 PM 27.6°F-2.4°C 23.1°F-4.9°C 83% 14.3 mph NNE23.0 kmh NNE 19.0 mph30.6 kmh 29.75 in1007.5 mb 0.00 in0.0 mm 0.00 in0.0 mm 0.00 in0.0 mm
12:01 PM 27.7°F-2.4°C 23.2°F-4.9°C 83% 15.8 mph NE25.4 kmh NE 19.0 mph30.6 kmh 29.75 in1007.5 mb 0.00 in0.0 mm 0.00 in0.0 mm 0.00 in0.0 mm
12:02 PM 27.6°F-2.4°C 23.1°F-4.9°C 83% 12.3 mph NE19.8 kmh NE 19.0 mph30.6 kmh 29.75 in1007.5 mb 0.00 in0.0 mm 0.00 in0.0 mm 0.00 in0.0 mm
12:03 PM 27.6°F-2.4°C 23.1°F-4.9°C 83% 12.5 mph NE20.1 kmh NE 15.0 mph24.1 kmh 29.74 in1007.1 mb 0.00 in0.0 mm 0.00 in0.0 mm 0.00 in0.0 mm
12:04 PM 27.6°F-2.4°C 23.1°F-4.9°C 83% 13.0 mph NE20.9 kmh NE 16.0 mph25.7 kmh 29.75 in1007.5 mb 0.00 in0.0 mm 0.00 in0.0 mm 0.00 in0.0 mm
12:05 PM 27.6°F-2.4°C 23.1°F-4.9°C 83% 12.9 mph NNE20.8 kmh NNE 16.0 mph25.7 kmh 29.75 in1007.5 mb 0.00 in0.0 mm 0.00 in0.0 mm 0.00 in0.0 mm
12:06 PM 27.6°F-2.4°C 23.1°F-4.9°C 83% 13.0 mph NE20.9 kmh NE 16.0 mph25.7 kmh 29.74 in1007.1 mb 0.00 in0.0 mm 0.00 in0.0 mm 0.00 in0.0 mm
12:07 PM 27.7°F-2.4°C 23.2°F-4.9°C 83% 14.1 mph NNE22.7 kmh NNE 18.0 mph29.0 kmh 29.75 in1007.5 mb 0.00 in0.0 mm 0.00 in0.0 mm 0.00 in0.0 mm
12:08 PM 27.6°F-2.4°C 23.1°F-4.9°C 83% 14.0 mph NNE22.5 kmh NNE 18.0 mph29.0 kmh 29.75 in1007.5 mb 0.00 in0.0 mm 0.00 in0.0 mm 0.00 in0.0 mm
12:09 PM 27.6°F-2.4°C 23.1°F-4.9°C 83% 14.1 mph NNE22.7 kmh NNE 16.0 mph25.7 kmh 29.75 in1007.5 mb 0.00 in0.0 mm 0.00 in0.0 mm 0.00 in0.0 mm
12:10 PM 27.6°F-2.4°C 23.1°F-4.9°C 83% 12.9 mph NE20.8 kmh NE 16.0 mph25.7 kmh 29.75 in1007.5 mb 0.00 in0.0 mm 0.00 in0.0 mm 0.00 in0.0 mm
12:11 PM 27.7°F-2.4°C 23.2°F-4.9°C 83% 10.7 mph NE17.2 kmh NE 15.0 mph24.1 kmh 29.75 in1007.5 mb 0.00 in0.0 mm 0.00 in0.0 mm 0.00 in0.0 mm
12:12 PM 27.7°F-2.4°C 23.2°F-4.9°C 83% 14.3 mph NNE23.0 kmh NNE 17.0 mph27.4 kmh 29.75 in1007.5 mb 0.00 in0.0 mm 0.00 in0.0 mm 0.00 in0.0 mm
12:13 PM 27.8°F-2.3°C 23.3°F-4.8°C 83% 15.9 mph NNE25.6 kmh NNE 18.0 mph29.0 kmh 29.74 in1007.1 mb 0.00 in0.0 mm 0.00 in0.0 mm 0.00 in0.0 mm
12:14 PM 27.7°F-2.4°C 23.2°F-4.9°C 83% 12.2 mph NE19.6 kmh NE 18.0 mph29.0 kmh 29.74 in1007.1 mb 0.00 in0.0 mm 0.00 in0.0 mm 0.00 in0.0 mm
12:15 PM 27.7°F-2.4°C 23.2°F-4.9°C 83% 9.7 mph NE15.6 kmh NE 16.0 mph25.7 kmh 29.74 in1007.1 mb 0.00 in0.0 mm 0.00 in0.0 mm 0.00 in0.0 mm
12:16 PM 27.7°F-2.4°C 23.2°F-4.9°C 83% 13.1 mph NNE21.1 kmh NNE 16.0 mph25.7 kmh 29.74 in1007.1 mb 0.00 in0.0 mm 0.00 in0.0 mm 0.00 in0.0 mm
12:17 PM 27.8°F-2.3°C 23.3°F-4.8°C 83% 10.8 mph NE17.4 kmh NE 16.0 mph25.7 kmh 29.74 in1007.1 mb 0.00 in0.0 mm 0.00 in0.0 mm 0.00 in0.0 mm
12:18 PM 27.8°F-2.3°C 23.3°F-4.8°C 83% 13.2 mph NNE21.2 kmh NNE 17.0 mph27.4 kmh 29.74 in1007.1 mb 0.00 in0.0 mm 0.00 in0.0 mm 0.00 in0.0 mm
12:19 PM 27.8°F-2.3°C 23.3°F-4.8°C 83% 12.6 mph NNE20.3 kmh NNE 17.0 mph27.4 kmh 29.74 in1007.1 mb 0.00 in0.0 mm 0.00 in0.0 mm 0.00 in0.0 mm
12:20 PM 27.7°F-2.4°C 23.2°F-4.9°C 83% 15.0 mph NNE24.1 kmh NNE 18.0 mph29.0 kmh 29.74 in1007.1 mb 0.00 in0.0 mm 0.00 in0.0 mm 0.00 in0.0 mm
12:21 PM 27.7°F-2.4°C 22.9°F-5.1°C 82% 13.8 mph NE22.2 kmh NE 18.0 mph29.0 kmh 29.74 in1007.1 mb 0.00 in0.0 mm 0.00 in0.0 mm 0.00 in0.0 mm
12:22 PM 27.8°F-2.3°C 23.3°F-4.8°C 83% 13.5 mph NNE21.7 kmh NNE 17.0 mph27.4 kmh 29.74 in1007.1 mb 0.00 in0.0 mm 0.00 in0.0 mm 0.00 in0.0 mm
12:23 PM 27.8°F-2.3°C 23.3°F-4.8°C 83% 11.6 mph NE18.7 kmh NE 17.0 mph27.4 kmh 29.74 in1007.1 mb 0.00 in0.0 mm 0.00 in0.0 mm 0.00 in0.0 mm
12:24 PM 27.9°F-2.3°C 23.4°F-4.8°C 83% 10.6 mph NE17.1 kmh NE 14.0 mph22.5 kmh 29.74 in1007.1 mb 0.00 in0.0 mm 0.00 in0.0 mm 0.00 in0.0 mm
12:25 PM 27.9°F-2.3°C 23.4°F-4.8°C 83% 7.9 mph NE12.7 kmh NE 14.0 mph22.5 kmh 29.74 in1007.1 mb 0.00 in0.0 mm 0.00 in0.0 mm 0.00 in0.0 mm
12:26 PM 27.9°F-2.3°C 23.4°F-4.8°C 83% 8.9 mph NE14.3 kmh NE 11.0 mph17.7 kmh 29.74 in1007.1 mb 0.00 in0.0 mm 0.00 in0.0 mm 0.00 in0.0 mm
12:27 PM 27.9°F-2.3°C 23.4°F-4.8°C 83% 11.5 mph NE18.5 kmh NE 15.0 mph24.1 kmh 29.74 in1007.1 mb 0.00 in0.0 mm 0.00 in0.0 mm 0.00 in0.0 mm
12:28 PM 28.0°F-2.2°C 23.5°F-4.7°C 83% 12.3 mph NE19.8 kmh NE 16.0 mph25.7 kmh 29.74 in1007.1 mb 0.00 in0.0 mm 0.00 in0.0 mm 0.00 in0.0 mm
12:29 PM 28.0°F-2.2°C 23.5°F-4.7°C 83% 12.8 mph NE20.6 kmh NE 16.0 mph25.7 kmh 29.74 in1007.1 mb 0.00 in0.0 mm 0.00 in0.0 mm 0.00 in0.0 mm
12:30 PM 28.0°F-2.2°C 23.5°F-4.7°C 83% 13.9 mph NE22.4 kmh NE 16.0 mph25.7 kmh 29.74 in1007.1 mb 0.00 in0.0 mm 0.00 in0.0 mm 0.00 in0.0 mm
12:31 PM 28.0°F-2.2°C 23.5°F-4.7°C 83% 15.0 mph NE24.1 kmh NE 18.0 mph29.0 kmh 29.74 in1007.1 mb 0.00 in0.0 mm 0.00 in0.0 mm 0.00 in0.0 mm
12:32 PM 28.0°F-2.2°C 23.5°F-4.7°C 83% 14.6 mph NNE23.5 kmh NNE 18.0 mph29.0 kmh 29.75 in1007.5 mb 0.00 in0.0 mm 0.00 in0.0 mm 0.00 in0.0 mm
12:33 PM 28.0°F-2.2°C 23.5°F-4.7°C 83% 15.2 mph NNE24.5 kmh NNE 19.0 mph30.6 kmh 29.75 in1007.5 mb 0.00 in0.0 mm 0.00 in0.0 mm 0.00 in0.0 mm
12:34 PM 28.0°F-2.2°C 23.5°F-4.7°C 83% 13.4 mph NNE21.6 kmh NNE 19.0 mph30.6 kmh 29.75 in1007.5 mb 0.00 in0.0 mm 0.00 in0.0 mm 0.00 in0.0 mm
12:35 PM 28.1°F-2.2°C 23.6°F-4.7°C 83% 13.3 mph NE21.4 kmh NE 16.0 mph25.7 kmh 29.75 in1007.5 mb 0.00 in0.0 mm 0.00 in0.0 mm 0.00 in0.0 mm
12:36 PM 28.0°F-2.2°C 23.5°F-4.7°C 83% 12.3 mph NNE19.8 kmh NNE 16.0 mph25.7 kmh 29.75 in1007.5 mb 0.00 in0.0 mm 0.00 in0.0 mm 0.00 in0.0 mm
12:37 PM 28.1°F-2.2°C 23.6°F-4.7°C 83% 10.5 mph NE16.9 kmh NE 16.0 mph25.7 kmh 29.75 in1007.5 mb 0.00 in0.0 mm 0.00 in0.0 mm 0.00 in0.0 mm
12:38 PM 28.1°F-2.2°C 23.6°F-4.7°C 83% 10.5 mph NE16.9 kmh NE 15.0 mph24.1 kmh 29.75 in1007.5 mb 0.00 in0.0 mm 0.00 in0.0 mm 0.00 in0.0 mm
12:39 PM 28.0°F-2.2°C 23.2°F-4.9°C 82% 9.6 mph NE15.4 kmh NE 13.0 mph20.9 kmh 29.75 in1007.5 mb 0.00 in0.0 mm 0.00 in0.0 mm 0.00 in0.0 mm
12:40 PM 28.1°F-2.2°C 23.6°F-4.7°C 83% 12.8 mph NE20.6 kmh NE 17.0 mph27.4 kmh 29.75 in1007.5 mb 0.00 in0.0 mm 0.00 in0.0 mm 0.00 in0.0 mm
12:41 PM 28.1°F-2.2°C 23.3°F-4.8°C 82% 11.5 mph NE18.5 kmh NE 17.0 mph27.4 kmh 29.75 in1007.5 mb 0.00 in0.0 mm 0.00 in0.0 mm 0.00 in0.0 mm
12:42 PM 28.1°F-2.2°C 23.3°F-4.8°C 82% 12.1 mph NE19.5 kmh NE 17.0 mph27.4 kmh 29.75 in1007.5 mb 0.00 in0.0 mm 0.00 in0.0 mm 0.00 in0.0 mm
12:43 PM 28.0°F-2.2°C 23.2°F-4.9°C 82% 11.5 mph NE18.5 kmh NE 16.0 mph25.7 kmh 29.75 in1007.5 mb 0.00 in0.0 mm 0.00 in0.0 mm 0.00 in0.0 mm
12:44 PM 28.1°F-2.2°C 23.3°F-4.8°C 82% 11.5 mph NE18.5 kmh NE 16.0 mph25.7 kmh 29.75 in1007.5 mb 0.00 in0.0 mm 0.00 in0.0 mm 0.00 in0.0 mm
12:45 PM 28.1°F-2.2°C 23.3°F-4.8°C 82% 10.2 mph NE16.4 kmh NE 15.0 mph24.1 kmh 29.75 in1007.5 mb 0.00 in0.0 mm 0.00 in0.0 mm 0.00 in0.0 mm
12:46 PM 28.1°F-2.2°C 23.3°F-4.8°C 82% 12.2 mph NE19.6 kmh NE 17.0 mph27.4 kmh 29.75 in1007.5 mb 0.00 in0.0 mm 0.00 in0.0 mm 0.00 in0.0 mm
12:47 PM 28.1°F-2.2°C 23.3°F-4.8°C 82% 11.9 mph NE19.2 kmh NE 17.0 mph27.4 kmh 29.75 in1007.5 mb 0.00 in0.0 mm 0.00 in0.0 mm 0.00 in0.0 mm
12:48 PM 28.2°F-2.1°C 23.4°F-4.8°C 82% 11.3 mph NNE18.2 kmh NNE 17.0 mph27.4 kmh 29.75 in1007.5 mb 0.00 in0.0 mm 0.00 in0.0 mm 0.00 in0.0 mm
12:49 PM 28.2°F-2.1°C 23.7°F-4.6°C 83% 14.0 mph NNE22.5 kmh NNE 16.0 mph25.7 kmh 29.75 in1007.5 mb 0.00 in0.0 mm 0.00 in0.0 mm 0.00 in0.0 mm
12:50 PM 28.2°F-2.1°C 23.7°F-4.6°C 83% 14.1 mph NE22.7 kmh NE 17.0 mph27.4 kmh 29.75 in1007.5 mb 0.00 in0.0 mm 0.00 in0.0 mm 0.00 in0.0 mm
12:51 PM 28.3°F-2.1°C 23.8°F-4.6°C 83% 14.5 mph NNE23.3 kmh NNE 17.0 mph27.4 kmh 29.75 in1007.5 mb 0.00 in0.0 mm 0.00 in0.0 mm 0.00 in0.0 mm
12:52 PM 28.2°F-2.1°C 23.4°F-4.8°C 82% 14.7 mph NNE23.7 kmh NNE 17.0 mph27.4 kmh 29.75 in1007.5 mb 0.00 in0.0 mm 0.00 in0.0 mm 0.00 in0.0 mm
12:53 PM 28.3°F-2.1°C 23.5°F-4.7°C 82% 13.1 mph NNE21.1 kmh NNE 17.0 mph27.4 kmh 29.75 in1007.5 mb 0.00 in0.0 mm 0.00 in0.0 mm 0.00 in0.0 mm
12:54 PM 28.3°F-2.1°C 23.5°F-4.7°C 82% 16.2 mph NNE26.1 kmh NNE 19.0 mph30.6 kmh 29.75 in1007.5 mb 0.00 in0.0 mm 0.00 in0.0 mm 0.00 in0.0 mm
12:55 PM 28.3°F-2.1°C 23.5°F-4.7°C 82% 14.5 mph NNE23.3 kmh NNE 19.0 mph30.6 kmh 29.75 in1007.5 mb 0.00 in0.0 mm 0.00 in0.0 mm 0.00 in0.0 mm
12:56 PM 28.2°F-2.1°C 23.4°F-4.8°C 82% 15.4 mph NNE24.8 kmh NNE 18.0 mph29.0 kmh 29.75 in1007.5 mb 0.00 in0.0 mm 0.00 in0.0 mm 0.00 in0.0 mm
12:57 PM 28.2°F-2.1°C 23.4°F-4.8°C 82% 15.0 mph NNE24.1 kmh NNE 18.0 mph29.0 kmh 29.75 in1007.5 mb 0.00 in0.0 mm 0.00 in0.0 mm 0.00 in0.0 mm
12:58 PM 28.2°F-2.1°C 23.4°F-4.8°C 82% 15.7 mph NNE25.3 kmh NNE 18.0 mph29.0 kmh 29.75 in1007.5 mb 0.00 in0.0 mm 0.00 in0.0 mm 0.00 in0.0 mm
12:59 PM 28.2°F-2.1°C 23.4°F-4.8°C 82% 15.0 mph NE24.1 kmh NE 18.0 mph29.0 kmh 29.75 in1007.5 mb 0.00 in0.0 mm 0.00 in0.0 mm 0.00 in0.0 mm
01:00 PM 28.2°F-2.1°C 23.4°F-4.8°C 82% 15.0 mph NNE24.1 kmh NNE 18.0 mph29.0 kmh 29.75 in1007.5 mb 0.00 in0.0 mm 0.00 in0.0 mm 0.00 in0.0 mm
01:01 PM 28.1°F-2.2°C 23.3°F-4.8°C 82% 14.3 mph NE23.0 kmh NE 18.0 mph29.0 kmh 29.75 in1007.5 mb 0.00 in0.0 mm 0.00 in0.0 mm 0.00 in0.0 mm
01:02 PM 28.2°F-2.1°C 23.4°F-4.8°C 82% 11.6 mph NE18.7 kmh NE 18.0 mph29.0 kmh 29.75 in1007.5 mb 0.00 in0.0 mm 0.00 in0.0 mm 0.00 in0.0 mm
01:03 PM 28.3°F-2.1°C 23.5°F-4.7°C 82% 14.5 mph NNE23.3 kmh NNE 17.0 mph27.4 kmh 29.75 in1007.5 mb 0.00 in0.0 mm 0.00 in0.0 mm 0.00 in0.0 mm
01:04 PM 28.3°F-2.1°C 23.5°F-4.7°C 82% 13.6 mph NNE21.9 kmh NNE 17.0 mph27.4 kmh 29.75 in1007.5 mb 0.00 in0.0 mm 0.00 in0.0 mm 0.00 in0.0 mm
01:05 PM 28.3°F-2.1°C 23.5°F-4.7°C 82% 14.7 mph NNE23.7 kmh NNE 17.0 mph27.4 kmh 29.75 in1007.5 mb 0.00 in0.0 mm 0.00 in0.0 mm 0.00 in0.0 mm
01:06 PM 28.4°F-2.0°C 23.6°F-4.7°C 82% 14.0 mph NE22.5 kmh NE 17.0 mph27.4 kmh 29.75 in1007.5 mb 0.00 in0.0 mm 0.00 in0.0 mm 0.00 in0.0 mm
01:07 PM 28.3°F-2.1°C 23.5°F-4.7°C 82% 13.9 mph NNE22.4 kmh NNE 17.0 mph27.4 kmh 29.75 in1007.5 mb 0.00 in0.0 mm 0.00 in0.0 mm 0.00 in0.0 mm
01:08 PM 28.3°F-2.1°C 23.5°F-4.7°C 82% 11.7 mph NE18.8 kmh NE 17.0 mph27.4 kmh 29.75 in1007.5 mb 0.00 in0.0 mm 0.00 in0.0 mm 0.00 in0.0 mm
01:09 PM 28.4°F-2.0°C 23.6°F-4.7°C 82% 12.8 mph NE20.6 kmh NE 17.0 mph27.4 kmh 29.75 in1007.5 mb 0.00 in0.0 mm 0.00 in0.0 mm 0.00 in0.0 mm
01:10 PM 28.3°F-2.1°C 23.5°F-4.7°C 82% 11.7 mph NE18.8 kmh NE 17.0 mph27.4 kmh 29.75 in1007.5 mb 0.00 in0.0 mm 0.00 in0.0 mm 0.00 in0.0 mm
01:11 PM 28.4°F-2.0°C 23.6°F-4.7°C 82% 12.2 mph NNE19.6 kmh NNE 15.0 mph24.1 kmh 29.75 in1007.5 mb 0.00 in0.0 mm 0.00 in0.0 mm 0.00 in0.0 mm
01:12 PM 28.4°F-2.0°C 23.9°F-4.5°C 83% 16.6 mph NNE26.7 kmh NNE 19.0 mph30.6 kmh 29.75 in1007.5 mb 0.00 in0.0 mm 0.00 in0.0 mm 0.00 in0.0 mm
01:13 PM 28.4°F-2.0°C 23.6°F-4.7°C 82% 13.8 mph NNE22.2 kmh NNE 19.0 mph30.6 kmh 29.75 in1007.5 mb 0.00 in0.0 mm 0.00 in0.0 mm 0.00 in0.0 mm
01:14 PM 28.4°F-2.0°C 23.9°F-4.5°C 83% 16.4 mph NNE26.4 kmh NNE 18.0 mph29.0 kmh 29.75 in1007.5 mb 0.00 in0.0 mm 0.00 in0.0 mm 0.00 in0.0 mm
01:15 PM 28.4°F-2.0°C 23.9°F-4.5°C 83% 11.3 mph NNE18.2 kmh NNE 18.0 mph29.0 kmh 29.75 in1007.5 mb 0.00 in0.0 mm 0.00 in0.0 mm 0.00 in0.0 mm
01:16 PM 28.5°F-1.9°C 24.0°F-4.4°C 83% 10.4 mph NE16.7 kmh NE 15.0 mph24.1 kmh 29.75 in1007.5 mb 0.00 in0.0 mm 0.00 in0.0 mm 0.00 in0.0 mm
01:17 PM 28.6°F-1.9°C 24.1°F-4.4°C 83% 12.9 mph NNE20.8 kmh NNE 16.0 mph25.7 kmh 29.75 in1007.5 mb 0.00 in0.0 mm 0.00 in0.0 mm 0.00 in0.0 mm
01:18 PM 28.6°F-1.9°C 24.1°F-4.4°C 83% 15.9 mph NNE25.6 kmh NNE 18.0 mph29.0 kmh 29.75 in1007.5 mb 0.00 in0.0 mm 0.00 in0.0 mm 0.00 in0.0 mm
01:19 PM 28.5°F-1.9°C 23.7°F-4.6°C 82% 13.0 mph NE20.9 kmh NE 18.0 mph29.0 kmh 29.75 in1007.5 mb 0.00 in0.0 mm 0.00 in0.0 mm 0.00 in0.0 mm
01:20 PM 28.5°F-1.9°C 23.7°F-4.6°C 82% 17.5 mph NE28.2 kmh NE 21.0 mph33.8 kmh 29.75 in1007.5 mb 0.00 in0.0 mm 0.00 in0.0 mm 0.00 in0.0 mm
01:21 PM 28.4°F-2.0°C 23.6°F-4.7°C 82% 12.9 mph NE20.8 kmh NE 21.0 mph33.8 kmh 29.75 in1007.5 mb 0.00 in0.0 mm 0.00 in0.0 mm 0.00 in0.0 mm
01:22 PM 28.5°F-1.9°C 23.7°F-4.6°C 82% 10.7 mph NNE17.2 kmh NNE 16.0 mph25.7 kmh 29.75 in1007.5 mb 0.00 in0.0 mm 0.00 in0.0 mm 0.00 in0.0 mm
01:23 PM 28.5°F-1.9°C 23.7°F-4.6°C 82% 9.8 mph NE15.8 kmh NE 13.0 mph20.9 kmh 29.75 in1007.5 mb 0.00 in0.0 mm 0.00 in0.0 mm 0.00 in0.0 mm
01:24 PM 28.5°F-1.9°C 24.0°F-4.4°C 83% 10.9 mph NE17.5 kmh NE 13.0 mph20.9 kmh 29.75 in1007.5 mb 0.00 in0.0 mm 0.00 in0.0 mm 0.00 in0.0 mm
01:25 PM 28.5°F-1.9°C 24.0°F-4.4°C 83% 15.1 mph NE24.3 kmh NE 19.0 mph30.6 kmh 29.75 in1007.5 mb 0.00 in0.0 mm 0.00 in0.0 mm 0.00 in0.0 mm
01:26 PM 28.6°F-1.9°C 24.1°F-4.4°C 83% 16.5 mph NE26.6 kmh NE 20.0 mph32.2 kmh 29.75 in1007.5 mb 0.00 in0.0 mm 0.00 in0.0 mm 0.00 in0.0 mm
01:27 PM 28.6°F-1.9°C 24.1°F-4.4°C 83% 17.2 mph NNE27.7 kmh NNE 20.0 mph32.2 kmh 29.75 in1007.5 mb 0.00 in0.0 mm 0.00 in0.0 mm 0.00 in0.0 mm
01:28 PM 28.5°F-1.9°C 23.7°F-4.6°C 82% 15.5 mph NE24.9 kmh NE 20.0 mph32.2 kmh 29.75 in1007.5 mb 0.00 in0.0 mm 0.00 in0.0 mm 0.00 in0.0 mm
01:29 PM 28.4°F-2.0°C 23.6°F-4.7°C 82% 13.6 mph NE21.9 kmh NE 20.0 mph32.2 kmh 29.75 in1007.5 mb 0.00 in0.0 mm 0.00 in0.0 mm 0.00 in0.0 mm
01:30 PM 28.5°F-1.9°C 23.7°F-4.6°C 82% 14.0 mph NE22.5 kmh NE 18.0 mph29.0 kmh 29.75 in1007.5 mb 0.00 in0.0 mm 0.00 in0.0 mm 0.00 in0.0 mm
01:31 PM 28.5°F-1.9°C 23.7°F-4.6°C 82% 15.1 mph NE24.3 kmh NE 17.0 mph27.4 kmh 29.75 in1007.5 mb 0.00 in0.0 mm 0.00 in0.0 mm 0.00 in0.0 mm
01:32 PM 28.5°F-1.9°C 23.7°F-4.6°C 82% 13.6 mph NE21.9 kmh NE 18.0 mph29.0 kmh 29.75 in1007.5 mb 0.00 in0.0 mm 0.00 in0.0 mm 0.00 in0.0 mm
01:33 PM 28.5°F-1.9°C 23.7°F-4.6°C 82% 14.8 mph NE23.8 kmh NE 18.0 mph29.0 kmh 29.75 in1007.5 mb 0.00 in0.0 mm 0.00 in0.0 mm 0.00 in0.0 mm
01:34 PM 28.5°F-1.9°C 23.7°F-4.6°C 82% 13.4 mph NE21.6 kmh NE 18.0 mph29.0 kmh 29.75 in1007.5 mb 0.00 in0.0 mm 0.00 in0.0 mm 0.00 in0.0 mm
01:35 PM 28.5°F-1.9°C 23.7°F-4.6°C 82% 17.2 mph NE27.7 kmh NE 20.0 mph32.2 kmh 29.75 in1007.5 mb 0.00 in0.0 mm 0.00 in0.0 mm 0.00 in0.0 mm
01:36 PM 28.4°F-2.0°C 23.6°F-4.7°C 82% 15.7 mph NE25.3 kmh NE 20.0 mph32.2 kmh 29.75 in1007.5 mb 0.00 in0.0 mm 0.00 in0.0 mm 0.00 in0.0 mm
01:37 PM 28.4°F-2.0°C 23.6°F-4.7°C 82% 14.6 mph NE23.5 kmh NE 19.0 mph30.6 kmh 29.75 in1007.5 mb 0.00 in0.0 mm 0.00 in0.0 mm 0.00 in0.0 mm
01:38 PM 28.4°F-2.0°C 23.6°F-4.7°C 82% 12.3 mph NE19.8 kmh NE 18.0 mph29.0 kmh 29.75 in1007.5 mb 0.00 in0.0 mm 0.00 in0.0 mm 0.00 in0.0 mm
01:39 PM 28.4°F-2.0°C 23.6°F-4.7°C 82% 13.2 mph NE21.2 kmh NE 18.0 mph29.0 kmh 29.75 in1007.5 mb 0.00 in0.0 mm 0.00 in0.0 mm 0.00 in0.0 mm
01:40 PM 28.4°F-2.0°C 23.6°F-4.7°C 82% 13.8 mph NE22.2 kmh NE 18.0 mph29.0 kmh 29.75 in1007.5 mb 0.00 in0.0 mm 0.00 in0.0 mm 0.00 in0.0 mm
01:41 PM 28.4°F-2.0°C 23.6°F-4.7°C 82% 15.8 mph NE25.4 kmh NE 18.0 mph29.0 kmh 29.75 in1007.5 mb 0.00 in0.0 mm 0.00 in0.0 mm 0.00 in0.0 mm
01:42 PM 28.4°F-2.0°C 23.6°F-4.7°C 82% 15.5 mph NE24.9 kmh NE 18.0 mph29.0 kmh 29.75 in1007.5 mb 0.00 in0.0 mm 0.00 in0.0 mm 0.00 in0.0 mm
01:43 PM 28.5°F-1.9°C 23.7°F-4.6°C 82% 12.1 mph NE19.5 kmh NE 18.0 mph29.0 kmh 29.75 in1007.5 mb 0.00 in0.0 mm 0.00 in0.0 mm 0.00 in0.0 mm
01:44 PM 28.4°F-2.0°C 23.6°F-4.7°C 82% 11.3 mph NNE18.2 kmh NNE 15.0 mph24.1 kmh 29.75 in1007.5 mb 0.00 in0.0 mm 0.00 in0.0 mm 0.00 in0.0 mm
01:45 PM 28.5°F-1.9°C 23.7°F-4.6°C 82% 14.4 mph NNE23.2 kmh NNE 18.0 mph29.0 kmh 29.75 in1007.5 mb 0.00 in0.0 mm 0.00 in0.0 mm 0.00 in0.0 mm
01:46 PM 28.5°F-1.9°C 23.7°F-4.6°C 82% 15.8 mph NNE25.4 kmh NNE 18.0 mph29.0 kmh 29.75 in1007.5 mb 0.00 in0.0 mm 0.00 in0.0 mm 0.00 in0.0 mm
01:47 PM 28.5°F-1.9°C 23.7°F-4.6°C 82% 16.7 mph NE26.9 kmh NE 20.0 mph32.2 kmh 29.75 in1007.5 mb 0.00 in0.0 mm 0.00 in0.0 mm 0.00 in0.0 mm
01:48 PM 28.5°F-1.9°C 23.7°F-4.6°C 82% 16.4 mph NE26.4 kmh NE 20.0 mph32.2 kmh 29.75 in1007.5 mb 0.00 in0.0 mm 0.00 in0.0 mm 0.00 in0.0 mm
01:49 PM 28.5°F-1.9°C 23.7°F-4.6°C 82% 16.2 mph NE26.1 kmh NE 20.0 mph32.2 kmh 29.75 in1007.5 mb 0.00 in0.0 mm 0.00 in0.0 mm 0.00 in0.0 mm
01:50 PM 28.5°F-1.9°C 23.7°F-4.6°C 82% 14.0 mph NE22.5 kmh NE 19.0 mph30.6 kmh 29.75 in1007.5 mb 0.00 in0.0 mm 0.00 in0.0 mm 0.00 in0.0 mm
01:51 PM 28.5°F-1.9°C 23.7°F-4.6°C 82% 17.5 mph NE28.2 kmh NE 20.0 mph32.2 kmh 29.75 in1007.5 mb 0.00 in0.0 mm 0.00 in0.0 mm 0.00 in0.0 mm
01:52 PM 28.4°F-2.0°C 23.3°F-4.8°C 81% 17.7 mph NE28.5 kmh NE 21.0 mph33.8 kmh 29.75 in1007.5 mb 0.00 in0.0 mm 0.00 in0.0 mm 0.00 in0.0 mm
01:53 PM 28.5°F-1.9°C 23.7°F-4.6°C 82% 15.0 mph NE24.1 kmh NE 21.0 mph33.8 kmh 29.75 in1007.5 mb 0.00 in0.0 mm 0.00 in0.0 mm 0.00 in0.0 mm
01:54 PM 28.5°F-1.9°C 23.7°F-4.6°C 82% 11.1 mph NE17.9 kmh NE 17.0 mph27.4 kmh 29.75 in1007.5 mb 0.00 in0.0 mm 0.00 in0.0 mm 0.00 in0.0 mm
01:55 PM 28.5°F-1.9°C 23.7°F-4.6°C 82% 11.7 mph NE18.8 kmh NE 15.0 mph24.1 kmh 29.75 in1007.5 mb 0.00 in0.0 mm 0.00 in0.0 mm 0.00 in0.0 mm
01:56 PM 28.5°F-1.9°C 23.7°F-4.6°C 82% 13.7 mph NE22.0 kmh NE 17.0 mph27.4 kmh 29.75 in1007.5 mb 0.00 in0.0 mm 0.00 in0.0 mm 0.00 in0.0 mm
01:57 PM 28.5°F-1.9°C 23.7°F-4.6°C 82% 15.0 mph NE24.1 kmh NE 20.0 mph32.2 kmh 29.75 in1007.5 mb 0.00 in0.0 mm 0.00 in0.0 mm 0.00 in0.0 mm
01:58 PM 28.5°F-1.9°C 23.7°F-4.6°C 82% 16.1 mph NE25.9 kmh NE 20.0 mph32.2 kmh 29.75 in1007.5 mb 0.00 in0.0 mm 0.00 in0.0 mm 0.00 in0.0 mm
01:59 PM 28.5°F-1.9°C 23.7°F-4.6°C 82% 15.2 mph NE24.5 kmh NE 19.0 mph30.6 kmh 29.75 in1007.5 mb 0.00 in0.0 mm 0.00 in0.0 mm 0.00 in0.0 mm
02:00 PM 28.4°F-2.0°C 23.6°F-4.7°C 82% 14.2 mph NE22.9 kmh NE 19.0 mph30.6 kmh 29.75 in1007.5 mb 0.00 in0.0 mm 0.00 in0.0 mm 0.00 in0.0 mm
02:01 PM 28.5°F-1.9°C 23.4°F-4.8°C 81% 13.7 mph NE22.0 kmh NE 19.0 mph30.6 kmh 29.75 in1007.5 mb 0.00 in0.0 mm 0.00 in0.0 mm 0.00 in0.0 mm
02:02 PM 28.4°F-2.0°C 23.3°F-4.8°C 81% 15.1 mph NE24.3 kmh NE 19.0 mph30.6 kmh 29.75 in1007.5 mb 0.00 in0.0 mm 0.00 in0.0 mm 0.00 in0.0 mm
02:03 PM 28.4°F-2.0°C 23.3°F-4.8°C 81% 15.2 mph NE24.5 kmh NE 18.0 mph29.0 kmh 29.75 in1007.5 mb 0.00 in0.0 mm 0.00 in0.0 mm 0.00 in0.0 mm
02:04 PM 28.4°F-2.0°C 23.3°F-4.8°C 81% 12.4 mph NE20.0 kmh NE 18.0 mph29.0 kmh 29.75 in1007.5 mb 0.00 in0.0 mm 0.00 in0.0 mm 0.00 in0.0 mm
02:05 PM 28.3°F-2.1°C 23.2°F-4.9°C 81% 14.2 mph NE22.9 kmh NE 18.0 mph29.0 kmh 29.75 in1007.5 mb 0.00 in0.0 mm 0.00 in0.0 mm 0.00 in0.0 mm
02:06 PM 28.4°F-2.0°C 23.3°F-4.8°C 81% 11.2 mph NE18.0 kmh NE 18.0 mph29.0 kmh 29.75 in1007.5 mb 0.00 in0.0 mm 0.00 in0.0 mm 0.00 in0.0 mm
02:07 PM 28.4°F-2.0°C 23.3°F-4.8°C 81% 12.7 mph NE20.4 kmh NE 16.0 mph25.7 kmh 29.76 in1007.8 mb 0.00 in0.0 mm 0.00 in0.0 mm 0.00 in0.0 mm
02:08 PM 28.4°F-2.0°C 23.3°F-4.8°C 81% 10.9 mph NE17.5 kmh NE 16.0 mph25.7 kmh 29.76 in1007.8 mb 0.00 in0.0 mm 0.00 in0.0 mm 0.00 in0.0 mm
02:09 PM 28.4°F-2.0°C 23.3°F-4.8°C 81% 14.6 mph NE23.5 kmh NE 19.0 mph30.6 kmh 29.76 in1007.8 mb 0.00 in0.0 mm 0.00 in0.0 mm 0.00 in0.0 mm
02:10 PM 28.4°F-2.0°C 23.6°F-4.7°C 82% 14.5 mph NE23.3 kmh NE 19.0 mph30.6 kmh 29.76 in1007.8 mb 0.00 in0.0 mm 0.00 in0.0 mm 0.00 in0.0 mm
02:11 PM 28.5°F-1.9°C 23.7°F-4.6°C 82% 12.3 mph NE19.8 kmh NE 18.0 mph29.0 kmh 29.76 in1007.8 mb 0.00 in0.0 mm 0.00 in0.0 mm 0.00 in0.0 mm
02:12 PM 28.5°F-1.9°C 23.7°F-4.6°C 82% 15.8 mph NE25.4 kmh NE 19.0 mph30.6 kmh 29.76 in1007.8 mb 0.00 in0.0 mm 0.00 in0.0 mm 0.00 in0.0 mm
02:13 PM 28.5°F-1.9°C 23.7°F-4.6°C 82% 11.7 mph NE18.8 kmh NE 19.0 mph30.6 kmh 29.76 in1007.8 mb 0.00 in0.0 mm 0.00 in0.0 mm 0.00 in0.0 mm
02:14 PM 28.5°F-1.9°C 23.7°F-4.6°C 82% 11.8 mph NE19.0 kmh NE 16.0 mph25.7 kmh 29.76 in1007.8 mb 0.00 in0.0 mm 0.00 in0.0 mm 0.00 in0.0 mm
02:15 PM 28.5°F-1.9°C 23.7°F-4.6°C 82% 13.5 mph NE21.7 kmh NE 19.0 mph30.6 kmh 29.76 in1007.8 mb 0.00 in0.0 mm 0.00 in0.0 mm 0.00 in0.0 mm
02:16 PM 28.5°F-1.9°C 23.7°F-4.6°C 82% 13.4 mph NE21.6 kmh NE 19.0 mph30.6 kmh 29.76 in1007.8 mb 0.00 in0.0 mm 0.00 in0.0 mm 0.00 in0.0 mm
02:17 PM 28.5°F-1.9°C 23.4°F-4.8°C 81% 13.1 mph NE21.1 kmh NE 19.0 mph30.6 kmh 29.76 in1007.8 mb 0.00 in0.0 mm 0.00 in0.0 mm 0.00 in0.0 mm
02:18 PM 28.5°F-1.9°C 23.4°F-4.8°C 81% 13.0 mph NE20.9 kmh NE 18.0 mph29.0 kmh 29.76 in1007.8 mb 0.00 in0.0 mm 0.00 in0.0 mm 0.00 in0.0 mm
02:19 PM 28.5°F-1.9°C 23.4°F-4.8°C 81% 12.8 mph NE20.6 kmh NE 19.0 mph30.6 kmh 29.76 in1007.8 mb 0.00 in0.0 mm 0.00 in0.0 mm 0.00 in0.0 mm
02:20 PM 28.5°F-1.9°C 23.4°F-4.8°C 81% 9.0 mph NE14.5 kmh NE 19.0 mph30.6 kmh 29.76 in1007.8 mb 0.00 in0.0 mm 0.00 in0.0 mm 0.00 in0.0 mm
02:21 PM 28.5°F-1.9°C 23.4°F-4.8°C 81% 13.2 mph NNE21.2 kmh NNE 16.0 mph25.7 kmh 29.76 in1007.8 mb 0.00 in0.0 mm 0.00 in0.0 mm 0.00 in0.0 mm
02:22 PM 28.5°F-1.9°C 23.7°F-4.6°C 82% 13.2 mph NE21.2 kmh NE 17.0 mph27.4 kmh 29.76 in1007.8 mb 0.00 in0.0 mm 0.00 in0.0 mm 0.00 in0.0 mm
02:23 PM 28.6°F-1.9°C 23.8°F-4.6°C 82% 14.5 mph NE23.3 kmh NE 18.0 mph29.0 kmh 29.76 in1007.8 mb 0.00 in0.0 mm 0.00 in0.0 mm 0.00 in0.0 mm
02:24 PM 28.5°F-1.9°C 23.4°F-4.8°C 81% 12.4 mph NE20.0 kmh NE 18.0 mph29.0 kmh 29.76 in1007.8 mb 0.00 in0.0 mm 0.00 in0.0 mm 0.00 in0.0 mm
02:25 PM 28.5°F-1.9°C 23.4°F-4.8°C 81% 12.6 mph NE20.3 kmh NE 16.0 mph25.7 kmh 29.76 in1007.8 mb 0.00 in0.0 mm 0.00 in0.0 mm 0.00 in0.0 mm
02:26 PM 28.6°F-1.9°C 23.5°F-4.7°C 81% 11.9 mph NE19.2 kmh NE 16.0 mph25.7 kmh 29.76 in1007.8 mb 0.00 in0.0 mm 0.00 in0.0 mm 0.00 in0.0 mm
02:27 PM 28.5°F-1.9°C 23.4°F-4.8°C 81% 13.0 mph NE20.9 kmh NE 16.0 mph25.7 kmh 29.76 in1007.8 mb 0.00 in0.0 mm 0.00 in0.0 mm 0.00 in0.0 mm
02:28 PM 28.5°F-1.9°C 23.4°F-4.8°C 81% 13.6 mph NE21.9 kmh NE 18.0 mph29.0 kmh 29.76 in1007.8 mb 0.00 in0.0 mm 0.00 in0.0 mm 0.00 in0.0 mm
02:29 PM 28.5°F-1.9°C 23.4°F-4.8°C 81% 12.9 mph NE20.8 kmh NE 18.0 mph29.0 kmh 29.76 in1007.8 mb 0.00 in0.0 mm 0.00 in0.0 mm 0.00 in0.0 mm
02:30 PM 28.5°F-1.9°C 23.4°F-4.8°C 81% 13.7 mph NE22.0 kmh NE 18.0 mph29.0 kmh 29.76 in1007.8 mb 0.00 in0.0 mm 0.00 in0.0 mm 0.00 in0.0 mm
02:31 PM 28.5°F-1.9°C 23.4°F-4.8°C 81% 13.6 mph NE21.9 kmh NE 17.0 mph27.4 kmh 29.76 in1007.8 mb 0.00 in0.0 mm 0.00 in0.0 mm 0.00 in0.0 mm
02:32 PM 28.5°F-1.9°C 23.4°F-4.8°C 81% 15.5 mph NE24.9 kmh NE 21.0 mph33.8 kmh 29.76 in1007.8 mb 0.00 in0.0 mm 0.00 in0.0 mm 0.00 in0.0 mm
02:33 PM 28.5°F-1.9°C 23.4°F-4.8°C 81% 15.7 mph NE25.3 kmh NE 21.0 mph33.8 kmh 29.76 in1007.8 mb 0.00 in0.0 mm 0.00 in0.0 mm 0.00 in0.0 mm
02:34 PM 28.5°F-1.9°C 23.4°F-4.8°C 81% 16.0 mph NE25.7 kmh NE 20.0 mph32.2 kmh 29.76 in1007.8 mb 0.00 in0.0 mm 0.00 in0.0 mm 0.00 in0.0 mm
02:35 PM 28.5°F-1.9°C 23.4°F-4.8°C 81% 15.3 mph NNE24.6 kmh NNE 20.0 mph32.2 kmh 29.76 in1007.8 mb 0.00 in0.0 mm 0.00 in0.0 mm 0.00 in0.0 mm
02:36 PM 28.4°F-2.0°C 23.3°F-4.8°C 81% 14.5 mph NE23.3 kmh NE 19.0 mph30.6 kmh 29.76 in1007.8 mb 0.00 in0.0 mm 0.00 in0.0 mm 0.00 in0.0 mm
02:37 PM 28.4°F-2.0°C 23.3°F-4.8°C 81% 9.9 mph NE15.9 kmh NE 17.0 mph27.4 kmh 29.76 in1007.8 mb 0.00 in0.0 mm 0.00 in0.0 mm 0.00 in0.0 mm
02:38 PM 28.5°F-1.9°C 23.4°F-4.8°C 81% 10.4 mph NE16.7 kmh NE 14.0 mph22.5 kmh 29.76 in1007.8 mb 0.00 in0.0 mm 0.00 in0.0 mm 0.00 in0.0 mm
02:39 PM 28.5°F-1.9°C 23.4°F-4.8°C 81% 12.7 mph NNE20.4 kmh NNE 17.0 mph27.4 kmh 29.76 in1007.8 mb 0.00 in0.0 mm 0.00 in0.0 mm 0.00 in0.0 mm
02:40 PM 28.5°F-1.9°C 23.4°F-4.8°C 81% 14.3 mph NE23.0 kmh NE 20.0 mph32.2 kmh 29.76 in1007.8 mb 0.00 in0.0 mm 0.00 in0.0 mm 0.00 in0.0 mm
02:41 PM 28.5°F-1.9°C 23.4°F-4.8°C 81% 12.9 mph NNE20.8 kmh NNE 20.0 mph32.2 kmh 29.76 in1007.8 mb 0.00 in0.0 mm 0.00 in0.0 mm 0.00 in0.0 mm
02:42 PM 28.5°F-1.9°C 23.4°F-4.8°C 81% 15.1 mph NE24.3 kmh NE 20.0 mph32.2 kmh 29.76 in1007.8 mb 0.00 in0.0 mm 0.00 in0.0 mm 0.00 in0.0 mm
02:43 PM 28.6°F-1.9°C 23.8°F-4.6°C 82% 15.4 mph NNE24.8 kmh NNE 20.0 mph32.2 kmh 29.76 in1007.8 mb 0.00 in0.0 mm 0.00 in0.0 mm 0.00 in0.0 mm
02:44 PM 28.6°F-1.9°C 23.8°F-4.6°C 82% 15.9 mph NE25.6 kmh NE 19.0 mph30.6 kmh 29.76 in1007.8 mb 0.00 in0.0 mm 0.00 in0.0 mm 0.00 in0.0 mm
02:45 PM 28.5°F-1.9°C 23.7°F-4.6°C 82% 13.6 mph NE21.9 kmh NE 19.0 mph30.6 kmh 29.76 in1007.8 mb 0.00 in0.0 mm 0.00 in0.0 mm 0.00 in0.0 mm
02:46 PM 28.5°F-1.9°C 23.7°F-4.6°C 82% 15.0 mph NE24.1 kmh NE 19.0 mph30.6 kmh 29.76 in1007.8 mb 0.00 in0.0 mm 0.00 in0.0 mm 0.00 in0.0 mm
02:47 PM 28.6°F-1.9°C 23.8°F-4.6°C 82% 14.4 mph NE23.2 kmh NE 21.0 mph33.8 kmh 29.76 in1007.8 mb 0.00 in0.0 mm 0.00 in0.0 mm 0.00 in0.0 mm
02:48 PM 28.5°F-1.9°C 23.7°F-4.6°C 82% 15.5 mph NE24.9 kmh NE 21.0 mph33.8 kmh 29.76 in1007.8 mb 0.00 in0.0 mm 0.00 in0.0 mm 0.00 in0.0 mm
02:49 PM 28.5°F-1.9°C 23.7°F-4.6°C 82% 17.5 mph NE28.2 kmh NE 21.0 mph33.8 kmh 29.76 in1007.8 mb 0.00 in0.0 mm 0.00 in0.0 mm 0.00 in0.0 mm
02:50 PM 28.5°F-1.9°C 23.7°F-4.6°C 82% 15.3 mph NE24.6 kmh NE 21.0 mph33.8 kmh 29.76 in1007.8 mb 0.00 in0.0 mm 0.00 in0.0 mm 0.00 in0.0 mm
02:51 PM 28.5°F-1.9°C 23.7°F-4.6°C 82% 16.0 mph NNE25.7 kmh NNE 21.0 mph33.8 kmh 29.76 in1007.8 mb 0.00 in0.0 mm 0.00 in0.0 mm 0.00 in0.0 mm
02:52 PM 28.5°F-1.9°C 23.7°F-4.6°C 82% 14.1 mph NE22.7 kmh NE 18.0 mph29.0 kmh 29.76 in1007.8 mb 0.00 in0.0 mm 0.00 in0.0 mm 0.00 in0.0 mm
02:53 PM 28.5°F-1.9°C 23.7°F-4.6°C 82% 16.6 mph NE26.7 kmh NE 21.0 mph33.8 kmh 29.76 in1007.8 mb 0.00 in0.0 mm 0.00 in0.0 mm 0.00 in0.0 mm
02:54 PM 28.6°F-1.9°C 23.8°F-4.6°C 82% 18.1 mph NE29.1 kmh NE 21.0 mph33.8 kmh 29.77 in1008.1 mb 0.00 in0.0 mm 0.00 in0.0 mm 0.00 in0.0 mm
02:55 PM 28.5°F-1.9°C 23.7°F-4.6°C 82% 15.1 mph NE24.3 kmh NE 21.0 mph33.8 kmh 29.76 in1007.8 mb 0.00 in0.0 mm 0.00 in0.0 mm 0.00 in0.0 mm
02:56 PM 28.5°F-1.9°C 23.7°F-4.6°C 82% 13.1 mph NE21.1 kmh NE 21.0 mph33.8 kmh 29.76 in1007.8 mb 0.00 in0.0 mm 0.00 in0.0 mm 0.00 in0.0 mm
02:57 PM 28.5°F-1.9°C 23.7°F-4.6°C 82% 11.9 mph NE19.2 kmh NE 16.0 mph25.7 kmh 29.77 in1008.1 mb 0.00 in0.0 mm 0.00 in0.0 mm 0.00 in0.0 mm
02:58 PM 28.5°F-1.9°C 23.7°F-4.6°C 82% 16.6 mph NE26.7 kmh NE 20.0 mph32.2 kmh 29.76 in1007.8 mb 0.00 in0.0 mm 0.00 in0.0 mm 0.00 in0.0 mm
02:59 PM 28.6°F-1.9°C 23.8°F-4.6°C 82% 17.8 mph NE28.6 kmh NE 21.0 mph33.8 kmh 29.77 in1008.1 mb 0.00 in0.0 mm 0.00 in0.0 mm 0.00 in0.0 mm
03:00 PM 28.5°F-1.9°C 23.7°F-4.6°C 82% 17.5 mph NNE28.2 kmh NNE 21.0 mph33.8 kmh 29.77 in1008.1 mb 0.00 in0.0 mm 0.00 in0.0 mm 0.00 in0.0 mm
03:01 PM 28.5°F-1.9°C 23.7°F-4.6°C 82% 18.0 mph NE29.0 kmh NE 21.0 mph33.8 kmh 29.77 in1008.1 mb 0.00 in0.0 mm 0.00 in0.0 mm 0.00 in0.0 mm
03:02 PM 28.5°F-1.9°C 23.7°F-4.6°C 82% 16.1 mph NE25.9 kmh NE 21.0 mph33.8 kmh 29.77 in1008.1 mb 0.00 in0.0 mm 0.00 in0.0 mm 0.00 in0.0 mm
03:03 PM 28.4°F-2.0°C 23.6°F-4.7°C 82% 15.2 mph NNE24.5 kmh NNE 20.0 mph32.2 kmh 29.77 in1008.1 mb 0.00 in0.0 mm 0.00 in0.0 mm 0.00 in0.0 mm
03:04 PM 28.4°F-2.0°C 23.6°F-4.7°C 82% 16.9 mph NNE27.2 kmh NNE 20.0 mph32.2 kmh 29.77 in1008.1 mb 0.00 in0.0 mm 0.00 in0.0 mm 0.00 in0.0 mm
03:05 PM 28.5°F-1.9°C 23.7°F-4.6°C 82% 18.6 mph NE29.9 kmh NE 22.0 mph35.4 kmh 29.77 in1008.1 mb 0.00 in0.0 mm 0.00 in0.0 mm 0.00 in0.0 mm
03:06 PM 28.4°F-2.0°C 23.6°F-4.7°C 82% 18.6 mph NE29.9 kmh NE 23.0 mph37.0 kmh 29.77 in1008.1 mb 0.00 in0.0 mm 0.00 in0.0 mm 0.00 in0.0 mm
03:07 PM 28.4°F-2.0°C 23.6°F-4.7°C 82% 19.3 mph NE31.1 kmh NE 23.0 mph37.0 kmh 29.77 in1008.1 mb 0.00 in0.0 mm 0.00 in0.0 mm 0.00 in0.0 mm
03:08 PM 28.4°F-2.0°C 23.6°F-4.7°C 82% 16.4 mph NE26.4 kmh NE 23.0 mph37.0 kmh 29.77 in1008.1 mb 0.00 in0.0 mm 0.00 in0.0 mm 0.00 in0.0 mm
03:09 PM 28.3°F-2.1°C 23.2°F-4.9°C 81% 16.2 mph NE26.1 kmh NE 20.0 mph32.2 kmh 29.77 in1008.1 mb 0.00 in0.0 mm 0.00 in0.0 mm 0.00 in0.0 mm
03:10 PM 28.3°F-2.1°C 23.5°F-4.7°C 82% 15.5 mph NE24.9 kmh NE 20.0 mph32.2 kmh 29.77 in1008.1 mb 0.00 in0.0 mm 0.00 in0.0 mm 0.00 in0.0 mm
03:11 PM 28.3°F-2.1°C 23.5°F-4.7°C 82% 13.1 mph NE21.1 kmh NE 18.0 mph29.0 kmh 29.77 in1008.1 mb 0.00 in0.0 mm 0.00 in0.0 mm 0.00 in0.0 mm
03:12 PM 28.3°F-2.1°C 23.5°F-4.7°C 82% 14.2 mph NE22.9 kmh NE 19.0 mph30.6 kmh 29.77 in1008.1 mb 0.00 in0.0 mm 0.00 in0.0 mm 0.00 in0.0 mm
03:13 PM 28.3°F-2.1°C 23.5°F-4.7°C 82% 12.1 mph NE19.5 kmh NE 19.0 mph30.6 kmh 29.77 in1008.1 mb 0.00 in0.0 mm 0.00 in0.0 mm 0.00 in0.0 mm
03:14 PM 28.3°F-2.1°C 23.5°F-4.7°C 82% 11.5 mph NE18.5 kmh NE 18.0 mph29.0 kmh 29.77 in1008.1 mb 0.00 in0.0 mm 0.00 in0.0 mm 0.00 in0.0 mm
03:15 PM 28.3°F-2.1°C 23.5°F-4.7°C 82% 16.3 mph NE26.2 kmh NE 20.0 mph32.2 kmh 29.77 in1008.1 mb 0.00 in0.0 mm 0.00 in0.0 mm 0.00 in0.0 mm
03:16 PM 28.3°F-2.1°C 23.2°F-4.9°C 81% 12.0 mph NE19.3 kmh NE 20.0 mph32.2 kmh 29.77 in1008.1 mb 0.00 in0.0 mm 0.00 in0.0 mm 0.00 in0.0 mm
03:17 PM 28.3°F-2.1°C 23.5°F-4.7°C 82% 11.8 mph NE19.0 kmh NE 18.0 mph29.0 kmh 29.77 in1008.1 mb 0.00 in0.0 mm 0.00 in0.0 mm 0.00 in0.0 mm
03:18 PM 28.3°F-2.1°C 23.5°F-4.7°C 82% 11.9 mph NE19.2 kmh NE 17.0 mph27.4 kmh 29.77 in1008.1 mb 0.00 in0.0 mm 0.00 in0.0 mm 0.00 in0.0 mm
03:19 PM 28.3°F-2.1°C 23.2°F-4.9°C 81% 10.0 mph NE16.1 kmh NE 17.0 mph27.4 kmh 29.77 in1008.1 mb 0.00 in0.0 mm 0.00 in0.0 mm 0.00 in0.0 mm
03:20 PM 28.2°F-2.1°C 23.1°F-4.9°C 81% 13.1 mph NE21.1 kmh NE 19.0 mph30.6 kmh 29.77 in1008.1 mb 0.00 in0.0 mm 0.00 in0.0 mm 0.00 in0.0 mm
03:21 PM 28.2°F-2.1°C 23.1°F-4.9°C 81% 13.7 mph NE22.0 kmh NE 19.0 mph30.6 kmh 29.77 in1008.1 mb 0.00 in0.0 mm 0.00 in0.0 mm 0.00 in0.0 mm
03:22 PM 28.2°F-2.1°C 23.1°F-4.9°C 81% 13.2 mph NE21.2 kmh NE 17.0 mph27.4 kmh 29.77 in1008.1 mb 0.00 in0.0 mm 0.00 in0.0 mm 0.00 in0.0 mm
03:23 PM 28.3°F-2.1°C 23.5°F-4.7°C 82% 12.9 mph NE20.8 kmh NE 18.0 mph29.0 kmh 29.77 in1008.1 mb 0.00 in0.0 mm 0.00 in0.0 mm 0.00 in0.0 mm
03:24 PM 28.3°F-2.1°C 23.5°F-4.7°C 82% 14.6 mph NNE23.5 kmh NNE 18.0 mph29.0 kmh 29.77 in1008.1 mb 0.00 in0.0 mm 0.00 in0.0 mm 0.00 in0.0 mm
03:25 PM 28.3°F-2.1°C 23.5°F-4.7°C 82% 14.9 mph NE24.0 kmh NE 17.0 mph27.4 kmh 29.77 in1008.1 mb 0.00 in0.0 mm 0.00 in0.0 mm 0.00 in0.0 mm
03:26 PM 28.3°F-2.1°C 23.5°F-4.7°C 82% 16.1 mph NNE25.9 kmh NNE 18.0 mph29.0 kmh 29.77 in1008.1 mb 0.00 in0.0 mm 0.00 in0.0 mm 0.00 in0.0 mm
03:27 PM 28.3°F-2.1°C 23.2°F-4.9°C 81% 15.2 mph NE24.5 kmh NE 18.0 mph29.0 kmh 29.77 in1008.1 mb 0.00 in0.0 mm 0.00 in0.0 mm 0.00 in0.0 mm
03:28 PM 28.3°F-2.1°C 23.2°F-4.9°C 81% 15.4 mph NE24.8 kmh NE 18.0 mph29.0 kmh 29.77 in1008.1 mb 0.00 in0.0 mm 0.00 in0.0 mm 0.00 in0.0 mm
03:29 PM 28.3°F-2.1°C 23.2°F-4.9°C 81% 15.6 mph NNE25.1 kmh NNE 18.0 mph29.0 kmh 29.77 in1008.1 mb 0.00 in0.0 mm 0.00 in0.0 mm 0.00 in0.0 mm
03:30 PM 28.3°F-2.1°C 23.2°F-4.9°C 81% 15.1 mph NNE24.3 kmh NNE 18.0 mph29.0 kmh 29.77 in1008.1 mb 0.00 in0.0 mm 0.00 in0.0 mm 0.00 in0.0 mm
03:31 PM 28.3°F-2.1°C 23.2°F-4.9°C 81% 15.7 mph NNE25.3 kmh NNE 20.0 mph32.2 kmh 29.77 in1008.1 mb 0.00 in0.0 mm 0.00 in0.0 mm 0.00 in0.0 mm
03:32 PM 28.4°F-2.0°C 23.3°F-4.8°C 81% 18.7 mph NNE30.1 kmh NNE 21.0 mph33.8 kmh 29.77 in1008.1 mb 0.00 in0.0 mm 0.00 in0.0 mm 0.00 in0.0 mm
03:33 PM 28.3°F-2.1°C 23.2°F-4.9°C 81% 15.4 mph NNE24.8 kmh NNE 21.0 mph33.8 kmh 29.77 in1008.1 mb 0.00 in0.0 mm 0.00 in0.0 mm 0.00 in0.0 mm
03:34 PM 28.3°F-2.1°C 23.2°F-4.9°C 81% 15.5 mph NNE24.9 kmh NNE 18.0 mph29.0 kmh 29.77 in1008.1 mb 0.00 in0.0 mm 0.00 in0.0 mm 0.00 in0.0 mm
03:35 PM 28.4°F-2.0°C 23.6°F-4.7°C 82% 16.9 mph NNE27.2 kmh NNE 21.0 mph33.8 kmh 29.77 in1008.1 mb 0.00 in0.0 mm 0.00 in0.0 mm 0.00 in0.0 mm
03:36 PM 28.3°F-2.1°C 23.2°F-4.9°C 81% 18.2 mph NNE29.3 kmh NNE 22.0 mph35.4 kmh 29.77 in1008.1 mb 0.00 in0.0 mm 0.00 in0.0 mm 0.00 in0.0 mm
03:37 PM 28.4°F-2.0°C 23.3°F-4.8°C 81% 16.0 mph NNE25.7 kmh NNE 22.0 mph35.4 kmh 29.77 in1008.1 mb 0.00 in0.0 mm 0.00 in0.0 mm 0.00 in0.0 mm
03:38 PM 28.3°F-2.1°C 23.5°F-4.7°C 82% 16.3 mph NNE26.2 kmh NNE 20.0 mph32.2 kmh 29.77 in1008.1 mb 0.00 in0.0 mm 0.00 in0.0 mm 0.00 in0.0 mm
03:39 PM 28.4°F-2.0°C 23.6°F-4.7°C 82% 15.8 mph NNE25.4 kmh NNE 20.0 mph32.2 kmh 29.77 in1008.1 mb 0.00 in0.0 mm 0.00 in0.0 mm 0.00 in0.0 mm
03:40 PM 28.4°F-2.0°C 23.6°F-4.7°C 82% 15.8 mph NNE25.4 kmh NNE 18.0 mph29.0 kmh 29.77 in1008.1 mb 0.00 in0.0 mm 0.00 in0.0 mm 0.00 in0.0 mm
03:41 PM 28.5°F-1.9°C 23.7°F-4.6°C 82% 16.7 mph NNE26.9 kmh NNE 19.0 mph30.6 kmh 29.77 in1008.1 mb 0.00 in0.0 mm 0.00 in0.0 mm 0.00 in0.0 mm
03:42 PM 28.4°F-2.0°C 23.3°F-4.8°C 81% 15.7 mph NNE25.3 kmh NNE 19.0 mph30.6 kmh 29.77 in1008.1 mb 0.00 in0.0 mm 0.00 in0.0 mm 0.00 in0.0 mm
03:43 PM 28.4°F-2.0°C 23.3°F-4.8°C 81% 14.2 mph NE22.9 kmh NE 18.0 mph29.0 kmh 29.77 in1008.1 mb 0.00 in0.0 mm 0.00 in0.0 mm 0.00 in0.0 mm
03:44 PM 28.5°F-1.9°C 23.7°F-4.6°C 82% 12.8 mph NE20.6 kmh NE 17.0 mph27.4 kmh 29.77 in1008.1 mb 0.00 in0.0 mm 0.00 in0.0 mm 0.00 in0.0 mm
03:45 PM 28.4°F-2.0°C 23.6°F-4.7°C 82% 15.4 mph NNE24.8 kmh NNE 19.0 mph30.6 kmh 29.77 in1008.1 mb 0.00 in0.0 mm 0.00 in0.0 mm 0.00 in0.0 mm
03:46 PM 28.4°F-2.0°C 23.6°F-4.7°C 82% 18.3 mph NNE29.5 kmh NNE 22.0 mph35.4 kmh 29.77 in1008.1 mb 0.00 in0.0 mm 0.00 in0.0 mm 0.00 in0.0 mm
03:47 PM 28.5°F-1.9°C 23.7°F-4.6°C 82% 17.0 mph NNE27.4 kmh NNE 22.0 mph35.4 kmh 29.77 in1008.1 mb 0.00 in0.0 mm 0.00 in0.0 mm 0.00 in0.0 mm
03:48 PM 28.5°F-1.9°C 23.7°F-4.6°C 82% 15.7 mph NE25.3 kmh NE 21.0 mph33.8 kmh 29.77 in1008.1 mb 0.00 in0.0 mm 0.00 in0.0 mm 0.00 in0.0 mm
03:49 PM 28.4°F-2.0°C 23.3°F-4.8°C 81% 16.3 mph NNE26.2 kmh NNE 19.0 mph30.6 kmh 29.77 in1008.1 mb 0.00 in0.0 mm 0.00 in0.0 mm 0.00 in0.0 mm
03:50 PM 28.4°F-2.0°C 23.3°F-4.8°C 81% 18.0 mph NNE29.0 kmh NNE 22.0 mph35.4 kmh 29.77 in1008.1 mb 0.00 in0.0 mm 0.00 in0.0 mm 0.00 in0.0 mm
03:51 PM 28.4°F-2.0°C 23.6°F-4.7°C 82% 17.5 mph NNE28.2 kmh NNE 22.0 mph35.4 kmh 29.77 in1008.1 mb 0.00 in0.0 mm 0.00 in0.0 mm 0.00 in0.0 mm
03:52 PM 28.4°F-2.0°C 23.6°F-4.7°C 82% 17.4 mph NNE28.0 kmh NNE 21.0 mph33.8 kmh 29.78 in1008.5 mb 0.00 in0.0 mm 0.00 in0.0 mm 0.00 in0.0 mm
03:53 PM 28.4°F-2.0°C 23.6°F-4.7°C 82% 16.7 mph NE26.9 kmh NE 20.0 mph32.2 kmh 29.77 in1008.1 mb 0.00 in0.0 mm 0.00 in0.0 mm 0.00 in0.0 mm
03:54 PM 28.4°F-2.0°C 23.6°F-4.7°C 82% 12.1 mph NE19.5 kmh NE 19.0 mph30.6 kmh 29.77 in1008.1 mb 0.00 in0.0 mm 0.00 in0.0 mm 0.00 in0.0 mm
03:55 PM 28.4°F-2.0°C 23.6°F-4.7°C 82% 15.9 mph NE25.6 kmh NE 20.0 mph32.2 kmh 29.78 in1008.5 mb 0.00 in0.0 mm 0.00 in0.0 mm 0.00 in0.0 mm
03:56 PM 28.4°F-2.0°C 23.6°F-4.7°C 82% 13.3 mph NE21.4 kmh NE 20.0 mph32.2 kmh 29.78 in1008.5 mb 0.00 in0.0 mm 0.00 in0.0 mm 0.00 in0.0 mm
03:57 PM 28.5°F-1.9°C 23.7°F-4.6°C 82% 15.8 mph NE25.4 kmh NE 20.0 mph32.2 kmh 29.78 in1008.5 mb 0.00 in0.0 mm 0.00 in0.0 mm 0.00 in0.0 mm
03:58 PM 28.4°F-2.0°C 23.6°F-4.7°C 82% 16.6 mph NNE26.7 kmh NNE 20.0 mph32.2 kmh 29.78 in1008.5 mb 0.00 in0.0 mm 0.00 in0.0 mm 0.00 in0.0 mm
03:59 PM 28.4°F-2.0°C 23.6°F-4.7°C 82% 13.4 mph NE21.6 kmh NE 20.0 mph32.2 kmh 29.78 in1008.5 mb 0.00 in0.0 mm 0.00 in0.0 mm 0.00 in0.0 mm
04:00 PM 28.5°F-1.9°C 23.7°F-4.6°C 82% 18.2 mph NE29.3 kmh NE 21.0 mph33.8 kmh 29.78 in1008.5 mb 0.00 in0.0 mm 0.00 in0.0 mm 0.00 in0.0 mm
04:01 PM 28.4°F-2.0°C 23.6°F-4.7°C 82% 18.9 mph NNE30.4 kmh NNE 23.0 mph37.0 kmh 29.78 in1008.5 mb 0.00 in0.0 mm 0.00 in0.0 mm 0.00 in0.0 mm
04:02 PM 28.5°F-1.9°C 23.7°F-4.6°C 82% 15.5 mph NE24.9 kmh NE 23.0 mph37.0 kmh 29.78 in1008.5 mb 0.00 in0.0 mm 0.00 in0.0 mm 0.00 in0.0 mm
04:03 PM 28.6°F-1.9°C 23.8°F-4.6°C 82% 16.3 mph NE26.2 kmh NE 21.0 mph33.8 kmh 29.78 in1008.5 mb 0.00 in0.0 mm 0.00 in0.0 mm 0.00 in0.0 mm
04:04 PM 28.5°F-1.9°C 23.7°F-4.6°C 82% 16.6 mph NE26.7 kmh NE 21.0 mph33.8 kmh 29.78 in1008.5 mb 0.00 in0.0 mm 0.00 in0.0 mm 0.00 in0.0 mm
04:05 PM 28.5°F-1.9°C 23.7°F-4.6°C 82% 13.4 mph NE21.6 kmh NE 21.0 mph33.8 kmh 29.78 in1008.5 mb 0.00 in0.0 mm 0.00 in0.0 mm 0.00 in0.0 mm
04:06 PM 28.5°F-1.9°C 23.7°F-4.6°C 82% 16.7 mph NNE26.9 kmh NNE 20.0 mph32.2 kmh 29.78 in1008.5 mb 0.00 in0.0 mm 0.00 in0.0 mm 0.00 in0.0 mm
04:07 PM 28.5°F-1.9°C 23.7°F-4.6°C 82% 15.9 mph NE25.6 kmh NE 21.0 mph33.8 kmh 29.78 in1008.5 mb 0.00 in0.0 mm 0.00 in0.0 mm 0.00 in0.0 mm
04:08 PM 28.5°F-1.9°C 23.7°F-4.6°C 82% 17.6 mph NE28.3 kmh NE 21.0 mph33.8 kmh 29.78 in1008.5 mb 0.00 in0.0 mm 0.00 in0.0 mm 0.00 in0.0 mm
04:09 PM 28.5°F-1.9°C 23.7°F-4.6°C 82% 16.3 mph NE26.2 kmh NE 22.0 mph35.4 kmh 29.78 in1008.5 mb 0.00 in0.0 mm 0.00 in0.0 mm 0.00 in0.0 mm
04:10 PM 28.5°F-1.9°C 23.7°F-4.6°C 82% 12.9 mph NE20.8 kmh NE 19.0 mph30.6 kmh 29.78 in1008.5 mb 0.00 in0.0 mm 0.00 in0.0 mm 0.00 in0.0 mm
04:11 PM 28.5°F-1.9°C 23.7°F-4.6°C 82% 11.8 mph NE19.0 kmh NE 18.0 mph29.0 kmh 29.78 in1008.5 mb 0.00 in0.0 mm 0.00 in0.0 mm 0.00 in0.0 mm
04:12 PM 28.4°F-2.0°C 23.6°F-4.7°C 82% 12.6 mph NE20.3 kmh NE 18.0 mph29.0 kmh 29.78 in1008.5 mb 0.00 in0.0 mm 0.00 in0.0 mm 0.00 in0.0 mm
04:13 PM 28.5°F-1.9°C 23.7°F-4.6°C 82% 12.2 mph NE19.6 kmh NE 16.0 mph25.7 kmh 29.78 in1008.5 mb 0.00 in0.0 mm 0.00 in0.0 mm 0.00 in0.0 mm
04:14 PM 28.4°F-2.0°C 23.6°F-4.7°C 82% 13.0 mph NE20.9 kmh NE 18.0 mph29.0 kmh 29.78 in1008.5 mb 0.00 in0.0 mm 0.00 in0.0 mm 0.00 in0.0 mm
04:15 PM 28.5°F-1.9°C 23.7°F-4.6°C 82% 15.0 mph NE24.1 kmh NE 18.0 mph29.0 kmh 29.78 in1008.5 mb 0.00 in0.0 mm 0.00 in0.0 mm 0.00 in0.0 mm
04:16 PM 28.4°F-2.0°C 23.6°F-4.7°C 82% 14.7 mph NE23.7 kmh NE 20.0 mph32.2 kmh 29.78 in1008.5 mb 0.00 in0.0 mm 0.00 in0.0 mm 0.00 in0.0 mm
04:17 PM 28.4°F-2.0°C 23.6°F-4.7°C 82% 11.7 mph NE18.8 kmh NE 20.0 mph32.2 kmh 29.78 in1008.5 mb 0.00 in0.0 mm 0.00 in0.0 mm 0.00 in0.0 mm
04:18 PM 28.5°F-1.9°C 23.7°F-4.6°C 82% 10.3 mph NE16.6 kmh NE 18.0 mph29.0 kmh 29.78 in1008.5 mb 0.00 in0.0 mm 0.00 in0.0 mm 0.00 in0.0 mm
04:19 PM 28.5°F-1.9°C 23.7°F-4.6°C 82% 10.6 mph NE17.1 kmh NE 14.0 mph22.5 kmh 29.78 in1008.5 mb 0.00 in0.0 mm 0.00 in0.0 mm 0.00 in0.0 mm
04:20 PM 28.4°F-2.0°C 23.6°F-4.7°C 82% 14.5 mph NE23.3 kmh NE 18.0 mph29.0 kmh 29.78 in1008.5 mb 0.00 in0.0 mm 0.00 in0.0 mm 0.00 in0.0 mm
04:21 PM 28.5°F-1.9°C 23.7°F-4.6°C 82% 13.6 mph NE21.9 kmh NE 18.0 mph29.0 kmh 29.78 in1008.5 mb 0.00 in0.0 mm 0.00 in0.0 mm 0.00 in0.0 mm
04:22 PM 28.4°F-2.0°C 23.9°F-4.5°C 83% 12.1 mph NE19.5 kmh NE 19.0 mph30.6 kmh 29.78 in1008.5 mb 0.00 in0.0 mm 0.00 in0.0 mm 0.00 in0.0 mm
04:23 PM 28.5°F-1.9°C 23.7°F-4.6°C 82% 13.3 mph NE21.4 kmh NE 19.0 mph30.6 kmh 29.78 in1008.5 mb 0.00 in0.0 mm 0.00 in0.0 mm 0.00 in0.0 mm
04:24 PM 28.5°F-1.9°C 24.0°F-4.4°C 83% 14.8 mph NE23.8 kmh NE 18.0 mph29.0 kmh 29.78 in1008.5 mb 0.00 in0.0 mm 0.00 in0.0 mm 0.00 in0.0 mm
04:25 PM 28.5°F-1.9°C 24.0°F-4.4°C 83% 16.2 mph NE26.1 kmh NE 20.0 mph32.2 kmh 29.78 in1008.5 mb 0.00 in0.0 mm 0.00 in0.0 mm 0.00 in0.0 mm
04:26 PM 28.5°F-1.9°C 24.0°F-4.4°C 83% 17.0 mph NE27.4 kmh NE 20.0 mph32.2 kmh 29.79 in1008.8 mb 0.00 in0.0 mm 0.00 in0.0 mm 0.00 in0.0 mm
04:27 PM 28.5°F-1.9°C 23.7°F-4.6°C 82% 15.3 mph NE24.6 kmh NE 22.0 mph35.4 kmh 29.78 in1008.5 mb 0.00 in0.0 mm 0.00 in0.0 mm 0.00 in0.0 mm
04:28 PM 28.4°F-2.0°C 23.6°F-4.7°C 82% 13.3 mph NE21.4 kmh NE 22.0 mph35.4 kmh 29.78 in1008.5 mb 0.00 in0.0 mm 0.00 in0.0 mm 0.00 in0.0 mm
04:29 PM 28.4°F-2.0°C 23.6°F-4.7°C 82% 14.7 mph NE23.7 kmh NE 18.0 mph29.0 kmh 29.78 in1008.5 mb 0.00 in0.0 mm 0.00 in0.0 mm 0.00 in0.0 mm
04:30 PM 28.4°F-2.0°C 23.6°F-4.7°C 82% 11.2 mph NE18.0 kmh NE 18.0 mph29.0 kmh 29.79 in1008.8 mb 0.00 in0.0 mm 0.00 in0.0 mm 0.00 in0.0 mm
04:31 PM 28.4°F-2.0°C 23.6°F-4.7°C 82% 11.2 mph NE18.0 kmh NE 15.0 mph24.1 kmh 29.78 in1008.5 mb 0.00 in0.0 mm 0.00 in0.0 mm 0.00 in0.0 mm
04:32 PM 28.4°F-2.0°C 23.9°F-4.5°C 83% 12.8 mph NE20.6 kmh NE 17.0 mph27.4 kmh 29.79 in1008.8 mb 0.00 in0.0 mm 0.00 in0.0 mm 0.00 in0.0 mm
04:33 PM 28.4°F-2.0°C 23.6°F-4.7°C 82% 16.1 mph NE25.9 kmh NE 19.0 mph30.6 kmh 29.79 in1008.8 mb 0.00 in0.0 mm 0.00 in0.0 mm 0.00 in0.0 mm
04:34 PM 28.4°F-2.0°C 23.6°F-4.7°C 82% 15.3 mph NE24.6 kmh NE 19.0 mph30.6 kmh 29.79 in1008.8 mb 0.00 in0.0 mm 0.00 in0.0 mm 0.00 in0.0 mm
04:35 PM 28.5°F-1.9°C 24.0°F-4.4°C 83% 17.0 mph NE27.4 kmh NE 21.0 mph33.8 kmh 29.79 in1008.8 mb 0.00 in0.0 mm 0.00 in0.0 mm 0.00 in0.0 mm
04:36 PM 28.4°F-2.0°C 23.9°F-4.5°C 83% 16.7 mph NE26.9 kmh NE 22.0 mph35.4 kmh 29.79 in1008.8 mb 0.00 in0.0 mm 0.00 in0.0 mm 0.00 in0.0 mm
04:37 PM 28.4°F-2.0°C 23.6°F-4.7°C 82% 14.6 mph NE23.5 kmh NE 22.0 mph35.4 kmh 29.79 in1008.8 mb 0.00 in0.0 mm 0.00 in0.0 mm 0.00 in0.0 mm
04:38 PM 28.4°F-2.0°C 23.6°F-4.7°C 82% 14.7 mph NE23.7 kmh NE 21.0 mph33.8 kmh 29.79 in1008.8 mb 0.00 in0.0 mm 0.00 in0.0 mm 0.00 in0.0 mm
04:39 PM 28.4°F-2.0°C 23.6°F-4.7°C 82% 15.2 mph NE24.5 kmh NE 19.0 mph30.6 kmh 29.79 in1008.8 mb 0.00 in0.0 mm 0.00 in0.0 mm 0.00 in0.0 mm
04:40 PM 28.4°F-2.0°C 23.9°F-4.5°C 83% 14.9 mph NE24.0 kmh NE 19.0 mph30.6 kmh 29.79 in1008.8 mb 0.00 in0.0 mm 0.00 in0.0 mm 0.00 in0.0 mm
04:41 PM 28.4°F-2.0°C 23.9°F-4.5°C 83% 13.2 mph NE21.2 kmh NE 18.0 mph29.0 kmh 29.79 in1008.8 mb 0.00 in0.0 mm 0.00 in0.0 mm 0.00 in0.0 mm
04:42 PM 28.4°F-2.0°C 23.9°F-4.5°C 83% 14.2 mph NE22.9 kmh NE 21.0 mph33.8 kmh 29.79 in1008.8 mb 0.00 in0.0 mm 0.00 in0.0 mm 0.00 in0.0 mm
04:43 PM 28.4°F-2.0°C 23.6°F-4.7°C 82% 15.3 mph NE24.6 kmh NE 21.0 mph33.8 kmh 29.79 in1008.8 mb 0.00 in0.0 mm 0.00 in0.0 mm 0.00 in0.0 mm
04:44 PM 28.4°F-2.0°C 23.6°F-4.7°C 82% 13.1 mph NE21.1 kmh NE 21.0 mph33.8 kmh 29.79 in1008.8 mb 0.00 in0.0 mm 0.00 in0.0 mm 0.00 in0.0 mm
04:45 PM 28.4°F-2.0°C 23.6°F-4.7°C 82% 12.8 mph NE20.6 kmh NE 18.0 mph29.0 kmh 29.79 in1008.8 mb 0.00 in0.0 mm 0.00 in0.0 mm 0.00 in0.0 mm
04:46 PM 28.4°F-2.0°C 23.9°F-4.5°C 83% 16.1 mph NE25.9 kmh NE 20.0 mph32.2 kmh 29.79 in1008.8 mb 0.00 in0.0 mm 0.00 in0.0 mm 0.00 in0.0 mm
04:47 PM 28.4°F-2.0°C 23.9°F-4.5°C 83% 16.2 mph NE26.1 kmh NE 19.0 mph30.6 kmh 29.79 in1008.8 mb 0.00 in0.0 mm 0.00 in0.0 mm 0.00 in0.0 mm
04:48 PM 28.4°F-2.0°C 23.9°F-4.5°C 83% 14.7 mph NE23.7 kmh NE 19.0 mph30.6 kmh 29.79 in1008.8 mb 0.00 in0.0 mm 0.00 in0.0 mm 0.00 in0.0 mm
04:49 PM 28.4°F-2.0°C 23.6°F-4.7°C 82% 14.6 mph NE23.5 kmh NE 18.0 mph29.0 kmh 29.79 in1008.8 mb 0.00 in0.0 mm 0.00 in0.0 mm 0.00 in0.0 mm
04:50 PM 28.4°F-2.0°C 23.6°F-4.7°C 82% 16.7 mph NE26.9 kmh NE 20.0 mph32.2 kmh 29.79 in1008.8 mb 0.00 in0.0 mm 0.00 in0.0 mm 0.00 in0.0 mm
04:51 PM 28.4°F-2.0°C 23.6°F-4.7°C 82% 12.3 mph NE19.8 kmh NE 20.0 mph32.2 kmh 29.79 in1008.8 mb 0.00 in0.0 mm 0.00 in0.0 mm 0.00 in0.0 mm
04:52 PM 28.4°F-2.0°C 23.6°F-4.7°C 82% 12.9 mph NE20.8 kmh NE 19.0 mph30.6 kmh 29.79 in1008.8 mb 0.00 in0.0 mm 0.00 in0.0 mm 0.00 in0.0 mm
04:53 PM 28.4°F-2.0°C 23.6°F-4.7°C 82% 14.1 mph NE22.7 kmh NE 19.0 mph30.6 kmh 29.79 in1008.8 mb 0.00 in0.0 mm 0.00 in0.0 mm 0.00 in0.0 mm
04:54 PM 28.4°F-2.0°C 23.6°F-4.7°C 82% 15.4 mph NE24.8 kmh NE 19.0 mph30.6 kmh 29.79 in1008.8 mb 0.00 in0.0 mm 0.00 in0.0 mm 0.00 in0.0 mm
04:55 PM 28.3°F-2.1°C 23.5°F-4.7°C 82% 12.6 mph NE20.3 kmh NE 19.0 mph30.6 kmh 29.79 in1008.8 mb 0.00 in0.0 mm 0.00 in0.0 mm 0.00 in0.0 mm
04:56 PM 28.4°F-2.0°C 23.6°F-4.7°C 82% 12.7 mph NE20.4 kmh NE 16.0 mph25.7 kmh 29.79 in1008.8 mb 0.00 in0.0 mm 0.00 in0.0 mm 0.00 in0.0 mm
04:57 PM 28.3°F-2.1°C 23.5°F-4.7°C 82% 13.4 mph NE21.6 kmh NE 17.0 mph27.4 kmh 29.79 in1008.8 mb 0.00 in0.0 mm 0.00 in0.0 mm 0.00 in0.0 mm
04:58 PM 28.4°F-2.0°C 23.9°F-4.5°C 83% 15.0 mph NNE24.1 kmh NNE 17.0 mph27.4 kmh 29.79 in1008.8 mb 0.00 in0.0 mm 0.00 in0.0 mm 0.00 in0.0 mm
04:59 PM 28.4°F-2.0°C 23.9°F-4.5°C 83% 14.8 mph NE23.8 kmh NE 19.0 mph30.6 kmh 29.79 in1008.8 mb 0.00 in0.0 mm 0.00 in0.0 mm 0.00 in0.0 mm
05:00 PM 28.4°F-2.0°C 23.9°F-4.5°C 83% 13.0 mph NE20.9 kmh NE 18.0 mph29.0 kmh 29.79 in1008.8 mb 0.00 in0.0 mm 0.00 in0.0 mm 0.00 in0.0 mm
05:01 PM 28.5°F-1.9°C 24.0°F-4.4°C 83% 13.4 mph NE21.6 kmh NE 16.0 mph25.7 kmh 29.79 in1008.8 mb 0.00 in0.0 mm 0.00 in0.0 mm 0.00 in0.0 mm
05:02 PM 28.5°F-1.9°C 24.0°F-4.4°C 83% 16.5 mph NE26.6 kmh NE 22.0 mph35.4 kmh 29.79 in1008.8 mb 0.00 in0.0 mm 0.00 in0.0 mm 0.00 in0.0 mm
05:03 PM 28.4°F-2.0°C 23.9°F-4.5°C 83% 12.2 mph NE19.6 kmh NE 22.0 mph35.4 kmh 29.79 in1008.8 mb 0.00 in0.0 mm 0.00 in0.0 mm 0.00 in0.0 mm
05:04 PM 28.4°F-2.0°C 23.9°F-4.5°C 83% 15.8 mph NE25.4 kmh NE 19.0 mph30.6 kmh 29.80 in1009.1 mb 0.00 in0.0 mm 0.00 in0.0 mm 0.00 in0.0 mm
05:05 PM 28.4°F-2.0°C 23.9°F-4.5°C 83% 13.5 mph NE21.7 kmh NE 19.0 mph30.6 kmh 29.80 in1009.1 mb 0.00 in0.0 mm 0.00 in0.0 mm 0.00 in0.0 mm
05:06 PM 28.4°F-2.0°C 23.9°F-4.5°C 83% 14.7 mph NE23.7 kmh NE 19.0 mph30.6 kmh 29.80 in1009.1 mb 0.00 in0.0 mm 0.00 in0.0 mm 0.00 in0.0 mm
05:07 PM 28.4°F-2.0°C 23.9°F-4.5°C 83% 15.0 mph NE24.1 kmh NE 19.0 mph30.6 kmh 29.79 in1008.8 mb 0.00 in0.0 mm 0.00 in0.0 mm 0.00 in0.0 mm
05:08 PM 28.3°F-2.1°C 23.5°F-4.7°C 82% 14.5 mph NE23.3 kmh NE 19.0 mph30.6 kmh 29.80 in1009.1 mb 0.00 in0.0 mm 0.00 in0.0 mm 0.00 in0.0 mm
05:09 PM 28.3°F-2.1°C 23.5°F-4.7°C 82% 14.9 mph NE24.0 kmh NE 18.0 mph29.0 kmh 29.80 in1009.1 mb 0.00 in0.0 mm 0.00 in0.0 mm 0.00 in0.0 mm
05:10 PM 28.3°F-2.1°C 23.5°F-4.7°C 82% 13.8 mph NE22.2 kmh NE 20.0 mph32.2 kmh 29.80 in1009.1 mb 0.00 in0.0 mm 0.00 in0.0 mm 0.00 in0.0 mm
05:11 PM 28.3°F-2.1°C 23.5°F-4.7°C 82% 11.9 mph NE19.2 kmh NE 20.0 mph32.2 kmh 29.80 in1009.1 mb 0.00 in0.0 mm 0.00 in0.0 mm 0.00 in0.0 mm
05:12 PM 28.3°F-2.1°C 23.8°F-4.6°C 83% 14.1 mph NE22.7 kmh NE 18.0 mph29.0 kmh 29.80 in1009.1 mb 0.00 in0.0 mm 0.00 in0.0 mm 0.00 in0.0 mm
05:13 PM 28.3°F-2.1°C 23.8°F-4.6°C 83% 12.0 mph NE19.3 kmh NE 18.0 mph29.0 kmh 29.80 in1009.1 mb 0.00 in0.0 mm 0.00 in0.0 mm 0.00 in0.0 mm
05:14 PM 28.3°F-2.1°C 23.8°F-4.6°C 83% 13.6 mph NE21.9 kmh NE 19.0 mph30.6 kmh 29.80 in1009.1 mb 0.00 in0.0 mm 0.00 in0.0 mm 0.00 in0.0 mm
05:15 PM 28.3°F-2.1°C 23.8°F-4.6°C 83% 14.0 mph NE22.5 kmh NE 19.0 mph30.6 kmh 29.80 in1009.1 mb 0.00 in0.0 mm 0.00 in0.0 mm 0.00 in0.0 mm
05:16 PM 28.3°F-2.1°C 23.8°F-4.6°C 83% 17.2 mph NE27.7 kmh NE 22.0 mph35.4 kmh 29.80 in1009.1 mb 0.00 in0.0 mm 0.00 in0.0 mm 0.00 in0.0 mm
05:17 PM 28.3°F-2.1°C 23.8°F-4.6°C 83% 13.7 mph NE22.0 kmh NE 22.0 mph35.4 kmh 29.80 in1009.1 mb 0.00 in0.0 mm 0.00 in0.0 mm 0.00 in0.0 mm
05:18 PM 28.3°F-2.1°C 23.8°F-4.6°C 83% 14.0 mph NE22.5 kmh NE 18.0 mph29.0 kmh 29.80 in1009.1 mb 0.00 in0.0 mm 0.00 in0.0 mm 0.00 in0.0 mm
05:19 PM 28.3°F-2.1°C 23.8°F-4.6°C 83% 13.6 mph NE21.9 kmh NE 17.0 mph27.4 kmh 29.80 in1009.1 mb 0.00 in0.0 mm 0.00 in0.0 mm 0.00 in0.0 mm
05:20 PM 28.3°F-2.1°C 23.8°F-4.6°C 83% 13.1 mph NE21.1 kmh NE 19.0 mph30.6 kmh 29.80 in1009.1 mb 0.00 in0.0 mm 0.00 in0.0 mm 0.00 in0.0 mm
05:21 PM 28.3°F-2.1°C 23.8°F-4.6°C 83% 12.0 mph NE19.3 kmh NE 19.0 mph30.6 kmh 29.80 in1009.1 mb 0.00 in0.0 mm 0.00 in0.0 mm 0.00 in0.0 mm
05:22 PM 28.3°F-2.1°C 23.8°F-4.6°C 83% 10.8 mph NE17.4 kmh NE 18.0 mph29.0 kmh 29.80 in1009.1 mb 0.00 in0.0 mm 0.00 in0.0 mm 0.00 in0.0 mm
05:23 PM 28.3°F-2.1°C 23.8°F-4.6°C 83% 14.2 mph NE22.9 kmh NE 18.0 mph29.0 kmh 29.80 in1009.1 mb 0.00 in0.0 mm 0.00 in0.0 mm 0.00 in0.0 mm
05:24 PM 28.3°F-2.1°C 23.8°F-4.6°C 83% 13.4 mph NE21.6 kmh NE 18.0 mph29.0 kmh 29.80 in1009.1 mb 0.00 in0.0 mm 0.00 in0.0 mm 0.00 in0.0 mm
05:25 PM 28.3°F-2.1°C 23.8°F-4.6°C 83% 14.6 mph NE23.5 kmh NE 19.0 mph30.6 kmh 29.80 in1009.1 mb 0.00 in0.0 mm 0.00 in0.0 mm 0.00 in0.0 mm
05:26 PM 28.3°F-2.1°C 23.8°F-4.6°C 83% 13.2 mph NE21.2 kmh NE 19.0 mph30.6 kmh 29.80 in1009.1 mb 0.00 in0.0 mm 0.00 in0.0 mm 0.00 in0.0 mm
05:27 PM 28.3°F-2.1°C 23.8°F-4.6°C 83% 10.3 mph NE16.6 kmh NE 18.0 mph29.0 kmh 29.80 in1009.1 mb 0.00 in0.0 mm 0.00 in0.0 mm 0.00 in0.0 mm
05:28 PM 28.3°F-2.1°C 23.8°F-4.6°C 83% 10.5 mph NE16.9 kmh NE 15.0 mph24.1 kmh 29.80 in1009.1 mb 0.00 in0.0 mm 0.00 in0.0 mm 0.00 in0.0 mm
05:29 PM 28.3°F-2.1°C 23.8°F-4.6°C 83% 11.7 mph NE18.8 kmh NE 15.0 mph24.1 kmh 29.80 in1009.1 mb 0.00 in0.0 mm 0.00 in0.0 mm 0.00 in0.0 mm
05:30 PM 28.3°F-2.1°C 23.8°F-4.6°C 83% 8.5 mph NE13.7 kmh NE 15.0 mph24.1 kmh 29.80 in1009.1 mb 0.00 in0.0 mm 0.00 in0.0 mm 0.00 in0.0 mm
05:31 PM 28.3°F-2.1°C 23.8°F-4.6°C 83% 12.6 mph NE20.3 kmh NE 18.0 mph29.0 kmh 29.80 in1009.1 mb 0.00 in0.0 mm 0.00 in0.0 mm 0.00 in0.0 mm
05:32 PM 28.3°F-2.1°C 23.8°F-4.6°C 83% 11.5 mph NE18.5 kmh NE 18.0 mph29.0 kmh 29.80 in1009.1 mb 0.00 in0.0 mm 0.00 in0.0 mm 0.00 in0.0 mm
05:33 PM 28.3°F-2.1°C 23.8°F-4.6°C 83% 11.8 mph NE19.0 kmh NE 14.0 mph22.5 kmh 29.80 in1009.1 mb 0.00 in0.0 mm 0.00 in0.0 mm 0.00 in0.0 mm
05:34 PM 28.3°F-2.1°C 23.8°F-4.6°C 83% 11.7 mph NE18.8 kmh NE 15.0 mph24.1 kmh 29.80 in1009.1 mb 0.00 in0.0 mm 0.00 in0.0 mm 0.00 in0.0 mm
05:35 PM 28.3°F-2.1°C 23.8°F-4.6°C 83% 11.3 mph NE18.2 kmh NE 17.0 mph27.4 kmh 29.80 in1009.1 mb 0.00 in0.0 mm 0.00 in0.0 mm 0.00 in0.0 mm
05:36 PM 28.4°F-2.0°C 23.9°F-4.5°C 83% 14.8 mph NE23.8 kmh NE 18.0 mph29.0 kmh 29.80 in1009.1 mb 0.00 in0.0 mm 0.00 in0.0 mm 0.00 in0.0 mm
05:37 PM 28.4°F-2.0°C 23.9°F-4.5°C 83% 15.0 mph NE24.1 kmh NE 19.0 mph30.6 kmh 29.80 in1009.1 mb 0.00 in0.0 mm 0.00 in0.0 mm 0.00 in0.0 mm
05:38 PM 28.4°F-2.0°C 23.9°F-4.5°C 83% 10.8 mph NE17.4 kmh NE 19.0 mph30.6 kmh 29.80 in1009.1 mb 0.00 in0.0 mm 0.00 in0.0 mm 0.00 in0.0 mm
05:39 PM 28.4°F-2.0°C 23.9°F-4.5°C 83% 13.9 mph NE22.4 kmh NE 18.0 mph29.0 kmh 29.80 in1009.1 mb 0.00 in0.0 mm 0.00 in0.0 mm 0.00 in0.0 mm
05:40 PM 28.4°F-2.0°C 23.9°F-4.5°C 83% 13.9 mph NE22.4 kmh NE 19.0 mph30.6 kmh 29.81 in1009.5 mb 0.00 in0.0 mm 0.00 in0.0 mm 0.00 in0.0 mm
05:41 PM 28.4°F-2.0°C 23.9°F-4.5°C 83% 13.3 mph NE21.4 kmh NE 19.0 mph30.6 kmh 29.81 in1009.5 mb 0.00 in0.0 mm 0.00 in0.0 mm 0.00 in0.0 mm
05:42 PM 28.4°F-2.0°C 23.9°F-4.5°C 83% 14.1 mph NE22.7 kmh NE 18.0 mph29.0 kmh 29.81 in1009.5 mb 0.00 in0.0 mm 0.00 in0.0 mm 0.00 in0.0 mm
05:43 PM 28.4°F-2.0°C 23.9°F-4.5°C 83% 12.9 mph NE20.8 kmh NE 18.0 mph29.0 kmh 29.81 in1009.5 mb 0.00 in0.0 mm 0.00 in0.0 mm 0.00 in0.0 mm
05:44 PM 28.4°F-2.0°C 23.9°F-4.5°C 83% 14.3 mph NE23.0 kmh NE 17.0 mph27.4 kmh 29.81 in1009.5 mb 0.00 in0.0 mm 0.00 in0.0 mm 0.00 in0.0 mm
05:45 PM 28.5°F-1.9°C 24.0°F-4.4°C 83% 12.3 mph NE19.8 kmh NE 17.0 mph27.4 kmh 29.81 in1009.5 mb 0.00 in0.0 mm 0.00 in0.0 mm 0.00 in0.0 mm
05:46 PM 28.5°F-1.9°C 24.0°F-4.4°C 83% 15.2 mph NE24.5 kmh NE 19.0 mph30.6 kmh 29.81 in1009.5 mb 0.00 in0.0 mm 0.00 in0.0 mm 0.00 in0.0 mm
05:47 PM 28.5°F-1.9°C 24.0°F-4.4°C 83% 15.0 mph NE24.1 kmh NE 19.0 mph30.6 kmh 29.81 in1009.5 mb 0.00 in0.0 mm 0.00 in0.0 mm 0.00 in0.0 mm
05:48 PM 28.5°F-1.9°C 24.0°F-4.4°C 83% 13.0 mph NE20.9 kmh NE 19.0 mph30.6 kmh 29.81 in1009.5 mb 0.00 in0.0 mm 0.00 in0.0 mm 0.00 in0.0 mm
05:49 PM 28.5°F-1.9°C 24.0°F-4.4°C 83% 14.8 mph NE23.8 kmh NE 19.0 mph30.6 kmh 29.81 in1009.5 mb 0.00 in0.0 mm 0.00 in0.0 mm 0.00 in0.0 mm
05:50 PM 28.5°F-1.9°C 24.0°F-4.4°C 83% 13.5 mph NE21.7 kmh NE 19.0 mph30.6 kmh 29.81 in1009.5 mb 0.00 in0.0 mm 0.00 in0.0 mm 0.00 in0.0 mm
05:51 PM 28.5°F-1.9°C 24.0°F-4.4°C 83% 13.0 mph NE20.9 kmh NE 17.0 mph27.4 kmh 29.81 in1009.5 mb 0.00 in0.0 mm 0.00 in0.0 mm 0.00 in0.0 mm
05:52 PM 28.5°F-1.9°C 24.0°F-4.4°C 83% 11.4 mph NE18.3 kmh NE 16.0 mph25.7 kmh 29.81 in1009.5 mb 0.00 in0.0 mm 0.00 in0.0 mm 0.00 in0.0 mm
05:53 PM 28.5°F-1.9°C 24.0°F-4.4°C 83% 13.4 mph NE21.6 kmh NE 16.0 mph25.7 kmh 29.81 in1009.5 mb 0.00 in0.0 mm 0.00 in0.0 mm 0.00 in0.0 mm
05:54 PM 28.5°F-1.9°C 24.0°F-4.4°C 83% 12.4 mph NE20.0 kmh NE 19.0 mph30.6 kmh 29.81 in1009.5 mb 0.00 in0.0 mm 0.00 in0.0 mm 0.00 in0.0 mm
05:55 PM 28.5°F-1.9°C 24.0°F-4.4°C 83% 10.3 mph NE16.6 kmh NE 19.0 mph30.6 kmh 29.81 in1009.5 mb 0.00 in0.0 mm 0.00 in0.0 mm 0.00 in0.0 mm
05:56 PM 28.5°F-1.9°C 24.0°F-4.4°C 83% 12.8 mph NE20.6 kmh NE 18.0 mph29.0 kmh 29.81 in1009.5 mb 0.00 in0.0 mm 0.00 in0.0 mm 0.00 in0.0 mm
05:57 PM 28.6°F-1.9°C 24.1°F-4.4°C 83% 17.3 mph NNE27.8 kmh NNE 20.0 mph32.2 kmh 29.81 in1009.5 mb 0.00 in0.0 mm 0.00 in0.0 mm 0.00 in0.0 mm
05:58 PM 28.6°F-1.9°C 24.1°F-4.4°C 83% 14.2 mph NE22.9 kmh NE 20.0 mph32.2 kmh 29.81 in1009.5 mb 0.00 in0.0 mm 0.00 in0.0 mm 0.00 in0.0 mm
05:59 PM 28.6°F-1.9°C 24.1°F-4.4°C 83% 14.2 mph NE22.9 kmh NE 18.0 mph29.0 kmh 29.81 in1009.5 mb 0.00 in0.0 mm 0.00 in0.0 mm 0.00 in0.0 mm
06:00 PM 28.7°F-1.8°C 24.2°F-4.3°C 83% 15.2 mph NE24.5 kmh NE 24.0 mph38.6 kmh 29.81 in1009.5 mb 0.00 in0.0 mm 0.00 in0.0 mm 0.00 in0.0 mm
06:01 PM 28.6°F-1.9°C 24.1°F-4.4°C 83% 18.8 mph NE30.3 kmh NE 24.0 mph38.6 kmh 29.81 in1009.5 mb 0.00 in0.0 mm 0.00 in0.0 mm 0.00 in0.0 mm
06:02 PM 28.6°F-1.9°C 24.1°F-4.4°C 83% 16.9 mph NE27.2 kmh NE 22.0 mph35.4 kmh 29.81 in1009.5 mb 0.00 in0.0 mm 0.00 in0.0 mm 0.00 in0.0 mm
06:03 PM 28.6°F-1.9°C 24.1°F-4.4°C 83% 15.8 mph NE25.4 kmh NE 19.0 mph30.6 kmh 29.81 in1009.5 mb 0.00 in0.0 mm 0.00 in0.0 mm 0.00 in0.0 mm
06:04 PM 28.6°F-1.9°C 24.1°F-4.4°C 83% 17.0 mph NE27.4 kmh NE 22.0 mph35.4 kmh 29.81 in1009.5 mb 0.00 in0.0 mm 0.00 in0.0 mm 0.00 in0.0 mm
06:05 PM 28.5°F-1.9°C 24.0°F-4.4°C 83% 15.9 mph NE25.6 kmh NE 22.0 mph35.4 kmh 29.81 in1009.5 mb 0.00 in0.0 mm 0.00 in0.0 mm 0.00 in0.0 mm
06:06 PM 28.6°F-1.9°C 24.1°F-4.4°C 83% 15.4 mph NE24.8 kmh NE 20.0 mph32.2 kmh 29.81 in1009.5 mb 0.00 in0.0 mm 0.00 in0.0 mm 0.00 in0.0 mm
06:07 PM 28.5°F-1.9°C 23.7°F-4.6°C 82% 14.1 mph NE22.7 kmh NE 20.0 mph32.2 kmh 29.81 in1009.5 mb 0.00 in0.0 mm 0.00 in0.0 mm 0.00 in0.0 mm
06:08 PM 28.5°F-1.9°C 23.7°F-4.6°C 82% 14.4 mph NE23.2 kmh NE 19.0 mph30.6 kmh 29.82 in1009.8 mb 0.00 in0.0 mm 0.00 in0.0 mm 0.00 in0.0 mm
06:09 PM 28.5°F-1.9°C 23.7°F-4.6°C 82% 15.2 mph NE24.5 kmh NE 19.0 mph30.6 kmh 29.82 in1009.8 mb 0.00 in0.0 mm 0.00 in0.0 mm 0.00 in0.0 mm
06:10 PM 28.5°F-1.9°C 23.7°F-4.6°C 82% 12.6 mph NE20.3 kmh NE 18.0 mph29.0 kmh 29.82 in1009.8 mb 0.00 in0.0 mm 0.00 in0.0 mm 0.00 in0.0 mm
06:11 PM 28.6°F-1.9°C 24.1°F-4.4°C 83% 15.3 mph NE24.6 kmh NE 22.0 mph35.4 kmh 29.82 in1009.8 mb 0.00 in0.0 mm 0.00 in0.0 mm 0.00 in0.0 mm
06:12 PM 28.6°F-1.9°C 24.1°F-4.4°C 83% 19.4 mph NE31.2 kmh NE 22.0 mph35.4 kmh 29.82 in1009.8 mb 0.00 in0.0 mm 0.00 in0.0 mm 0.00 in0.0 mm
06:13 PM 28.5°F-1.9°C 23.7°F-4.6°C 82% 17.7 mph NE28.5 kmh NE 22.0 mph35.4 kmh 29.82 in1009.8 mb 0.00 in0.0 mm 0.00 in0.0 mm 0.00 in0.0 mm
06:14 PM 28.5°F-1.9°C 23.7°F-4.6°C 82% 14.8 mph NE23.8 kmh NE 21.0 mph33.8 kmh 29.82 in1009.8 mb 0.00 in0.0 mm 0.00 in0.0 mm 0.00 in0.0 mm
06:15 PM 28.5°F-1.9°C 24.0°F-4.4°C 83% 14.6 mph NE23.5 kmh NE 19.0 mph30.6 kmh 29.82 in1009.8 mb 0.00 in0.0 mm 0.00 in0.0 mm 0.00 in0.0 mm
06:16 PM 28.6°F-1.9°C 24.1°F-4.4°C 83% 14.5 mph NE23.3 kmh NE 18.0 mph29.0 kmh 29.82 in1009.8 mb 0.00 in0.0 mm 0.00 in0.0 mm 0.00 in0.0 mm
06:17 PM 28.5°F-1.9°C 24.0°F-4.4°C 83% 15.9 mph NE25.6 kmh NE 20.0 mph32.2 kmh 29.82 in1009.8 mb 0.00 in0.0 mm 0.00 in0.0 mm 0.00 in0.0 mm
06:18 PM 28.6°F-1.9°C 24.1°F-4.4°C 83% 16.5 mph NNE26.6 kmh NNE 22.0 mph35.4 kmh 29.82 in1009.8 mb 0.00 in0.0 mm 0.00 in0.0 mm 0.00 in0.0 mm
06:19 PM 28.5°F-1.9°C 24.0°F-4.4°C 83% 16.8 mph NE27.0 kmh NE 22.0 mph35.4 kmh 29.82 in1009.8 mb 0.00 in0.0 mm 0.00 in0.0 mm 0.00 in0.0 mm
06:20 PM 28.6°F-1.9°C 24.1°F-4.4°C 83% 13.8 mph NE22.2 kmh NE 22.0 mph35.4 kmh 29.82 in1009.8 mb 0.00 in0.0 mm 0.00 in0.0 mm 0.00 in0.0 mm
06:21 PM 28.6°F-1.9°C 24.1°F-4.4°C 83% 16.6 mph NE26.7 kmh NE 22.0 mph35.4 kmh 29.82 in1009.8 mb 0.00 in0.0 mm 0.00 in0.0 mm 0.00 in0.0 mm
06:22 PM 28.6°F-1.9°C 24.1°F-4.4°C 83% 16.5 mph NE26.6 kmh NE 23.0 mph37.0 kmh 29.82 in1009.8 mb 0.00 in0.0 mm 0.00 in0.0 mm 0.00 in0.0 mm
06:23 PM 28.6°F-1.9°C 24.1°F-4.4°C 83% 16.0 mph NE25.7 kmh NE 23.0 mph37.0 kmh 29.82 in1009.8 mb 0.00 in0.0 mm 0.00 in0.0 mm 0.00 in0.0 mm
06:24 PM 28.7°F-1.8°C 24.2°F-4.3°C 83% 15.9 mph NE25.6 kmh NE 24.0 mph38.6 kmh 29.82 in1009.8 mb 0.00 in0.0 mm 0.00 in0.0 mm 0.00 in0.0 mm
06:25 PM 28.7°F-1.8°C 24.2°F-4.3°C 83% 15.6 mph NE25.1 kmh NE 24.0 mph38.6 kmh 29.82 in1009.8 mb 0.00 in0.0 mm 0.00 in0.0 mm 0.00 in0.0 mm
06:26 PM 28.8°F-1.8°C 24.3°F-4.3°C 83% 15.1 mph NE24.3 kmh NE 20.0 mph32.2 kmh 29.82 in1009.8 mb 0.00 in0.0 mm 0.00 in0.0 mm 0.00 in0.0 mm
06:27 PM 28.8°F-1.8°C 24.3°F-4.3°C 83% 16.5 mph NE26.6 kmh NE 23.0 mph37.0 kmh 29.82 in1009.8 mb 0.00 in0.0 mm 0.00 in0.0 mm 0.00 in0.0 mm
06:28 PM 28.7°F-1.8°C 24.2°F-4.3°C 83% 21.5 mph NE34.6 kmh NE 26.0 mph41.8 kmh 29.82 in1009.8 mb 0.00 in0.0 mm 0.00 in0.0 mm 0.00 in0.0 mm
06:29 PM 28.8°F-1.8°C 24.3°F-4.3°C 83% 18.7 mph NE30.1 kmh NE 26.0 mph41.8 kmh 29.82 in1009.8 mb 0.00 in0.0 mm 0.00 in0.0 mm 0.00 in0.0 mm
06:30 PM 28.8°F-1.8°C 24.3°F-4.3°C 83% 20.0 mph NNE32.2 kmh NNE 24.0 mph38.6 kmh 29.82 in1009.8 mb 0.00 in0.0 mm 0.00 in0.0 mm 0.00 in0.0 mm
06:31 PM 28.8°F-1.8°C 24.3°F-4.3°C 83% 18.5 mph NE29.8 kmh NE 23.0 mph37.0 kmh 29.82 in1009.8 mb 0.00 in0.0 mm 0.00 in0.0 mm 0.00 in0.0 mm
06:32 PM 28.8°F-1.8°C 24.3°F-4.3°C 83% 19.4 mph NE31.2 kmh NE 25.0 mph40.2 kmh 29.82 in1009.8 mb 0.00 in0.0 mm 0.00 in0.0 mm 0.00 in0.0 mm
06:33 PM 28.8°F-1.8°C 24.3°F-4.3°C 83% 18.6 mph NE29.9 kmh NE 25.0 mph40.2 kmh 29.82 in1009.8 mb 0.00 in0.0 mm 0.00 in0.0 mm 0.00 in0.0 mm
06:34 PM 28.8°F-1.8°C 24.3°F-4.3°C 83% 14.8 mph NE23.8 kmh NE 25.0 mph40.2 kmh 29.82 in1009.8 mb 0.00 in0.0 mm 0.00 in0.0 mm 0.00 in0.0 mm
06:35 PM 28.8°F-1.8°C 24.3°F-4.3°C 83% 14.8 mph NE23.8 kmh NE 23.0 mph37.0 kmh 29.82 in1009.8 mb 0.00 in0.0 mm 0.00 in0.0 mm 0.00 in0.0 mm
06:36 PM 28.8°F-1.8°C 24.3°F-4.3°C 83% 19.9 mph NNE32.0 kmh NNE 22.0 mph35.4 kmh 29.82 in1009.8 mb 0.00 in0.0 mm 0.00 in0.0 mm 0.00 in0.0 mm
06:37 PM 28.8°F-1.8°C 24.3°F-4.3°C 83% 17.9 mph NE28.8 kmh NE 23.0 mph37.0 kmh 29.82 in1009.8 mb 0.00 in0.0 mm 0.00 in0.0 mm 0.00 in0.0 mm
06:38 PM 28.9°F-1.7°C 24.4°F-4.2°C 83% 17.5 mph NE28.2 kmh NE 23.0 mph37.0 kmh 29.82 in1009.8 mb 0.00 in0.0 mm 0.00 in0.0 mm 0.00 in0.0 mm
06:39 PM 28.9°F-1.7°C 24.4°F-4.2°C 83% 19.5 mph NNE31.4 kmh NNE 25.0 mph40.2 kmh 29.82 in1009.8 mb 0.00 in0.0 mm 0.00 in0.0 mm 0.00 in0.0 mm
06:40 PM 28.9°F-1.7°C 24.7°F-4.1°C 84% 16.6 mph NNE26.7 kmh NNE 25.0 mph40.2 kmh 29.82 in1009.8 mb 0.00 in0.0 mm 0.00 in0.0 mm 0.00 in0.0 mm
06:41 PM 28.9°F-1.7°C 24.7°F-4.1°C 84% 17.7 mph NE28.5 kmh NE 22.0 mph35.4 kmh 29.82 in1009.8 mb 0.00 in0.0 mm 0.00 in0.0 mm 0.00 in0.0 mm
06:42 PM 28.9°F-1.7°C 24.7°F-4.1°C 84% 18.6 mph NE29.9 kmh NE 25.0 mph40.2 kmh 29.82 in1009.8 mb 0.00 in0.0 mm 0.00 in0.0 mm 0.00 in0.0 mm
06:43 PM 28.9°F-1.7°C 24.4°F-4.2°C 83% 18.9 mph NE30.4 kmh NE 25.0 mph40.2 kmh 29.82 in1009.8 mb 0.00 in0.0 mm 0.00 in0.0 mm 0.00 in0.0 mm
06:44 PM 28.9°F-1.7°C 24.4°F-4.2°C 83% 20.9 mph NNE33.6 kmh NNE 24.0 mph38.6 kmh 29.82 in1009.8 mb 0.00 in0.0 mm 0.00 in0.0 mm 0.00 in0.0 mm
06:45 PM 28.9°F-1.7°C 24.4°F-4.2°C 83% 16.1 mph NE25.9 kmh NE 24.0 mph38.6 kmh 29.82 in1009.8 mb 0.00 in0.0 mm 0.00 in0.0 mm 0.00 in0.0 mm
06:46 PM 28.9°F-1.7°C 24.7°F-4.1°C 84% 18.4 mph NE29.6 kmh NE 22.0 mph35.4 kmh 29.82 in1009.8 mb 0.00 in0.0 mm 0.00 in0.0 mm 0.00 in0.0 mm
06:47 PM 28.9°F-1.7°C 24.7°F-4.1°C 84% 18.2 mph NE29.3 kmh NE 22.0 mph35.4 kmh 29.82 in1009.8 mb 0.00 in0.0 mm 0.00 in0.0 mm 0.00 in0.0 mm
06:48 PM 28.9°F-1.7°C 24.4°F-4.2°C 83% 17.4 mph NE28.0 kmh NE 24.0 mph38.6 kmh 29.82 in1009.8 mb 0.00 in0.0 mm 0.00 in0.0 mm 0.00 in0.0 mm
06:49 PM 28.9°F-1.7°C 24.4°F-4.2°C 83% 15.6 mph NE25.1 kmh NE 24.0 mph38.6 kmh 29.82 in1009.8 mb 0.00 in0.0 mm 0.00 in0.0 mm 0.00 in0.0 mm
06:50 PM 28.9°F-1.7°C 24.4°F-4.2°C 83% 20.2 mph NE32.5 kmh NE 24.0 mph38.6 kmh 29.82 in1009.8 mb 0.00 in0.0 mm 0.00 in0.0 mm 0.00 in0.0 mm
06:51 PM 28.9°F-1.7°C 24.4°F-4.2°C 83% 18.1 mph NE29.1 kmh NE 24.0 mph38.6 kmh 29.82 in1009.8 mb 0.00 in0.0 mm 0.00 in0.0 mm 0.00 in0.0 mm
06:52 PM 28.8°F-1.8°C 24.3°F-4.3°C 83% 20.1 mph NNE32.3 kmh NNE 24.0 mph38.6 kmh 29.82 in1009.8 mb 0.00 in0.0 mm 0.00 in0.0 mm 0.00 in0.0 mm
06:53 PM 28.8°F-1.8°C 24.3°F-4.3°C 83% 20.9 mph NNE33.6 kmh NNE 24.0 mph38.6 kmh 29.82 in1009.8 mb 0.00 in0.0 mm 0.00 in0.0 mm 0.00 in0.0 mm
06:54 PM 28.9°F-1.7°C 24.4°F-4.2°C 83% 18.4 mph NE29.6 kmh NE 23.0 mph37.0 kmh 29.83 in1010.2 mb 0.00 in0.0 mm 0.00 in0.0 mm 0.00 in0.0 mm
06:55 PM 28.9°F-1.7°C 24.4°F-4.2°C 83% 18.2 mph NE29.3 kmh NE 22.0 mph35.4 kmh 29.83 in1010.2 mb 0.00 in0.0 mm 0.00 in0.0 mm 0.00 in0.0 mm
06:56 PM 28.9°F-1.7°C 24.7°F-4.1°C 84% 16.7 mph NE26.9 kmh NE 22.0 mph35.4 kmh 29.83 in1010.2 mb 0.00 in0.0 mm 0.00 in0.0 mm 0.00 in0.0 mm
06:57 PM 29.0°F-1.7°C 24.8°F-4.0°C 84% 19.4 mph NNE31.2 kmh NNE 24.0 mph38.6 kmh 29.83 in1010.2 mb 0.00 in0.0 mm 0.00 in0.0 mm 0.00 in0.0 mm
06:58 PM 29.0°F-1.7°C 24.8°F-4.0°C 84% 22.0 mph NNE35.4 kmh NNE 26.0 mph41.8 kmh 29.83 in1010.2 mb 0.00 in0.0 mm 0.00 in0.0 mm 0.00 in0.0 mm
06:59 PM 29.1°F-1.6°C 24.9°F-3.9°C 84% 21.5 mph NE34.6 kmh NE 26.0 mph41.8 kmh 29.83 in1010.2 mb 0.00 in0.0 mm 0.00 in0.0 mm 0.00 in0.0 mm
07:00 PM 29.0°F-1.7°C 24.5°F-4.2°C 83% 21.5 mph NNE34.6 kmh NNE 26.0 mph41.8 kmh 29.83 in1010.2 mb 0.00 in0.0 mm 0.00 in0.0 mm 0.00 in0.0 mm
07:01 PM 28.9°F-1.7°C 24.4°F-4.2°C 83% 20.4 mph NNE32.8 kmh NNE 26.0 mph41.8 kmh 29.83 in1010.2 mb 0.00 in0.0 mm 0.00 in0.0 mm 0.00 in0.0 mm
07:02 PM 28.9°F-1.7°C 24.4°F-4.2°C 83% 19.9 mph NNE32.0 kmh NNE 25.0 mph40.2 kmh 29.83 in1010.2 mb 0.00 in0.0 mm 0.00 in0.0 mm 0.00 in0.0 mm
07:03 PM 29.0°F-1.7°C 24.8°F-4.0°C 84% 18.1 mph NNE29.1 kmh NNE 23.0 mph37.0 kmh 29.83 in1010.2 mb 0.00 in0.0 mm 0.00 in0.0 mm 0.00 in0.0 mm
07:04 PM 29.0°F-1.7°C 24.5°F-4.2°C 83% 22.3 mph NE35.9 kmh NE 25.0 mph40.2 kmh 29.83 in1010.2 mb 0.00 in0.0 mm 0.00 in0.0 mm 0.00 in0.0 mm
07:05 PM 29.0°F-1.7°C 24.8°F-4.0°C 84% 20.2 mph NE32.5 kmh NE 25.0 mph40.2 kmh 29.83 in1010.2 mb 0.00 in0.0 mm 0.00 in0.0 mm 0.00 in0.0 mm
07:06 PM 29.0°F-1.7°C 24.8°F-4.0°C 84% 18.7 mph NE30.1 kmh NE 26.0 mph41.8 kmh 29.83 in1010.2 mb 0.00 in0.0 mm 0.00 in0.0 mm 0.00 in0.0 mm
07:07 PM 29.0°F-1.7°C 24.8°F-4.0°C 84% 20.8 mph NNE33.5 kmh NNE 26.0 mph41.8 kmh 29.83 in1010.2 mb 0.00 in0.0 mm 0.00 in0.0 mm 0.00 in0.0 mm
07:08 PM 29.0°F-1.7°C 24.5°F-4.2°C 83% 20.8 mph NNE33.5 kmh NNE 26.0 mph41.8 kmh 29.83 in1010.2 mb 0.00 in0.0 mm 0.00 in0.0 mm 0.00 in0.0 mm
07:09 PM 29.1°F-1.6°C 24.9°F-3.9°C 84% 16.8 mph NE27.0 kmh NE 26.0 mph41.8 kmh 29.83 in1010.2 mb 0.00 in0.0 mm 0.00 in0.0 mm 0.00 in0.0 mm
07:10 PM 29.0°F-1.7°C 24.8°F-4.0°C 84% 16.1 mph NNE25.9 kmh NNE 20.0 mph32.2 kmh 29.83 in1010.2 mb 0.00 in0.0 mm 0.00 in0.0 mm 0.00 in0.0 mm
07:11 PM 29.1°F-1.6°C 24.9°F-3.9°C 84% 18.0 mph NE29.0 kmh NE 22.0 mph35.4 kmh 29.83 in1010.2 mb 0.00 in0.0 mm 0.00 in0.0 mm 0.00 in0.0 mm
07:12 PM 29.1°F-1.6°C 24.9°F-3.9°C 84% 19.4 mph NNE31.2 kmh NNE 22.0 mph35.4 kmh 29.83 in1010.2 mb 0.00 in0.0 mm 0.00 in0.0 mm 0.00 in0.0 mm
07:13 PM 29.1°F-1.6°C 24.9°F-3.9°C 84% 17.5 mph NE28.2 kmh NE 22.0 mph35.4 kmh 29.84 in1010.5 mb 0.00 in0.0 mm 0.00 in0.0 mm 0.00 in0.0 mm
07:14 PM 29.0°F-1.7°C 24.8°F-4.0°C 84% 15.5 mph NE24.9 kmh NE 21.0 mph33.8 kmh 29.84 in1010.5 mb 0.00 in0.0 mm 0.00 in0.0 mm 0.00 in0.0 mm
07:15 PM 29.0°F-1.7°C 24.8°F-4.0°C 84% 15.0 mph NE24.1 kmh NE 20.0 mph32.2 kmh 29.84 in1010.5 mb 0.00 in0.0 mm 0.00 in0.0 mm 0.00 in0.0 mm
07:16 PM 29.0°F-1.7°C 24.8°F-4.0°C 84% 18.0 mph NE29.0 kmh NE 22.0 mph35.4 kmh 29.84 in1010.5 mb 0.00 in0.0 mm 0.00 in0.0 mm 0.00 in0.0 mm
07:17 PM 29.1°F-1.6°C 24.9°F-3.9°C 84% 17.3 mph NE27.8 kmh NE 24.0 mph38.6 kmh 29.84 in1010.5 mb 0.00 in0.0 mm 0.00 in0.0 mm 0.00 in0.0 mm
07:18 PM 29.1°F-1.6°C 24.9°F-3.9°C 84% 19.2 mph NE30.9 kmh NE 26.0 mph41.8 kmh 29.84 in1010.5 mb 0.00 in0.0 mm 0.00 in0.0 mm 0.00 in0.0 mm
07:19 PM 29.0°F-1.7°C 24.8°F-4.0°C 84% 19.9 mph NE32.0 kmh NE 26.0 mph41.8 kmh 29.84 in1010.5 mb 0.00 in0.0 mm 0.00 in0.0 mm 0.00 in0.0 mm
07:20 PM 29.1°F-1.6°C 24.9°F-3.9°C 84% 18.2 mph NE29.3 kmh NE 24.0 mph38.6 kmh 29.84 in1010.5 mb 0.00 in0.0 mm 0.00 in0.0 mm 0.00 in0.0 mm
07:21 PM 29.0°F-1.7°C 24.8°F-4.0°C 84% 17.5 mph NE28.2 kmh NE 21.0 mph33.8 kmh 29.84 in1010.5 mb 0.00 in0.0 mm 0.00 in0.0 mm 0.00 in0.0 mm
07:22 PM 29.1°F-1.6°C 24.9°F-3.9°C 84% 16.7 mph NE26.9 kmh NE 22.0 mph35.4 kmh 29.84 in1010.5 mb 0.00 in0.0 mm 0.00 in0.0 mm 0.00 in0.0 mm
07:23 PM 29.0°F-1.7°C 24.8°F-4.0°C 84% 15.9 mph NE25.6 kmh NE 22.0 mph35.4 kmh 29.84 in1010.5 mb 0.00 in0.0 mm 0.00 in0.0 mm 0.00 in0.0 mm
07:24 PM 29.1°F-1.6°C 24.9°F-3.9°C 84% 21.0 mph NE33.8 kmh NE 25.0 mph40.2 kmh 29.84 in1010.5 mb 0.00 in0.0 mm 0.00 in0.0 mm 0.00 in0.0 mm
07:25 PM 29.0°F-1.7°C 24.8°F-4.0°C 84% 20.3 mph NE32.7 kmh NE 25.0 mph40.2 kmh 29.84 in1010.5 mb 0.00 in0.0 mm 0.00 in0.0 mm 0.00 in0.0 mm
07:26 PM 29.1°F-1.6°C 24.9°F-3.9°C 84% 18.3 mph NNE29.5 kmh NNE 23.0 mph37.0 kmh 29.84 in1010.5 mb 0.00 in0.0 mm 0.00 in0.0 mm 0.00 in0.0 mm
07:27 PM 29.0°F-1.7°C 24.8°F-4.0°C 84% 18.8 mph NE30.3 kmh NE 23.0 mph37.0 kmh 29.84 in1010.5 mb 0.00 in0.0 mm 0.00 in0.0 mm 0.00 in0.0 mm
07:28 PM 29.1°F-1.6°C 24.9°F-3.9°C 84% 16.4 mph NE26.4 kmh NE 22.0 mph35.4 kmh 29.84 in1010.5 mb 0.00 in0.0 mm 0.00 in0.0 mm 0.00 in0.0 mm
07:29 PM 29.1°F-1.6°C 24.9°F-3.9°C 84% 15.4 mph NE24.8 kmh NE 24.0 mph38.6 kmh 29.84 in1010.5 mb 0.00 in0.0 mm 0.00 in0.0 mm 0.00 in0.0 mm
07:30 PM 29.1°F-1.6°C 24.9°F-3.9°C 84% 17.7 mph NE28.5 kmh NE 24.0 mph38.6 kmh 29.84 in1010.5 mb 0.00 in0.0 mm 0.00 in0.0 mm 0.00 in0.0 mm
07:31 PM 29.1°F-1.6°C</